Time,TemperatureF,DewpointF,PressureIn,WindDirection,WindDirectionDegrees,WindSpeedMPH,WindSpeedGustMPH,Humidity,HourlyPrecipIn,Conditions,Clouds,dailyrainin,SoftwareType,DateUTC
2014-01-09 00:00:00,51.2,18.4,29.89,SSW,202,0.0,4.4,27,0.00,,---,0.00,VWS V14.01,2014-01-09 08:00:00,
2014-01-09 00:01:00,51.2,18.4,29.89,SSW,202,0.0,0.0,27,0.00,,---,0.00,VWS V14.01,2014-01-09 08:01:00,
2014-01-09 00:02:00,51.2,18.4,29.89,SSW,202,0.0,0.0,27,0.00,,---,0.00,VWS V14.01,2014-01-09 08:02:00,
2014-01-09 00:03:00,51.2,18.4,29.89,SSW,202,0.0,0.0,27,0.00,,---,0.00,VWS V14.01,2014-01-09 08:03:00,
2014-01-09 00:04:00,51.2,18.4,29.89,SSW,202,0.0,0.0,27,0.00,,---,0.00,VWS V14.01,2014-01-09 08:04:00,
2014-01-09 00:05:00,51.2,18.4,29.89,SSW,202,0.0,0.0,27,0.00,,---,0.00,VWS V14.01,2014-01-09 08:05:00,
2014-01-09 00:06:00,51.2,18.4,29.89,SSW,202,0.0,0.0,27,0.00,,---,0.00,VWS V14.01,2014-01-09 08:06:00,
2014-01-09 00:07:00,51.2,18.4,29.89,SSW,202,0.0,0.0,27,0.00,,---,0.00,VWS V14.01,2014-01-09 08:07:00,
2014-01-09 00:08:00,51.2,18.4,29.89,SSW,202,0.0,0.0,27,0.00,,---,0.00,VWS V14.01,2014-01-09 08:08:00,
2014-01-09 00:09:00,51.2,18.4,29.89,SSW,202,0.0,0.0,27,0.00,,---,0.00,VWS V14.01,2014-01-09 08:09:00,
2014-01-09 00:10:00,51.2,18.4,29.89,SSW,202,0.0,0.0,27,0.00,,---,0.00,VWS V14.01,2014-01-09 08:10:00,
2014-01-09 00:11:00,51.2,18.4,29.89,SSW,202,0.0,0.0,27,0.00,,---,0.00,VWS V14.01,2014-01-09 08:11:00,
2014-01-09 00:12:00,50.9,18.1,29.88,SW,225,4.4,4.4,27,0.00,,---,0.00,VWS V14.01,2014-01-09 08:12:00,
2014-01-09 00:13:00,50.9,19.0,29.88,SW,225,1.7,4.4,28,0.00,,---,0.00,VWS V14.01,2014-01-09 08:13:00,
2014-01-09 00:14:00,50.9,19.0,29.88,SW,225,1.7,1.7,28,0.00,,---,0.00,VWS V14.01,2014-01-09 08:14:00,
2014-01-09 00:15:00,50.9,18.1,29.88,WSW,248,0.8,0.8,27,0.00,,---,0.00,VWS V14.01,2014-01-09 08:15:00,
2014-01-09 00:16:00,50.9,19.0,29.88,WSW,248,0.0,0.8,28,0.00,,---,0.00,VWS V14.01,2014-01-09 08:16:00,
2014-01-09 00:17:00,50.9,19.0,29.88,NE,45,0.0,0.0,28,0.00,,---,0.00,VWS V14.01,2014-01-09 08:17:00,
2014-01-09 00:18:00,50.7,18.0,29.88,NE,45,0.0,0.0,27,0.00,,---,0.00,VWS V14.01,2014-01-09 08:18:00,
2014-01-09 00:19:00,50.7,18.0,29.88,NE,45,0.0,0.0,27,0.00,,---,0.00,VWS V14.01,2014-01-09 08:19:00,
2014-01-09 00:20:00,50.7,18.8,29.88,NE,45,0.0,0.0,28,0.00,,---,0.00,VWS V14.01,2014-01-09 08:20:00,
2014-01-09 00:21:00,50.7,18.8,29.88,East,90,0.0,0.0,28,0.00,,---,0.00,VWS V14.01,2014-01-09 08:21:00,
2014-01-09 00:22:00,50.7,18.8,29.88,ESE,112,2.0,2.0,28,0.00,,---,0.00,VWS V14.01,2014-01-09 08:22:00,
2014-01-09 00:23:00,50.5,18.6,29.88,ESE,112,1.5,2.0,28,0.00,,---,0.00,VWS V14.01,2014-01-09 08:23:00,
2014-01-09 00:24:00,50.5,18.6,29.88,ESE,112,1.5,1.5,28,0.00,,---,0.00,VWS V14.01,2014-01-09 08:24:00,
2014-01-09 00:25:00,50.5,18.6,29.88,ESE,112,0.6,1.1,28,0.00,,---,0.00,VWS V14.01,2014-01-09 08:25:00,
2014-01-09 00:26:00,50.5,18.6,29.88,ESE,112,0.0,0.6,28,0.00,,---,0.00,VWS V14.01,2014-01-09 08:26:00,
2014-01-09 00:27:00,50.3,18.5,29.88,ESE,112,0.0,0.0,28,0.00,,---,0.00,VWS V14.01,2014-01-09 08:27:00,
2014-01-09 00:28:00,50.3,17.6,29.88,ESE,112,0.0,0.0,27,0.00,,---,0.00,VWS V14.01,2014-01-09 08:28:00,
2014-01-09 00:29:00,50.3,17.6,29.88,ESE,112,0.0,0.0,27,0.00,,---,0.00,VWS V14.01,2014-01-09 08:29:00,
2014-01-09 00:30:00,50.3,18.5,29.88,ESE,112,0.0,0.0,28,0.00,,---,0.00,VWS V14.01,2014-01-09 08:30:00,
2014-01-09 00:31:00,50.1,18.3,29.88,ESE,112,0.0,0.0,28,0.00,,---,0.00,VWS V14.01,2014-01-09 08:31:00,
2014-01-09 00:32:00,50.1,18.3,29.88,ESE,112,0.0,0.0,28,0.00,,---,0.00,VWS V14.01,2014-01-09 08:32:00,
2014-01-09 00:33:00,50.1,17.4,29.88,ESE,112,0.0,0.0,27,0.00,,---,0.00,VWS V14.01,2014-01-09 08:33:00,
2014-01-09 00:34:00,50.1,17.4,29.88,ESE,112,0.0,0.0,27,0.00,,---,0.00,VWS V14.01,2014-01-09 08:34:00,
2014-01-09 00:35:00,50.1,18.3,29.88,South,180,0.0,0.0,28,0.00,,---,0.00,VWS V14.01,2014-01-09 08:35:00,
2014-01-09 00:36:00,50.0,18.2,29.88,SW,225,3.1,3.1,28,0.00,,---,0.00,VWS V14.01,2014-01-09 08:36:00,
2014-01-09 00:37:00,49.8,18.0,29.88,SSW,202,4.0,4.0,28,0.00,,---,0.00,VWS V14.01,2014-01-09 08:37:00,
2014-01-09 00:38:00,50.0,18.2,29.88,SSW,202,6.4,6.4,28,0.00,,---,0.00,VWS V14.01,2014-01-09 08:38:00,
2014-01-09 00:39:00,50.0,18.2,29.88,SSW,202,6.4,6.4,28,0.00,,---,0.00,VWS V14.01,2014-01-09 08:39:00,
2014-01-09 00:40:00,50.0,19.0,29.87,SW,225,2.6,2.6,29,0.00,,---,0.00,VWS V14.01,2014-01-09 08:40:00,
2014-01-09 00:41:00,50.1,19.1,29.87,SSW,202,7.3,7.3,29,0.00,,---,0.00,VWS V14.01,2014-01-09 08:41:00,
2014-01-09 00:42:00,50.1,19.1,29.87,SSW,202,4.9,7.3,29,0.00,,---,0.00,VWS V14.01,2014-01-09 08:42:00,
2014-01-09 00:43:00,50.1,19.1,29.87,SSW,202,3.1,4.9,29,0.00,,---,0.00,VWS V14.01,2014-01-09 08:43:00,
2014-01-09 00:44:00,50.1,19.1,29.87,SSW,202,3.1,3.1,29,0.00,,---,0.00,VWS V14.01,2014-01-09 08:44:00,
2014-01-09 00:45:00,50.3,19.3,29.87,SW,225,7.3,7.3,29,0.00,,---,0.00,VWS V14.01,2014-01-09 08:45:00,
2014-01-09 00:46:00,50.3,19.3,29.87,SSW,202,4.0,7.3,29,0.00,,---,0.00,VWS V14.01,2014-01-09 08:46:00,
2014-01-09 00:47:00,50.3,20.1,29.87,SW,225,6.4,6.4,30,0.00,,---,0.00,VWS V14.01,2014-01-09 08:47:00,
2014-01-09 00:48:00,50.5,20.2,29.87,SSW,202,6.4,6.4,30,0.00,,---,0.00,VWS V14.01,2014-01-09 08:48:00,
2014-01-09 00:49:00,50.5,20.2,29.87,SSW,202,6.4,6.4,30,0.00,,---,0.00,VWS V14.01,2014-01-09 08:49:00,
2014-01-09 00:50:00,50.5,20.2,29.87,SSW,202,6.9,6.9,30,0.00,,---,0.00,VWS V14.01,2014-01-09 08:50:00,
2014-01-09 00:51:00,50.5,19.5,29.87,SSW,202,6.7,6.9,29,0.00,,---,0.00,VWS V14.01,2014-01-09 08:51:00,
2014-01-09 00:52:00,50.7,20.4,29.87,SSW,202,3.8,6.7,30,0.00,,---,0.00,VWS V14.01,2014-01-09 08:52:00,
2014-01-09 00:53:00,50.7,20.4,29.87,SW,225,5.1,5.1,30,0.00,,---,0.00,VWS V14.01,2014-01-09 08:53:00,
2014-01-09 00:54:00,50.7,20.4,29.87,SW,225,5.1,5.1,30,0.00,,---,0.00,VWS V14.01,2014-01-09 08:54:00,
2014-01-09 00:55:00,50.7,20.4,29.87,SW,225,2.9,6.4,30,0.00,,---,0.00,VWS V14.01,2014-01-09 08:55:00,
2014-01-09 00:56:00,50.7,20.4,29.87,SW,225,4.2,4.2,30,0.00,,---,0.00,VWS V14.01,2014-01-09 08:56:00,
2014-01-09 00:57:00,50.7,20.4,29.87,SSW,202,6.7,6.7,30,0.00,,---,0.00,VWS V14.01,2014-01-09 08:57:00,
2014-01-09 00:58:00,50.7,19.6,29.87,North,0,0.0,6.7,29,0.00,,---,0.00,VWS V14.01,2014-01-09 08:58:00,
2014-01-09 00:59:00,50.7,19.6,29.87,North,0,0.0,0.0,29,0.00,,---,0.00,VWS V14.01,2014-01-09 08:59:00,
2014-01-09 01:00:00,50.7,19.6,29.87,South,180,6.4,6.4,29,0.00,,---,0.00,VWS V14.01,2014-01-09 09:00:00,
2014-01-09 01:01:00,50.7,19.6,29.87,South,180,6.4,6.4,29,0.00,,---,0.00,VWS V14.01,2014-01-09 09:01:00,
2014-01-09 01:02:00,50.7,19.6,29.87,South,180,6.4,6.4,29,0.00,,---,0.00,VWS V14.01,2014-01-09 09:02:00,
2014-01-09 01:03:00,50.7,19.6,29.87,South,180,6.4,6.4,29,0.00,,---,0.00,VWS V14.01,2014-01-09 09:03:00,
2014-01-09 01:04:00,50.7,19.6,29.87,South,180,6.4,6.4,29,0.00,,---,0.00,VWS V14.01,2014-01-09 09:04:00,
2014-01-09 01:05:00,50.7,19.6,29.87,South,180,6.4,6.4,29,0.00,,---,0.00,VWS V14.01,2014-01-09 09:05:00,
2014-01-09 01:06:00,50.7,19.6,29.87,South,180,6.4,6.4,29,0.00,,---,0.00,VWS V14.01,2014-01-09 09:06:00,
2014-01-09 01:07:00,50.7,19.6,29.87,South,180,6.4,6.4,29,0.00,,---,0.00,VWS V14.01,2014-01-09 09:07:00,
2014-01-09 01:08:00,50.7,19.6,29.87,South,180,6.4,6.4,29,0.00,,---,0.00,VWS V14.01,2014-01-09 09:08:00,
2014-01-09 01:09:00,50.7,19.6,29.87,South,180,6.4,6.4,29,0.00,,---,0.00,VWS V14.01,2014-01-09 09:09:00,
2014-01-09 01:10:00,50.7,19.6,29.87,South,180,6.4,6.4,29,0.00,,---,0.00,VWS V14.01,2014-01-09 09:10:00,
2014-01-09 01:11:00,51.0,18.2,29.87,SW,225,8.2,8.2,27,0.00,,---,0.00,VWS V14.01,2014-01-09 09:11:00,
2014-01-09 01:12:00,51.2,18.4,29.87,SSW,202,8.5,8.5,27,0.00,,---,0.00,VWS V14.01,2014-01-09 09:12:00,
2014-01-09 01:13:00,51.2,18.4,29.86,SSW,202,6.2,8.5,27,0.00,,---,0.00,VWS V14.01,2014-01-09 09:13:00,
2014-01-09 01:14:00,51.2,18.4,29.86,WSW,248,6.7,6.7,27,0.00,,---,0.00,VWS V14.01,2014-01-09 09:14:00,
2014-01-09 01:15:00,51.2,18.4,29.86,North,0,0.0,6.7,27,0.00,,---,0.00,VWS V14.01,2014-01-09 09:15:00,
2014-01-09 01:16:00,51.2,18.4,29.86,SSW,202,6.4,6.4,27,0.00,,---,0.00,VWS V14.01,2014-01-09 09:16:00,
2014-01-09 01:17:00,51.2,18.4,29.86,SSW,202,2.9,6.4,27,0.00,,---,0.00,VWS V14.01,2014-01-09 09:17:00,
2014-01-09 01:18:00,51.4,18.6,29.86,SSW,202,2.9,2.9,27,0.00,,---,0.00,VWS V14.01,2014-01-09 09:18:00,
2014-01-09 01:19:00,51.4,18.6,29.86,SW,225,3.1,3.1,27,0.00,,---,0.00,VWS V14.01,2014-01-09 09:19:00,
2014-01-09 01:20:00,51.4,18.6,29.86,SW,225,5.3,5.3,27,0.00,,---,0.00,VWS V14.01,2014-01-09 09:20:00,
2014-01-09 01:21:00,51.4,18.6,29.86,SSW,202,3.1,5.3,27,0.00,,---,0.00,VWS V14.01,2014-01-09 09:21:00,
2014-01-09 01:22:00,51.4,18.6,29.86,South,180,5.5,5.5,27,0.00,,---,0.00,VWS V14.01,2014-01-09 09:22:00,
2014-01-09 01:23:00,51.4,18.6,29.86,WSW,248,2.4,5.5,27,0.00,,---,0.00,VWS V14.01,2014-01-09 09:23:00,
2014-01-09 01:24:00,51.4,18.6,29.86,SSW,202,3.8,3.8,27,0.00,,---,0.00,VWS V14.01,2014-01-09 09:24:00,
2014-01-09 01:25:00,51.4,18.6,29.86,SSW,202,1.7,3.8,27,0.00,,---,0.00,VWS V14.01,2014-01-09 09:25:00,
2014-01-09 01:26:00,51.4,18.6,29.86,SSW,202,1.7,1.7,27,0.00,,---,0.00,VWS V14.01,2014-01-09 09:26:00,
2014-01-09 01:27:00,51.4,18.6,29.86,SSW,202,4.6,4.6,27,0.00,,---,0.00,VWS V14.01,2014-01-09 09:27:00,
2014-01-09 01:28:00,51.4,18.6,29.86,North,0,0.0,4.6,27,0.00,,---,0.00,VWS V14.01,2014-01-09 09:28:00,
2014-01-09 01:29:00,51.4,18.6,29.86,South,180,6.2,6.2,27,0.00,,---,0.00,VWS V14.01,2014-01-09 09:29:00,
2014-01-09 01:30:00,51.4,18.6,29.86,SW,225,3.1,6.2,27,0.00,,---,0.00,VWS V14.01,2014-01-09 09:30:00,
2014-01-09 01:31:00,51.2,18.4,29.86,SSW,202,5.1,5.1,27,0.00,,---,0.00,VWS V14.01,2014-01-09 09:31:00,
2014-01-09 01:32:00,51.2,18.4,29.87,SW,225,3.5,5.1,27,0.00,,---,0.00,VWS V14.01,2014-01-09 09:32:00,
2014-01-09 01:33:00,51.2,18.4,29.86,SSW,202,4.0,4.0,27,0.00,,---,0.00,VWS V14.01,2014-01-09 09:33:00,
2014-01-09 01:34:00,51.2,18.4,29.86,SSW,202,5.5,5.5,27,0.00,,---,0.00,VWS V14.01,2014-01-09 09:34:00,
2014-01-09 01:35:00,51.2,18.4,29.86,WSW,248,3.8,5.5,27,0.00,,---,0.00,VWS V14.01,2014-01-09 09:35:00,
2014-01-09 01:36:00,51.2,18.4,29.86,South,180,3.8,3.8,27,0.00,,---,0.00,VWS V14.01,2014-01-09 09:36:00,
2014-01-09 01:37:00,51.2,18.4,29.86,SW,225,4.6,4.6,27,0.00,,---,0.00,VWS V14.01,2014-01-09 09:37:00,
2014-01-09 01:38:00,51.2,18.4,29.87,SSW,202,2.9,4.6,27,0.00,,---,0.00,VWS V14.01,2014-01-09 09:38:00,
2014-01-09 01:39:00,51.2,18.4,29.86,WSW,248,0.6,2.9,27,0.00,,---,0.00,VWS V14.01,2014-01-09 09:39:00,
2014-01-09 01:40:00,51.2,18.4,29.86,WSW,248,1.7,1.7,27,0.00,,---,0.00,VWS V14.01,2014-01-09 09:40:00,
2014-01-09 01:41:00,51.2,18.4,29.86,SW,225,1.3,1.7,27,0.00,,---,0.00,VWS V14.01,2014-01-09 09:41:00,
2014-01-09 01:42:00,51.2,18.4,29.86,SSW,202,1.7,1.7,27,0.00,,---,0.00,VWS V14.01,2014-01-09 09:42:00,
2014-01-09 01:43:00,51.2,18.4,29.86,SSW,202,3.1,3.1,27,0.00,,---,0.00,VWS V14.01,2014-01-09 09:43:00,
2014-01-09 01:44:00,51.0,18.2,29.86,North,0,0.0,0.0,27,0.00,,---,0.00,VWS V14.01,2014-01-09 09:44:00,
2014-01-09 01:45:00,51.0,18.2,29.86,SSW,202,6.0,6.0,27,0.00,,---,0.00,VWS V14.01,2014-01-09 09:45:00,
2014-01-09 01:46:00,51.0,18.2,29.86,WSW,248,4.2,6.0,27,0.00,,---,0.00,VWS V14.01,2014-01-09 09:46:00,
2014-01-09 01:47:00,51.0,18.2,29.87,SW,225,4.9,4.9,27,0.00,,---,0.00,VWS V14.01,2014-01-09 09:47:00,
2014-01-09 01:48:00,51.0,18.2,29.86,SSW,202,3.1,4.9,27,0.00,,---,0.00,VWS V14.01,2014-01-09 09:48:00,
2014-01-09 01:49:00,51.0,18.2,29.86,WSW,248,3.5,3.5,27,0.00,,---,0.00,VWS V14.01,2014-01-09 09:49:00,
2014-01-09 01:50:00,51.0,18.2,29.86,SW,225,1.7,3.5,27,0.00,,---,0.00,VWS V14.01,2014-01-09 09:50:00,
2014-01-09 01:51:00,51.0,18.2,29.86,SSW,202,6.2,6.2,27,0.00,,---,0.00,VWS V14.01,2014-01-09 09:51:00,
2014-01-09 01:52:00,51.0,18.2,29.86,SSW,202,0.2,6.2,27,0.00,,---,0.00,VWS V14.01,2014-01-09 09:52:00,
2014-01-09 01:53:00,51.2,19.2,29.86,WSW,248,4.4,4.4,28,0.00,,---,0.00,VWS V14.01,2014-01-09 09:53:00,
2014-01-09 01:54:00,51.0,18.2,29.86,North,0,0.0,4.4,27,0.00,,---,0.00,VWS V14.01,2014-01-09 09:54:00,
2014-01-09 01:55:00,51.0,18.2,29.86,WSW,248,4.9,4.9,27,0.00,,---,0.00,VWS V14.01,2014-01-09 09:55:00,
2014-01-09 01:56:00,51.0,18.2,29.86,South,180,4.4,4.9,27,0.00,,---,0.00,VWS V14.01,2014-01-09 09:56:00,
2014-01-09 01:57:00,51.0,18.2,29.86,North,0,0.0,4.4,27,0.00,,---,0.00,VWS V14.01,2014-01-09 09:57:00,
2014-01-09 01:58:00,51.0,18.2,29.86,SSW,202,1.7,1.7,27,0.00,,---,0.00,VWS V14.01,2014-01-09 09:58:00,
2014-01-09 01:59:00,51.0,18.2,29.86,SW,225,3.5,3.5,27,0.00,,---,0.00,VWS V14.01,2014-01-09 09:59:00,
2014-01-09 02:00:00,51.0,18.2,29.86,WSW,248,7.1,7.1,27,0.00,,---,0.00,VWS V14.01,2014-01-09 10:00:00,
2014-01-09 02:01:00,51.0,18.2,29.86,WSW,248,7.1,7.1,27,0.00,,---,0.00,VWS V14.01,2014-01-09 10:01:00,
2014-01-09 02:02:00,51.0,18.2,29.86,WSW,248,7.1,7.1,27,0.00,,---,0.00,VWS V14.01,2014-01-09 10:02:00,
2014-01-09 02:03:00,51.0,18.2,29.86,WSW,248,7.1,7.1,27,0.00,,---,0.00,VWS V14.01,2014-01-09 10:03:00,
2014-01-09 02:04:00,51.0,18.2,29.86,WSW,248,7.1,7.1,27,0.00,,---,0.00,VWS V14.01,2014-01-09 10:04:00,
2014-01-09 02:05:00,51.0,18.2,29.86,WSW,248,7.1,7.1,27,0.00,,---,0.00,VWS V14.01,2014-01-09 10:05:00,
2014-01-09 02:06:00,51.0,18.2,29.86,WSW,248,7.1,7.1,27,0.00,,---,0.00,VWS V14.01,2014-01-09 10:06:00,
2014-01-09 02:07:00,51.0,18.2,29.86,WSW,248,7.1,7.1,27,0.00,,---,0.00,VWS V14.01,2014-01-09 10:07:00,
2014-01-09 02:08:00,51.0,18.2,29.86,WSW,248,7.1,7.1,27,0.00,,---,0.00,VWS V14.01,2014-01-09 10:08:00,
2014-01-09 02:09:00,51.0,18.2,29.86,WSW,248,7.1,7.1,27,0.00,,---,0.00,VWS V14.01,2014-01-09 10:09:00,
2014-01-09 02:10:00,51.0,18.2,29.86,WSW,248,7.1,7.1,27,0.00,,---,0.00,VWS V14.01,2014-01-09 10:10:00,
2014-01-09 02:11:00,51.0,18.2,29.86,West,270,2.4,6.0,27,0.00,,---,0.00,VWS V14.01,2014-01-09 10:11:00,
2014-01-09 02:12:00,50.9,18.1,29.86,WNW,292,5.3,5.3,27,0.00,,---,0.00,VWS V14.01,2014-01-09 10:12:00,
2014-01-09 02:13:00,51.0,18.2,29.86,West,270,2.6,5.3,27,0.00,,---,0.00,VWS V14.01,2014-01-09 10:13:00,
2014-01-09 02:14:00,51.0,18.2,29.86,West,270,2.6,2.6,27,0.00,,---,0.00,VWS V14.01,2014-01-09 10:14:00,
2014-01-09 02:15:00,50.9,18.1,29.87,NW,315,6.7,6.7,27,0.00,,---,0.00,VWS V14.01,2014-01-09 10:15:00,
2014-01-09 02:16:00,50.9,18.1,29.87,WNW,292,0.0,6.7,27,0.00,,---,0.00,VWS V14.01,2014-01-09 10:16:00,
2014-01-09 02:17:00,50.7,18.8,29.87,WNW,292,0.0,0.0,28,0.00,,---,0.00,VWS V14.01,2014-01-09 10:17:00,
2014-01-09 02:18:00,50.5,18.6,29.87,WNW,292,0.0,0.0,28,0.00,,---,0.00,VWS V14.01,2014-01-09 10:18:00,
2014-01-09 02:19:00,50.5,18.6,29.87,WNW,292,0.0,0.0,28,0.00,,---,0.00,VWS V14.01,2014-01-09 10:19:00,
2014-01-09 02:20:00,50.3,18.5,29.87,WNW,292,0.0,0.0,28,0.00,,---,0.00,VWS V14.01,2014-01-09 10:20:00,
2014-01-09 02:21:00,50.1,17.4,29.87,WNW,292,0.0,0.0,27,0.00,,---,0.00,VWS V14.01,2014-01-09 10:21:00,
2014-01-09 02:22:00,49.8,18.0,29.87,WNW,292,0.0,0.0,28,0.00,,---,0.00,VWS V14.01,2014-01-09 10:22:00,
2014-01-09 02:23:00,49.6,17.0,29.87,WNW,292,0.0,0.0,27,0.00,,---,0.00,VWS V14.01,2014-01-09 10:23:00,
2014-01-09 02:24:00,49.6,17.0,29.87,WNW,292,0.0,0.0,27,0.00,,---,0.00,VWS V14.01,2014-01-09 10:24:00,
2014-01-09 02:25:00,49.1,17.4,29.87,WNW,292,0.0,0.0,28,0.00,,---,0.00,VWS V14.01,2014-01-09 10:25:00,
2014-01-09 02:26:00,49.1,17.4,29.87,WNW,292,0.0,0.0,28,0.00,,---,0.00,VWS V14.01,2014-01-09 10:26:00,
2014-01-09 02:27:00,48.9,8.5,29.87,North,0,0.0,0.0,19,0.00,,---,0.00,VWS V14.01,2014-01-09 10:27:00,
2014-01-09 02:28:00,48.5,8.1,29.87,SW,225,0.0,0.0,19,0.00,,---,0.00,VWS V14.01,2014-01-09 10:28:00,
2014-01-09 02:29:00,48.5,8.1,29.87,SW,225,0.0,0.0,19,0.00,,---,0.00,VWS V14.01,2014-01-09 10:29:00,
2014-01-09 02:30:00,48.0,7.7,29.87,ESE,112,3.3,4.9,19,0.00,,---,0.00,VWS V14.01,2014-01-09 10:30:00,
2014-01-09 02:31:00,47.8,7.6,29.87,ESE,112,0.4,3.3,19,0.00,,---,0.00,VWS V14.01,2014-01-09 10:31:00,
2014-01-09 02:32:00,47.6,7.4,29.87,ESE,112,0.0,0.4,19,0.00,,---,0.00,VWS V14.01,2014-01-09 10:32:00,
2014-01-09 02:33:00,47.3,7.1,29.87,NE,45,0.2,0.2,19,0.00,,---,0.00,VWS V14.01,2014-01-09 10:33:00,
2014-01-09 02:34:00,47.3,7.1,29.87,NE,45,0.2,0.2,19,0.00,,---,0.00,VWS V14.01,2014-01-09 10:34:00,
2014-01-09 02:35:00,47.1,7.0,29.87,ENE,68,2.2,2.2,19,0.00,,---,0.00,VWS V14.01,2014-01-09 10:35:00,
2014-01-09 02:36:00,46.7,6.6,29.87,SE,135,1.1,2.2,19,0.00,,---,0.00,VWS V14.01,2014-01-09 10:36:00,
2014-01-09 02:37:00,46.5,6.5,29.87,North,0,0.0,1.1,19,0.00,,---,0.00,VWS V14.01,2014-01-09 10:37:00,
2014-01-09 02:38:00,46.5,6.5,29.87,West,270,2.9,2.9,19,0.00,,---,0.00,VWS V14.01,2014-01-09 10:38:00,
2014-01-09 02:39:00,46.5,6.5,29.87,West,270,2.9,2.9,19,0.00,,---,0.00,VWS V14.01,2014-01-09 10:39:00,
2014-01-09 02:40:00,46.0,6.1,29.87,WSW,248,4.2,4.2,19,0.00,,---,0.00,VWS V14.01,2014-01-09 10:40:00,
2014-01-09 02:41:00,46.2,6.2,29.87,SW,225,4.2,4.2,19,0.00,,---,0.00,VWS V14.01,2014-01-09 10:41:00,
2014-01-09 02:42:00,46.4,6.4,29.87,SW,225,5.1,5.1,19,0.00,,---,0.00,VWS V14.01,2014-01-09 10:42:00,
2014-01-09 02:43:00,46.4,6.4,29.87,SW,225,6.0,6.0,19,0.00,,---,0.00,VWS V14.01,2014-01-09 10:43:00,
2014-01-09 02:44:00,46.4,6.4,29.87,SW,225,6.0,6.0,19,0.00,,---,0.00,VWS V14.01,2014-01-09 10:44:00,
2014-01-09 02:45:00,46.7,6.6,29.87,WSW,248,7.3,7.3,19,0.00,,---,0.00,VWS V14.01,2014-01-09 10:45:00,
2014-01-09 02:46:00,46.9,6.8,29.87,WSW,248,6.0,7.3,19,0.00,,---,0.00,VWS V14.01,2014-01-09 10:46:00,
2014-01-09 02:47:00,47.3,7.1,29.87,West,270,1.7,6.0,19,0.00,,---,0.00,VWS V14.01,2014-01-09 10:47:00,
2014-01-09 02:48:00,47.1,7.0,29.87,South,180,7.1,7.1,19,0.00,,---,0.00,VWS V14.01,2014-01-09 10:48:00,
2014-01-09 02:49:00,47.1,7.0,29.87,South,180,7.1,7.1,19,0.00,,---,0.00,VWS V14.01,2014-01-09 10:49:00,
2014-01-09 02:50:00,47.3,7.1,29.87,WNW,292,5.3,5.3,19,0.00,,---,0.00,VWS V14.01,2014-01-09 10:50:00,
2014-01-09 02:51:00,47.4,7.2,29.87,SW,225,9.3,9.3,19,0.00,,---,0.00,VWS V14.01,2014-01-09 10:51:00,
2014-01-09 02:52:00,47.6,7.4,29.87,WSW,248,3.5,9.3,19,0.00,,---,0.00,VWS V14.01,2014-01-09 10:52:00,
2014-01-09 02:53:00,47.6,7.4,29.87,SW,225,5.8,5.8,19,0.00,,---,0.00,VWS V14.01,2014-01-09 10:53:00,
2014-01-09 02:54:00,47.6,7.4,29.87,SW,225,5.8,5.8,19,0.00,,---,0.00,VWS V14.01,2014-01-09 10:54:00,
2014-01-09 02:55:00,47.8,7.6,29.87,West,270,3.1,4.4,19,0.00,,---,0.00,VWS V14.01,2014-01-09 10:55:00,
2014-01-09 02:56:00,47.8,7.6,29.87,WSW,248,6.2,6.2,19,0.00,,---,0.00,VWS V14.01,2014-01-09 10:56:00,
2014-01-09 02:57:00,47.8,7.6,29.87,WSW,248,9.6,9.6,19,0.00,,---,0.00,VWS V14.01,2014-01-09 10:57:00,
2014-01-09 02:58:00,48.3,18.3,29.87,WSW,248,6.0,9.6,30,0.00,,---,0.00,VWS V14.01,2014-01-09 10:58:00,
2014-01-09 02:59:00,48.3,18.3,29.87,WSW,248,6.0,6.0,30,0.00,,---,0.00,VWS V14.01,2014-01-09 10:59:00,
2014-01-09 03:00:00,48.3,18.3,29.87,West,270,4.4,9.6,30,0.00,,---,0.00,VWS V14.01,2014-01-09 11:00:00,
2014-01-09 03:01:00,48.3,18.3,29.87,West,270,4.4,4.4,30,0.00,,---,0.00,VWS V14.01,2014-01-09 11:01:00,
2014-01-09 03:02:00,48.3,18.3,29.87,West,270,4.4,4.4,30,0.00,,---,0.00,VWS V14.01,2014-01-09 11:02:00,
2014-01-09 03:03:00,48.3,18.3,29.87,West,270,4.4,4.4,30,0.00,,---,0.00,VWS V14.01,2014-01-09 11:03:00,
2014-01-09 03:04:00,48.3,18.3,29.87,West,270,4.4,4.4,30,0.00,,---,0.00,VWS V14.01,2014-01-09 11:04:00,
2014-01-09 03:05:00,48.5,8.1,29.87,North,0,0.0,4.9,19,0.00,,---,0.00,VWS V14.01,2014-01-09 11:05:00,
2014-01-09 03:06:00,48.5,8.1,29.87,WSW,248,8.2,8.2,19,0.00,,---,0.00,VWS V14.01,2014-01-09 11:06:00,
2014-01-09 03:07:00,48.5,8.1,29.87,SW,225,5.8,8.2,19,0.00,,---,0.00,VWS V14.01,2014-01-09 11:07:00,
2014-01-09 03:08:00,48.5,8.1,29.87,North,0,0.0,5.8,19,0.00,,---,0.00,VWS V14.01,2014-01-09 11:08:00,
2014-01-09 03:09:00,48.5,8.1,29.87,North,0,0.0,0.0,19,0.00,,---,0.00,VWS V14.01,2014-01-09 11:09:00,
2014-01-09 03:10:00,48.5,8.1,29.88,WSW,248,6.0,6.4,19,0.00,,---,0.00,VWS V14.01,2014-01-09 11:10:00,
2014-01-09 03:11:00,48.5,8.1,29.88,West,270,7.6,7.6,19,0.00,,---,0.00,VWS V14.01,2014-01-09 11:11:00,
2014-01-09 03:12:00,48.5,8.1,29.88,SW,225,8.0,8.0,19,0.00,,---,0.00,VWS V14.01,2014-01-09 11:12:00,
2014-01-09 03:13:00,48.5,8.1,29.87,SW,225,6.4,8.0,19,0.00,,---,0.00,VWS V14.01,2014-01-09 11:13:00,
2014-01-09 03:14:00,48.5,8.1,29.87,SW,225,6.4,6.4,19,0.00,,---,0.00,VWS V14.01,2014-01-09 11:14:00,
2014-01-09 03:15:00,48.5,8.1,29.88,WSW,248,4.6,7.3,19,0.00,,---,0.00,VWS V14.01,2014-01-09 11:15:00,
2014-01-09 03:16:00,48.3,8.0,29.88,SW,225,7.1,7.1,19,0.00,,---,0.00,VWS V14.01,2014-01-09 11:16:00,
2014-01-09 03:17:00,48.3,8.0,29.88,West,270,3.8,7.1,19,0.00,,---,0.00,VWS V14.01,2014-01-09 11:17:00,
2014-01-09 03:18:00,48.3,8.0,29.88,WSW,248,6.4,6.4,19,0.00,,---,0.00,VWS V14.01,2014-01-09 11:18:00,
2014-01-09 03:19:00,48.3,8.0,29.88,WSW,248,6.4,6.4,19,0.00,,---,0.00,VWS V14.01,2014-01-09 11:19:00,
2014-01-09 03:20:00,48.5,8.1,29.88,North,0,0.0,6.7,19,0.00,,---,0.00,VWS V14.01,2014-01-09 11:20:00,
2014-01-09 03:21:00,48.5,8.1,29.87,West,270,5.5,5.5,19,0.00,,---,0.00,VWS V14.01,2014-01-09 11:21:00,
2014-01-09 03:22:00,48.3,8.0,29.87,West,270,3.8,5.5,19,0.00,,---,0.00,VWS V14.01,2014-01-09 11:22:00,
2014-01-09 03:23:00,48.5,8.1,29.87,SW,225,7.6,7.6,19,0.00,,---,0.00,VWS V14.01,2014-01-09 11:23:00,
2014-01-09 03:24:00,48.5,8.1,29.87,SW,225,7.6,7.6,19,0.00,,---,0.00,VWS V14.01,2014-01-09 11:24:00,
2014-01-09 03:25:00,48.3,8.0,29.87,SW,225,7.3,7.3,19,0.00,,---,0.00,VWS V14.01,2014-01-09 11:25:00,
2014-01-09 03:26:00,48.3,8.0,29.87,WSW,248,8.9,8.9,19,0.00,,---,0.00,VWS V14.01,2014-01-09 11:26:00,
2014-01-09 03:27:00,48.3,8.0,29.87,SSW,202,8.7,8.9,19,0.00,,---,0.00,VWS V14.01,2014-01-09 11:27:00,
2014-01-09 03:28:00,48.3,8.0,29.87,SSW,202,5.3,8.7,19,0.00,,---,0.00,VWS V14.01,2014-01-09 11:28:00,
2014-01-09 03:29:00,48.3,8.0,29.87,SSW,202,5.3,5.3,19,0.00,,---,0.00,VWS V14.01,2014-01-09 11:29:00,
2014-01-09 03:30:00,48.3,8.0,29.87,South,180,6.9,6.9,19,0.00,,---,0.00,VWS V14.01,2014-01-09 11:30:00,
2014-01-09 03:31:00,48.3,8.0,29.86,North,0,0.0,6.9,19,0.00,,---,0.00,VWS V14.01,2014-01-09 11:31:00,
2014-01-09 03:32:00,48.2,18.2,29.86,SW,225,6.2,6.2,30,0.00,,---,0.00,VWS V14.01,2014-01-09 11:32:00,
2014-01-09 03:33:00,48.0,7.7,29.86,SSW,202,7.8,7.8,19,0.00,,---,0.00,VWS V14.01,2014-01-09 11:33:00,
2014-01-09 03:34:00,48.0,7.7,29.86,SSW,202,7.8,7.8,19,0.00,,---,0.00,VWS V14.01,2014-01-09 11:34:00,
2014-01-09 03:35:00,47.8,7.6,29.86,SSW,202,5.5,6.4,19,0.00,,---,0.00,VWS V14.01,2014-01-09 11:35:00,
2014-01-09 03:36:00,47.8,7.6,29.86,SW,225,8.9,8.9,19,0.00,,---,0.00,VWS V14.01,2014-01-09 11:36:00,
2014-01-09 03:37:00,48.0,7.7,29.86,SW,225,7.8,8.9,19,0.00,,---,0.00,VWS V14.01,2014-01-09 11:37:00,
2014-01-09 03:38:00,48.0,7.7,29.86,SW,225,6.0,7.8,19,0.00,,---,0.00,VWS V14.01,2014-01-09 11:38:00,
2014-01-09 03:39:00,48.0,7.7,29.86,SW,225,6.0,6.0,19,0.00,,---,0.00,VWS V14.01,2014-01-09 11:39:00,
2014-01-09 03:40:00,48.0,7.7,29.86,SW,225,7.3,8.0,19,0.00,,---,0.00,VWS V14.01,2014-01-09 11:40:00,
2014-01-09 03:41:00,48.0,7.7,29.86,SW,225,8.0,8.0,19,0.00,,---,0.00,VWS V14.01,2014-01-09 11:41:00,
2014-01-09 03:42:00,48.0,7.7,29.86,WSW,248,5.3,8.0,19,0.00,,---,0.00,VWS V14.01,2014-01-09 11:42:00,
2014-01-09 03:43:00,48.0,7.7,29.86,WSW,248,8.0,8.0,19,0.00,,---,0.00,VWS V14.01,2014-01-09 11:43:00,
2014-01-09 03:44:00,48.0,7.7,29.86,WSW,248,8.0,8.0,19,0.00,,---,0.00,VWS V14.01,2014-01-09 11:44:00,
2014-01-09 03:45:00,48.2,7.9,29.86,WSW,248,2.6,6.7,19,0.00,,---,0.00,VWS V14.01,2014-01-09 11:45:00,
2014-01-09 03:46:00,48.0,7.7,29.87,SW,225,7.3,7.3,19,0.00,,---,0.00,VWS V14.01,2014-01-09 11:46:00,
2014-01-09 03:47:00,48.2,7.9,29.87,WSW,248,7.6,7.6,19,0.00,,---,0.00,VWS V14.01,2014-01-09 11:47:00,
2014-01-09 03:48:00,48.3,8.0,29.87,SSW,202,5.5,7.6,19,0.00,,---,0.00,VWS V14.01,2014-01-09 11:48:00,
2014-01-09 03:49:00,48.3,8.0,29.87,SSW,202,5.5,5.5,19,0.00,,---,0.00,VWS V14.01,2014-01-09 11:49:00,
2014-01-09 03:50:00,48.2,7.9,29.87,South,180,6.2,6.2,19,0.00,,---,0.00,VWS V14.01,2014-01-09 11:50:00,
2014-01-09 03:51:00,48.3,8.0,29.87,WNW,292,7.1,7.1,19,0.00,,---,0.00,VWS V14.01,2014-01-09 11:51:00,
2014-01-09 03:52:00,48.3,8.0,29.87,SW,225,7.8,7.8,19,0.00,,---,0.00,VWS V14.01,2014-01-09 11:52:00,
2014-01-09 03:53:00,48.3,8.0,29.87,SSW,202,8.2,8.2,19,0.00,,---,0.00,VWS V14.01,2014-01-09 11:53:00,
2014-01-09 03:54:00,48.3,8.0,29.87,SSW,202,8.2,8.2,19,0.00,,---,0.00,VWS V14.01,2014-01-09 11:54:00,
2014-01-09 03:55:00,48.3,8.0,29.87,North,0,0.0,8.0,19,0.00,,---,0.00,VWS V14.01,2014-01-09 11:55:00,
2014-01-09 03:56:00,48.3,8.0,29.87,South,180,5.5,5.5,19,0.00,,---,0.00,VWS V14.01,2014-01-09 11:56:00,
2014-01-09 03:57:00,48.3,8.0,29.86,SSW,202,6.7,6.7,19,0.00,,---,0.00,VWS V14.01,2014-01-09 11:57:00,
2014-01-09 03:58:00,48.3,8.0,29.86,SSW,202,7.8,7.8,19,0.00,,---,0.00,VWS V14.01,2014-01-09 11:58:00,
2014-01-09 03:59:00,48.3,8.0,29.86,SSW,202,7.8,7.8,19,0.00,,---,0.00,VWS V14.01,2014-01-09 11:59:00,
2014-01-09 04:00:00,48.3,8.0,29.86,SW,225,5.8,5.8,19,0.00,,---,0.00,VWS V14.01,2014-01-09 12:00:00,
2014-01-09 04:01:00,48.3,8.0,29.86,SW,225,5.8,5.8,19,0.00,,---,0.00,VWS V14.01,2014-01-09 12:01:00,
2014-01-09 04:02:00,48.3,8.0,29.86,SW,225,5.8,5.8,19,0.00,,---,0.00,VWS V14.01,2014-01-09 12:02:00,
2014-01-09 04:03:00,48.3,8.0,29.86,SW,225,5.8,5.8,19,0.00,,---,0.00,VWS V14.01,2014-01-09 12:03:00,
2014-01-09 04:04:00,48.3,8.0,29.86,SW,225,5.8,5.8,19,0.00,,---,0.00,VWS V14.01,2014-01-09 12:04:00,
2014-01-09 04:05:00,48.3,8.0,29.86,SW,225,5.8,5.8,19,0.00,,---,0.00,VWS V14.01,2014-01-09 12:05:00,
2014-01-09 04:06:00,48.3,8.0,29.86,SW,225,5.8,5.8,19,0.00,,---,0.00,VWS V14.01,2014-01-09 12:06:00,
2014-01-09 04:07:00,48.3,8.0,29.86,SW,225,5.8,5.8,19,0.00,,---,0.00,VWS V14.01,2014-01-09 12:07:00,
2014-01-09 04:08:00,48.3,8.0,29.86,SW,225,5.8,5.8,19,0.00,,---,0.00,VWS V14.01,2014-01-09 12:08:00,
2014-01-09 04:09:00,48.3,8.0,29.86,SW,225,5.8,5.8,19,0.00,,---,0.00,VWS V14.01,2014-01-09 12:09:00,
2014-01-09 04:10:00,48.3,8.0,29.86,SW,225,5.8,5.8,19,0.00,,---,0.00,VWS V14.01,2014-01-09 12:10:00,
2014-01-09 04:11:00,48.3,8.0,29.86,WSW,248,2.2,6.7,19,0.00,,---,0.00,VWS V14.01,2014-01-09 12:11:00,
2014-01-09 04:12:00,48.2,7.9,29.87,WSW,248,5.8,5.8,19,0.00,,---,0.00,VWS V14.01,2014-01-09 12:12:00,
2014-01-09 04:13:00,48.3,8.0,29.87,WSW,248,3.8,5.8,19,0.00,,---,0.00,VWS V14.01,2014-01-09 12:13:00,
2014-01-09 04:14:00,48.3,8.0,29.87,WSW,248,3.8,3.8,19,0.00,,---,0.00,VWS V14.01,2014-01-09 12:14:00,
2014-01-09 04:15:00,48.3,8.0,29.87,WSW,248,5.5,5.5,19,0.00,,---,0.00,VWS V14.01,2014-01-09 12:15:00,
2014-01-09 04:16:00,48.3,8.0,29.87,West,270,6.0,6.0,19,0.00,,---,0.00,VWS V14.01,2014-01-09 12:16:00,
2014-01-09 04:17:00,48.2,7.9,29.87,SSW,202,5.1,6.0,19,0.00,,---,0.00,VWS V14.01,2014-01-09 12:17:00,
2014-01-09 04:18:00,48.3,8.0,29.87,SSW,202,6.7,6.7,19,0.00,,---,0.00,VWS V14.01,2014-01-09 12:18:00,
2014-01-09 04:19:00,48.3,8.0,29.87,SSW,202,6.7,6.7,19,0.00,,---,0.00,VWS V14.01,2014-01-09 12:19:00,
2014-01-09 04:20:00,48.2,7.9,29.87,SW,225,6.0,9.8,19,0.00,,---,0.00,VWS V14.01,2014-01-09 12:20:00,
2014-01-09 04:21:00,48.2,7.9,29.87,SW,225,9.3,9.3,19,0.00,,---,0.00,VWS V14.01,2014-01-09 12:21:00,
2014-01-09 04:22:00,48.2,7.9,29.87,SW,225,5.8,9.3,19,0.00,,---,0.00,VWS V14.01,2014-01-09 12:22:00,
2014-01-09 04:23:00,48.2,7.9,29.87,SSW,202,5.5,5.8,19,0.00,,---,0.00,VWS V14.01,2014-01-09 12:23:00,
2014-01-09 04:24:00,48.2,7.9,29.87,SSW,202,5.5,5.5,19,0.00,,---,0.00,VWS V14.01,2014-01-09 12:24:00,
2014-01-09 04:25:00,48.2,7.9,29.87,SSW,202,6.7,8.0,19,0.00,,---,0.00,VWS V14.01,2014-01-09 12:25:00,
2014-01-09 04:26:00,48.2,7.9,29.87,South,180,6.2,6.7,19,0.00,,---,0.00,VWS V14.01,2014-01-09 12:26:00,
2014-01-09 04:27:00,47.8,7.6,29.86,North,0,0.0,6.2,19,0.00,,---,0.00,VWS V14.01,2014-01-09 12:27:00,
2014-01-09 04:28:00,48.0,7.7,29.86,SW,225,6.9,6.9,19,0.00,,---,0.00,VWS V14.01,2014-01-09 12:28:00,
2014-01-09 04:29:00,48.0,7.7,29.86,SW,225,6.9,6.9,19,0.00,,---,0.00,VWS V14.01,2014-01-09 12:29:00,
2014-01-09 04:30:00,47.8,7.6,29.86,WSW,248,5.8,5.8,19,0.00,,---,0.00,VWS V14.01,2014-01-09 12:30:00,
2014-01-09 04:31:00,48.0,7.7,29.86,SSW,202,2.9,5.8,19,0.00,,---,0.00,VWS V14.01,2014-01-09 12:31:00,
2014-01-09 04:32:00,47.8,7.6,29.86,SW,225,5.3,5.3,19,0.00,,---,0.00,VWS V14.01,2014-01-09 12:32:00,
2014-01-09 04:33:00,47.8,7.6,29.86,SSW,202,8.0,8.0,19,0.00,,---,0.00,VWS V14.01,2014-01-09 12:33:00,
2014-01-09 04:34:00,47.8,7.6,29.86,SSW,202,8.0,8.0,19,0.00,,---,0.00,VWS V14.01,2014-01-09 12:34:00,
2014-01-09 04:35:00,47.8,7.6,29.86,SW,225,7.1,7.1,19,0.00,,---,0.00,VWS V14.01,2014-01-09 12:35:00,
2014-01-09 04:36:00,47.8,7.6,29.86,North,0,0.0,7.1,19,0.00,,---,0.00,VWS V14.01,2014-01-09 12:36:00,
2014-01-09 04:37:00,47.8,7.6,29.85,SW,225,7.6,7.6,19,0.00,,---,0.00,VWS V14.01,2014-01-09 12:37:00,
2014-01-09 04:38:00,47.8,7.6,29.86,SSW,202,7.3,7.6,19,0.00,,---,0.00,VWS V14.01,2014-01-09 12:38:00,
2014-01-09 04:39:00,47.8,7.6,29.86,SSW,202,7.3,7.3,19,0.00,,---,0.00,VWS V14.01,2014-01-09 12:39:00,
2014-01-09 04:40:00,47.8,7.6,29.86,SW,225,3.8,8.7,19,0.00,,---,0.00,VWS V14.01,2014-01-09 12:40:00,
2014-01-09 04:41:00,47.8,7.6,29.86,SSW,202,6.4,6.4,19,0.00,,---,0.00,VWS V14.01,2014-01-09 12:41:00,
2014-01-09 04:42:00,47.8,7.6,29.86,SSW,202,4.6,6.4,19,0.00,,---,0.00,VWS V14.01,2014-01-09 12:42:00,
2014-01-09 04:43:00,47.8,7.6,29.86,SSW,202,5.1,5.1,19,0.00,,---,0.00,VWS V14.01,2014-01-09 12:43:00,
2014-01-09 04:44:00,47.8,7.6,29.86,SSW,202,5.1,5.1,19,0.00,,---,0.00,VWS V14.01,2014-01-09 12:44:00,
2014-01-09 04:45:00,47.8,7.6,29.86,WSW,248,6.0,6.0,19,0.00,,---,0.00,VWS V14.01,2014-01-09 12:45:00,
2014-01-09 04:46:00,48.0,7.7,29.86,WSW,248,5.8,6.0,19,0.00,,---,0.00,VWS V14.01,2014-01-09 12:46:00,
2014-01-09 04:47:00,48.2,7.9,29.86,WSW,248,3.1,5.8,19,0.00,,---,0.00,VWS V14.01,2014-01-09 12:47:00,
2014-01-09 04:48:00,48.2,7.9,29.87,WSW,248,6.0,6.0,19,0.00,,---,0.00,VWS V14.01,2014-01-09 12:48:00,
2014-01-09 04:49:00,48.2,7.9,29.87,WSW,248,6.0,6.0,19,0.00,,---,0.00,VWS V14.01,2014-01-09 12:49:00,
2014-01-09 04:50:00,48.3,8.0,29.86,West,270,4.6,4.6,19,0.00,,---,0.00,VWS V14.01,2014-01-09 12:50:00,
2014-01-09 04:51:00,48.2,7.9,29.87,SW,225,2.2,4.6,19,0.00,,---,0.00,VWS V14.01,2014-01-09 12:51:00,
2014-01-09 04:52:00,48.3,8.0,29.87,SSE,158,4.4,4.4,19,0.00,,---,0.00,VWS V14.01,2014-01-09 12:52:00,
2014-01-09 04:53:00,48.2,7.9,29.87,SSW,202,8.9,8.9,19,0.00,,---,0.00,VWS V14.01,2014-01-09 12:53:00,
2014-01-09 04:54:00,48.2,7.9,29.87,SSW,202,8.9,8.9,19,0.00,,---,0.00,VWS V14.01,2014-01-09 12:54:00,
2014-01-09 04:55:00,48.3,8.0,29.86,SSW,202,6.7,9.1,19,0.00,,---,0.00,VWS V14.01,2014-01-09 12:55:00,
2014-01-09 04:56:00,48.3,8.0,29.86,SSW,202,8.9,8.9,19,0.00,,---,0.00,VWS V14.01,2014-01-09 12:56:00,
2014-01-09 04:57:00,48.2,7.9,29.86,WSW,248,5.3,8.9,19,0.00,,---,0.00,VWS V14.01,2014-01-09 12:57:00,
2014-01-09 04:58:00,48.2,7.9,29.86,South,180,4.9,5.3,19,0.00,,---,0.00,VWS V14.01,2014-01-09 12:58:00,
2014-01-09 04:59:00,48.2,7.9,29.86,South,180,4.9,4.9,19,0.00,,---,0.00,VWS V14.01,2014-01-09 12:59:00,
2014-01-09 05:00:00,48.0,7.7,29.86,SW,225,10.9,10.9,19,0.00,,---,0.00,VWS V14.01,2014-01-09 13:00:00,
2014-01-09 05:01:00,48.0,7.7,29.86,SW,225,10.9,10.9,19,0.00,,---,0.00,VWS V14.01,2014-01-09 13:01:00,
2014-01-09 05:02:00,48.0,7.7,29.86,SW,225,10.9,10.9,19,0.00,,---,0.00,VWS V14.01,2014-01-09 13:02:00,
2014-01-09 05:03:00,48.0,7.7,29.86,SW,225,10.9,10.9,19,0.00,,---,0.00,VWS V14.01,2014-01-09 13:03:00,
2014-01-09 05:04:00,48.0,7.7,29.86,SW,225,10.9,10.9,19,0.00,,---,0.00,VWS V14.01,2014-01-09 13:04:00,
2014-01-09 05:05:00,48.0,7.7,29.86,SW,225,10.9,10.9,19,0.00,,---,0.00,VWS V14.01,2014-01-09 13:05:00,
2014-01-09 05:06:00,48.0,7.7,29.86,SW,225,10.9,10.9,19,0.00,,---,0.00,VWS V14.01,2014-01-09 13:06:00,
2014-01-09 05:07:00,48.0,7.7,29.86,SW,225,10.9,10.9,19,0.00,,---,0.00,VWS V14.01,2014-01-09 13:07:00,
2014-01-09 05:08:00,48.0,7.7,29.86,SW,225,10.9,10.9,19,0.00,,---,0.00,VWS V14.01,2014-01-09 13:08:00,
2014-01-09 05:09:00,48.0,7.7,29.86,SW,225,10.9,10.9,19,0.00,,---,0.00,VWS V14.01,2014-01-09 13:09:00,
2014-01-09 05:10:00,48.0,7.7,29.86,SW,225,10.9,10.9,19,0.00,,---,0.00,VWS V14.01,2014-01-09 13:10:00,
2014-01-09 05:11:00,47.8,7.6,29.85,WSW,248,6.4,8.5,19,0.00,,---,0.00,VWS V14.01,2014-01-09 13:11:00,
2014-01-09 05:12:00,47.8,7.6,29.85,West,270,4.6,6.4,19,0.00,,---,0.00,VWS V14.01,2014-01-09 13:12:00,
2014-01-09 05:13:00,47.8,7.6,29.85,West,270,4.9,4.9,19,0.00,,---,0.00,VWS V14.01,2014-01-09 13:13:00,
2014-01-09 05:14:00,47.8,7.6,29.85,West,270,4.9,4.9,19,0.00,,---,0.00,VWS V14.01,2014-01-09 13:14:00,
2014-01-09 05:15:00,47.8,7.6,29.85,West,270,7.8,9.3,19,0.00,,---,0.00,VWS V14.01,2014-01-09 13:15:00,
2014-01-09 05:16:00,47.8,7.6,29.85,West,270,4.2,7.8,19,0.00,,---,0.00,VWS V14.01,2014-01-09 13:16:00,
2014-01-09 05:17:00,48.0,7.7,29.86,WSW,248,4.2,4.2,19,0.00,,---,0.00,VWS V14.01,2014-01-09 13:17:00,
2014-01-09 05:18:00,47.8,7.6,29.86,WSW,248,6.7,6.7,19,0.00,,---,0.00,VWS V14.01,2014-01-09 13:18:00,
2014-01-09 05:19:00,47.8,7.6,29.86,WSW,248,6.7,6.7,19,0.00,,---,0.00,VWS V14.01,2014-01-09 13:19:00,
2014-01-09 05:20:00,47.8,7.6,29.85,West,270,5.1,5.1,19,0.00,,---,0.00,VWS V14.01,2014-01-09 13:20:00,
2014-01-09 05:21:00,48.0,7.7,29.85,West,270,5.3,5.3,19,0.00,,---,0.00,VWS V14.01,2014-01-09 13:21:00,
2014-01-09 05:22:00,47.8,7.6,29.85,WSW,248,7.1,7.1,19,0.00,,---,0.00,VWS V14.01,2014-01-09 13:22:00,
2014-01-09 05:23:00,48.2,7.9,29.86,WSW,248,6.4,7.1,19,0.00,,---,0.00,VWS V14.01,2014-01-09 13:23:00,
2014-01-09 05:24:00,48.2,7.9,29.86,WSW,248,6.4,6.4,19,0.00,,---,0.00,VWS V14.01,2014-01-09 13:24:00,
2014-01-09 05:25:00,48.2,7.9,29.86,WSW,248,6.9,6.9,19,0.00,,---,0.00,VWS V14.01,2014-01-09 13:25:00,
2014-01-09 05:26:00,48.2,7.9,29.86,WSW,248,5.8,6.9,19,0.00,,---,0.00,VWS V14.01,2014-01-09 13:26:00,
2014-01-09 05:27:00,48.2,7.9,29.86,WSW,248,7.8,7.8,19,0.00,,---,0.00,VWS V14.01,2014-01-09 13:27:00,
2014-01-09 05:28:00,48.2,7.9,29.86,WSW,248,3.8,7.8,19,0.00,,---,0.00,VWS V14.01,2014-01-09 13:28:00,
2014-01-09 05:29:00,48.2,7.9,29.86,WSW,248,3.8,3.8,19,0.00,,---,0.00,VWS V14.01,2014-01-09 13:29:00,
2014-01-09 05:30:00,48.2,7.9,29.86,West,270,0.8,0.8,19,0.00,,---,0.00,VWS V14.01,2014-01-09 13:30:00,
2014-01-09 05:31:00,48.2,7.9,29.86,West,270,4.6,4.6,19,0.00,,---,0.00,VWS V14.01,2014-01-09 13:31:00,
2014-01-09 05:32:00,48.0,7.7,29.86,West,270,5.8,5.8,19,0.00,,---,0.00,VWS V14.01,2014-01-09 13:32:00,
2014-01-09 05:33:00,48.0,7.7,29.86,SSW,202,4.4,5.8,19,0.00,,---,0.00,VWS V14.01,2014-01-09 13:33:00,
2014-01-09 05:34:00,48.0,7.7,29.86,SSW,202,4.4,4.4,19,0.00,,---,0.00,VWS V14.01,2014-01-09 13:34:00,
2014-01-09 05:35:00,47.8,7.6,29.87,WSW,248,8.9,8.9,19,0.00,,---,0.00,VWS V14.01,2014-01-09 13:35:00,
2014-01-09 05:36:00,48.0,7.7,29.87,WSW,248,5.3,8.9,19,0.00,,---,0.00,VWS V14.01,2014-01-09 13:36:00,
2014-01-09 05:37:00,47.8,7.6,29.87,SSW,202,3.5,5.3,19,0.00,,---,0.00,VWS V14.01,2014-01-09 13:37:00,
2014-01-09 05:38:00,48.2,7.9,29.87,SSW,202,6.9,6.9,19,0.00,,---,0.00,VWS V14.01,2014-01-09 13:38:00,
2014-01-09 05:39:00,48.2,7.9,29.87,SSW,202,6.9,6.9,19,0.00,,---,0.00,VWS V14.01,2014-01-09 13:39:00,
2014-01-09 05:40:00,47.8,7.6,29.87,SW,225,5.1,5.5,19,0.00,,---,0.00,VWS V14.01,2014-01-09 13:40:00,
2014-01-09 05:41:00,47.8,7.6,29.87,North,0,0.0,5.1,19,0.00,,---,0.00,VWS V14.01,2014-01-09 13:41:00,
2014-01-09 05:42:00,48.0,7.7,29.87,SSW,202,6.9,6.9,19,0.00,,---,0.00,VWS V14.01,2014-01-09 13:42:00,
2014-01-09 05:43:00,47.8,7.6,29.87,SSW,202,4.6,6.9,19,0.00,,---,0.00,VWS V14.01,2014-01-09 13:43:00,
2014-01-09 05:44:00,47.8,7.6,29.87,SSW,202,4.6,4.6,19,0.00,,---,0.00,VWS V14.01,2014-01-09 13:44:00,
2014-01-09 05:45:00,47.8,7.6,29.87,WSW,248,6.0,6.0,19,0.00,,---,0.00,VWS V14.01,2014-01-09 13:45:00,
2014-01-09 05:46:00,47.8,7.6,29.87,West,270,2.9,6.0,19,0.00,,---,0.00,VWS V14.01,2014-01-09 13:46:00,
2014-01-09 05:47:00,47.8,7.6,29.87,West,270,0.8,2.9,19,0.00,,---,0.00,VWS V14.01,2014-01-09 13:47:00,
2014-01-09 05:48:00,47.8,7.6,29.87,South,180,4.2,4.2,19,0.00,,---,0.00,VWS V14.01,2014-01-09 13:48:00,
2014-01-09 05:49:00,47.8,7.6,29.87,South,180,4.2,4.2,19,0.00,,---,0.00,VWS V14.01,2014-01-09 13:49:00,
2014-01-09 05:50:00,47.8,7.6,29.87,SSW,202,8.7,8.7,19,0.00,,---,0.00,VWS V14.01,2014-01-09 13:50:00,
2014-01-09 05:51:00,47.6,7.4,29.87,North,0,0.0,8.7,19,0.00,,---,0.00,VWS V14.01,2014-01-09 13:51:00,
2014-01-09 05:52:00,47.6,7.4,29.87,SW,225,7.1,7.1,19,0.00,,---,0.00,VWS V14.01,2014-01-09 13:52:00,
2014-01-09 05:53:00,47.6,7.4,29.87,SW,225,2.9,7.1,19,0.00,,---,0.00,VWS V14.01,2014-01-09 13:53:00,
2014-01-09 05:54:00,47.6,7.4,29.87,SW,225,2.9,2.9,19,0.00,,---,0.00,VWS V14.01,2014-01-09 13:54:00,
2014-01-09 05:55:00,47.4,7.2,29.87,SSW,202,5.1,6.7,19,0.00,,---,0.00,VWS V14.01,2014-01-09 13:55:00,
2014-01-09 05:56:00,47.6,7.4,29.87,SSW,202,11.4,11.4,19,0.00,,---,0.00,VWS V14.01,2014-01-09 13:56:00,
2014-01-09 05:57:00,47.4,7.2,29.87,SSW,202,7.6,11.4,19,0.00,,---,0.00,VWS V14.01,2014-01-09 13:57:00,
2014-01-09 05:58:00,47.4,7.2,29.87,WSW,248,6.0,7.6,19,0.00,,---,0.00,VWS V14.01,2014-01-09 13:58:00,
2014-01-09 05:59:00,47.4,7.2,29.87,WSW,248,6.0,6.0,19,0.00,,---,0.00,VWS V14.01,2014-01-09 13:59:00,
2014-01-09 06:00:00,47.4,7.2,29.87,SSW,202,4.6,4.6,19,0.00,,---,0.00,VWS V14.01,2014-01-09 14:00:00,
2014-01-09 06:01:00,47.4,7.2,29.87,SSW,202,4.6,4.6,19,0.00,,---,0.00,VWS V14.01,2014-01-09 14:01:00,
2014-01-09 06:02:00,47.4,7.2,29.87,SSW,202,4.6,4.6,19,0.00,,---,0.00,VWS V14.01,2014-01-09 14:02:00,
2014-01-09 06:03:00,47.4,7.2,29.87,SSW,202,4.6,4.6,19,0.00,,---,0.00,VWS V14.01,2014-01-09 14:03:00,
2014-01-09 06:04:00,47.4,7.2,29.87,SSW,202,4.6,4.6,19,0.00,,---,0.00,VWS V14.01,2014-01-09 14:04:00,
2014-01-09 06:05:00,47.4,7.2,29.87,SSW,202,4.6,4.6,19,0.00,,---,0.00,VWS V14.01,2014-01-09 14:05:00,
2014-01-09 06:06:00,47.4,7.2,29.87,SSW,202,4.6,4.6,19,0.00,,---,0.00,VWS V14.01,2014-01-09 14:06:00,
2014-01-09 06:07:00,47.4,7.2,29.87,SSW,202,4.6,4.6,19,0.00,,---,0.00,VWS V14.01,2014-01-09 14:07:00,
2014-01-09 06:08:00,47.4,7.2,29.87,SSW,202,4.6,4.6,19,0.00,,---,0.00,VWS V14.01,2014-01-09 14:08:00,
2014-01-09 06:09:00,47.4,7.2,29.87,SSW,202,4.6,4.6,19,0.00,,---,0.00,VWS V14.01,2014-01-09 14:09:00,
2014-01-09 06:10:00,47.4,7.2,29.87,SSW,202,4.6,4.6,19,0.00,,---,0.00,VWS V14.01,2014-01-09 14:10:00,
2014-01-09 06:11:00,47.3,7.1,29.87,SW,225,5.5,9.8,19,0.00,,---,0.00,VWS V14.01,2014-01-09 14:11:00,
2014-01-09 06:12:00,47.3,17.5,29.87,SSW,202,6.7,6.7,30,0.00,,---,0.00,VWS V14.01,2014-01-09 14:12:00,
2014-01-09 06:13:00,47.3,7.1,29.87,WSW,248,6.7,6.7,19,0.00,,---,0.00,VWS V14.01,2014-01-09 14:13:00,
2014-01-09 06:14:00,47.3,17.5,29.87,SSW,202,6.7,6.7,30,0.00,,---,0.00,VWS V14.01,2014-01-09 14:14:00,
2014-01-09 06:15:00,47.1,14.9,29.87,SSW,202,4.2,6.7,27,0.00,,---,0.00,VWS V14.01,2014-01-09 14:15:00,
2014-01-09 06:16:00,47.1,7.0,29.87,North,0,0.0,4.2,19,0.00,,---,0.00,VWS V14.01,2014-01-09 14:16:00,
2014-01-09 06:17:00,47.1,14.9,29.87,SSW,202,4.0,4.0,27,0.00,,---,0.00,VWS V14.01,2014-01-09 14:17:00,
2014-01-09 06:18:00,47.1,15.7,29.87,SSW,202,5.8,5.8,28,0.00,,---,0.00,VWS V14.01,2014-01-09 14:18:00,
2014-01-09 06:19:00,46.9,14.7,29.87,South,180,3.8,5.8,27,0.00,,---,0.00,VWS V14.01,2014-01-09 14:19:00,
2014-01-09 06:20:00,47.1,15.7,29.87,South,180,6.9,6.9,28,0.00,,---,0.00,VWS V14.01,2014-01-09 14:20:00,
2014-01-09 06:21:00,46.9,14.7,29.87,SW,225,4.4,6.9,27,0.00,,---,0.00,VWS V14.01,2014-01-09 14:21:00,
2014-01-09 06:22:00,46.9,14.7,29.87,SSW,202,5.5,5.5,27,0.00,,---,0.00,VWS V14.01,2014-01-09 14:22:00,
2014-01-09 06:23:00,46.9,15.5,29.87,SW,225,5.3,5.3,28,0.00,,---,0.00,VWS V14.01,2014-01-09 14:23:00,
2014-01-09 06:24:00,46.9,15.5,29.87,SSW,202,5.5,5.5,28,0.00,,---,0.00,VWS V14.01,2014-01-09 14:24:00,
2014-01-09 06:25:00,46.9,15.5,29.87,SW,225,6.4,6.4,28,0.00,,---,0.00,VWS V14.01,2014-01-09 14:25:00,
2014-01-09 06:26:00,46.9,15.5,29.87,SSW,202,4.0,6.4,28,0.00,,---,0.00,VWS V14.01,2014-01-09 14:26:00,
2014-01-09 06:27:00,46.7,15.3,29.87,SSW,202,3.3,4.0,28,0.00,,---,0.00,VWS V14.01,2014-01-09 14:27:00,
2014-01-09 06:28:00,46.9,14.7,29.87,North,0,0.0,0.0,27,0.00,,---,0.00,VWS V14.01,2014-01-09 14:28:00,
2014-01-09 06:29:00,46.9,15.5,29.87,SSW,202,4.9,4.9,28,0.00,,---,0.00,VWS V14.01,2014-01-09 14:29:00,
2014-01-09 06:30:00,46.9,15.5,29.86,SW,225,6.4,6.4,28,0.00,,---,0.00,VWS V14.01,2014-01-09 14:30:00,
2014-01-09 06:31:00,46.9,15.5,29.86,SSW,202,5.1,6.4,28,0.00,,---,0.00,VWS V14.01,2014-01-09 14:31:00,
2014-01-09 06:32:00,46.9,15.5,29.86,SW,225,8.0,8.0,28,0.00,,---,0.00,VWS V14.01,2014-01-09 14:32:00,
2014-01-09 06:33:00,46.9,15.5,29.86,SW,225,8.2,8.2,28,0.00,,---,0.00,VWS V14.01,2014-01-09 14:33:00,
2014-01-09 06:34:00,46.9,15.5,29.86,SSW,202,6.0,8.2,28,0.00,,---,0.00,VWS V14.01,2014-01-09 14:34:00,
2014-01-09 06:35:00,46.9,15.5,29.87,SSW,202,5.5,6.0,28,0.00,,---,0.00,VWS V14.01,2014-01-09 14:35:00,
2014-01-09 06:36:00,47.1,15.7,29.87,WSW,248,5.3,5.5,28,0.00,,---,0.00,VWS V14.01,2014-01-09 14:36:00,
2014-01-09 06:37:00,46.9,15.5,29.87,SW,225,5.3,5.3,28,0.00,,---,0.00,VWS V14.01,2014-01-09 14:37:00,
2014-01-09 06:38:00,46.9,15.5,29.87,SSW,202,6.9,6.9,28,0.00,,---,0.00,VWS V14.01,2014-01-09 14:38:00,
2014-01-09 06:39:00,47.1,15.7,29.87,WSW,248,4.0,6.9,28,0.00,,---,0.00,VWS V14.01,2014-01-09 14:39:00,
2014-01-09 06:40:00,46.9,15.5,29.87,WSW,248,6.9,6.9,28,0.00,,---,0.00,VWS V14.01,2014-01-09 14:40:00,
2014-01-09 06:41:00,47.1,15.7,29.87,SW,225,6.7,6.9,28,0.00,,---,0.00,VWS V14.01,2014-01-09 14:41:00,
2014-01-09 06:42:00,47.1,15.7,29.87,WSW,248,6.0,6.7,28,0.00,,---,0.00,VWS V14.01,2014-01-09 14:42:00,
2014-01-09 06:43:00,47.1,15.7,29.86,SW,225,6.7,6.7,28,0.00,,---,0.00,VWS V14.01,2014-01-09 14:43:00,
2014-01-09 06:44:00,47.1,15.7,29.86,SSW,202,6.9,6.9,28,0.00,,---,0.00,VWS V14.01,2014-01-09 14:44:00,
2014-01-09 06:45:00,46.9,15.5,29.86,SW,225,5.1,6.9,28,0.00,,---,0.00,VWS V14.01,2014-01-09 14:45:00,
2014-01-09 06:46:00,46.9,14.7,29.86,SSW,202,5.8,5.8,27,0.00,,---,0.00,VWS V14.01,2014-01-09 14:46:00,
2014-01-09 06:47:00,46.9,15.5,29.86,North,0,0.0,5.8,28,0.00,,---,0.00,VWS V14.01,2014-01-09 14:47:00,
2014-01-09 06:48:00,46.9,14.7,29.86,SW,225,6.7,6.7,27,0.00,,---,0.00,VWS V14.01,2014-01-09 14:48:00,
2014-01-09 06:49:00,46.9,6.8,29.87,SW,225,6.9,6.9,19,0.00,,---,0.00,VWS V14.01,2014-01-09 14:49:00,
2014-01-09 06:50:00,46.9,14.7,29.87,SW,225,4.9,6.9,27,0.00,,---,0.00,VWS V14.01,2014-01-09 14:50:00,
2014-01-09 06:51:00,46.9,14.7,29.87,SW,225,7.1,7.1,27,0.00,,---,0.00,VWS V14.01,2014-01-09 14:51:00,
2014-01-09 06:52:00,46.9,14.7,29.86,North,0,0.0,7.1,27,0.00,,---,0.00,VWS V14.01,2014-01-09 14:52:00,
2014-01-09 06:53:00,46.9,6.8,29.86,North,0,0.0,0.0,19,0.00,,---,0.00,VWS V14.01,2014-01-09 14:53:00,
2014-01-09 06:54:00,47.1,7.0,29.86,SSW,202,5.8,5.8,19,0.00,,---,0.00,VWS V14.01,2014-01-09 14:54:00,
2014-01-09 06:55:00,46.9,6.8,29.86,SW,225,5.1,5.8,19,0.00,,---,0.00,VWS V14.01,2014-01-09 14:55:00,
2014-01-09 06:56:00,47.1,7.0,29.86,SSW,202,8.2,8.2,19,0.00,,---,0.00,VWS V14.01,2014-01-09 14:56:00,
2014-01-09 06:57:00,47.1,7.0,29.86,SSW,202,5.8,8.2,19,0.00,,---,0.00,VWS V14.01,2014-01-09 14:57:00,
2014-01-09 06:58:00,46.9,6.8,29.87,SSW,202,6.4,6.4,19,0.00,,---,0.00,VWS V14.01,2014-01-09 14:58:00,
2014-01-09 06:59:00,47.1,7.0,29.87,North,0,0.0,6.4,19,0.00,,---,0.00,VWS V14.01,2014-01-09 14:59:00,
2014-01-09 07:00:00,47.1,7.0,29.87,SW,225,5.1,5.1,19,0.00,,---,0.00,VWS V14.01,2014-01-09 15:00:00,
2014-01-09 07:01:00,47.1,7.0,29.87,SSW,202,6.4,6.4,19,0.00,,---,0.00,VWS V14.01,2014-01-09 15:01:00,
2014-01-09 07:02:00,47.1,7.0,29.86,SW,225,4.2,6.4,19,0.00,,---,0.00,VWS V14.01,2014-01-09 15:02:00,
2014-01-09 07:03:00,47.1,7.0,29.87,SSW,202,4.9,4.9,19,0.00,,---,0.00,VWS V14.01,2014-01-09 15:03:00,
2014-01-09 07:04:00,47.1,7.0,29.87,SW,225,6.2,6.2,19,0.00,,---,0.00,VWS V14.01,2014-01-09 15:04:00,
2014-01-09 07:05:00,47.3,7.1,29.87,SW,225,5.5,6.2,19,0.00,,---,0.00,VWS V14.01,2014-01-09 15:05:00,
2014-01-09 07:06:00,47.3,7.1,29.87,SSW,202,6.4,6.4,19,0.00,,---,0.00,VWS V14.01,2014-01-09 15:06:00,
2014-01-09 07:07:00,47.4,7.2,29.87,SSW,202,6.2,6.4,19,0.00,,---,0.00,VWS V14.01,2014-01-09 15:07:00,
2014-01-09 07:08:00,47.4,7.2,29.87,SW,225,4.9,4.9,19,0.00,,---,0.00,VWS V14.01,2014-01-09 15:08:00,
2014-01-09 07:09:00,47.4,7.2,29.87,SW,225,6.0,6.0,19,0.00,,---,0.00,VWS V14.01,2014-01-09 15:09:00,
2014-01-09 07:10:00,47.6,7.4,29.87,SW,225,6.2,6.2,19,0.00,,---,0.00,VWS V14.01,2014-01-09 15:10:00,
2014-01-09 07:11:00,47.6,7.4,29.87,South,180,4.9,6.2,19,0.00,,---,0.00,VWS V14.01,2014-01-09 15:11:00,
2014-01-09 07:12:00,47.8,7.6,29.87,North,0,0.0,4.9,19,0.00,,---,0.00,VWS V14.01,2014-01-09 15:12:00,
2014-01-09 07:13:00,47.8,7.6,29.87,SSW,202,5.5,5.5,19,0.00,,---,0.00,VWS V14.01,2014-01-09 15:13:00,
2014-01-09 07:14:00,47.8,7.6,29.87,SSW,202,6.7,6.7,19,0.00,,---,0.00,VWS V14.01,2014-01-09 15:14:00,
2014-01-09 07:15:00,47.8,7.6,29.87,West,270,0.0,6.7,19,0.00,,---,0.00,VWS V14.01,2014-01-09 15:15:00,
2014-01-09 07:16:00,47.8,7.6,29.87,West,270,0.8,0.8,19,0.00,,---,0.00,VWS V14.01,2014-01-09 15:16:00,
2014-01-09 07:17:00,47.8,0.0,29.87,West,270,0.0,0.8,0,0.00,,---,0.00,VWS V14.01,2014-01-09 15:17:00,
2014-01-09 07:18:00,47.8,7.6,29.87,WNW,292,5.3,5.3,19,0.00,,---,0.00,VWS V14.01,2014-01-09 15:18:00,
2014-01-09 07:19:00,47.8,7.6,29.88,West,270,7.1,7.1,19,0.00,,---,0.00,VWS V14.01,2014-01-09 15:19:00,
2014-01-09 07:20:00,47.6,7.4,29.88,West,270,7.8,7.8,19,0.00,,---,0.00,VWS V14.01,2014-01-09 15:20:00,
2014-01-09 07:21:00,47.4,7.2,29.88,WSW,248,7.8,7.8,19,0.00,,---,0.00,VWS V14.01,2014-01-09 15:21:00,
2014-01-09 07:22:00,47.3,7.1,29.87,SW,225,6.4,7.8,19,0.00,,---,0.00,VWS V14.01,2014-01-09 15:22:00,
2014-01-09 07:23:00,46.9,6.8,29.88,WSW,248,9.1,9.1,19,0.00,,---,0.00,VWS V14.01,2014-01-09 15:23:00,
2014-01-09 07:24:00,46.9,6.8,29.87,WSW,248,4.0,9.1,19,0.00,,---,0.00,VWS V14.01,2014-01-09 15:24:00,
2014-01-09 07:25:00,46.7,6.6,29.87,West,270,4.6,4.6,19,0.00,,---,0.00,VWS V14.01,2014-01-09 15:25:00,
2014-01-09 07:26:00,46.7,6.6,29.87,WSW,248,4.9,4.9,19,0.00,,---,0.00,VWS V14.01,2014-01-09 15:26:00,
2014-01-09 07:27:00,46.5,6.5,29.87,WSW,248,3.8,4.9,19,0.00,,---,0.00,VWS V14.01,2014-01-09 15:27:00,
2014-01-09 07:28:00,46.5,6.5,29.87,WSW,248,3.1,3.1,19,0.00,,---,0.00,VWS V14.01,2014-01-09 15:28:00,
2014-01-09 07:29:00,46.5,6.5,29.87,WSW,248,4.0,4.0,19,0.00,,---,0.00,VWS V14.01,2014-01-09 15:29:00,
2014-01-09 07:30:00,46.2,6.2,29.87,WSW,248,3.5,4.0,19,0.00,,---,0.00,VWS V14.01,2014-01-09 15:30:00,
2014-01-09 07:31:00,46.2,6.2,29.87,WSW,248,4.2,4.2,19,0.00,,---,0.00,VWS V14.01,2014-01-09 15:31:00,
2014-01-09 07:32:00,46.2,6.2,29.87,WSW,248,1.7,4.2,19,0.00,,---,0.00,VWS V14.01,2014-01-09 15:32:00,
2014-01-09 07:33:00,46.0,6.1,29.87,WSW,248,0.0,0.0,19,0.00,,---,0.00,VWS V14.01,2014-01-09 15:33:00,
2014-01-09 07:34:00,46.0,6.1,29.87,WSW,248,0.0,0.0,19,0.00,,---,0.00,VWS V14.01,2014-01-09 15:34:00,
2014-01-09 07:35:00,46.0,6.1,29.87,WSW,248,0.0,0.0,19,0.00,,---,0.00,VWS V14.01,2014-01-09 15:35:00,
2014-01-09 07:36:00,46.0,6.1,29.87,North,0,0.0,0.0,19,0.00,,---,0.00,VWS V14.01,2014-01-09 15:36:00,
2014-01-09 07:37:00,46.0,6.1,29.87,SE,135,2.6,2.6,19,0.00,,---,0.00,VWS V14.01,2014-01-09 15:37:00,
2014-01-09 07:38:00,46.0,13.9,29.87,SE,135,3.3,3.3,27,0.00,,---,0.00,VWS V14.01,2014-01-09 15:38:00,
2014-01-09 07:39:00,46.0,13.9,29.87,SE,135,5.1,5.1,27,0.00,,---,0.00,VWS V14.01,2014-01-09 15:39:00,
2014-01-09 07:40:00,46.0,13.9,29.87,SE,135,5.3,5.3,27,0.00,,---,0.00,VWS V14.01,2014-01-09 15:40:00,
2014-01-09 07:41:00,46.0,14.7,29.87,SSE,158,2.2,5.3,28,0.00,,---,0.00,VWS V14.01,2014-01-09 15:41:00,
2014-01-09 07:42:00,45.8,13.7,29.87,SSE,158,1.1,2.2,27,0.00,,---,0.00,VWS V14.01,2014-01-09 15:42:00,
2014-01-09 07:43:00,45.8,13.7,29.87,SSE,158,0.0,0.0,27,0.00,,---,0.00,VWS V14.01,2014-01-09 15:43:00,
2014-01-09 07:44:00,45.8,5.9,29.87,SW,225,3.5,3.5,19,0.00,,---,0.00,VWS V14.01,2014-01-09 15:44:00,
2014-01-09 07:45:00,45.8,5.9,29.87,SW,225,4.6,4.6,19,0.00,,---,0.00,VWS V14.01,2014-01-09 15:45:00,
2014-01-09 07:46:00,45.8,5.9,29.87,SSW,202,2.9,4.6,19,0.00,,---,0.00,VWS V14.01,2014-01-09 15:46:00,
2014-01-09 07:47:00,46.0,6.1,29.87,West,270,4.9,4.9,19,0.00,,---,0.00,VWS V14.01,2014-01-09 15:47:00,
2014-01-09 07:48:00,46.0,6.1,29.87,West,270,4.6,4.6,19,0.00,,---,0.00,VWS V14.01,2014-01-09 15:48:00,
2014-01-09 07:49:00,46.2,6.2,29.87,SW,225,3.8,4.6,19,0.00,,---,0.00,VWS V14.01,2014-01-09 15:49:00,
2014-01-09 07:50:00,46.2,6.2,29.87,South,180,1.5,3.8,19,0.00,,---,0.00,VWS V14.01,2014-01-09 15:50:00,
2014-01-09 07:51:00,46.2,6.2,29.87,South,180,0.0,1.5,19,0.00,,---,0.00,VWS V14.01,2014-01-09 15:51:00,
2014-01-09 07:52:00,46.2,6.2,29.87,SSE,158,2.6,2.6,19,0.00,,---,0.00,VWS V14.01,2014-01-09 15:52:00,
2014-01-09 07:53:00,46.0,6.1,29.87,SSE,158,1.5,1.5,19,0.00,,---,0.00,VWS V14.01,2014-01-09 15:53:00,
2014-01-09 07:54:00,46.0,6.1,29.87,SE,135,5.3,5.3,19,0.00,,---,0.00,VWS V14.01,2014-01-09 15:54:00,
2014-01-09 07:55:00,46.0,6.1,29.87,SSE,158,3.8,5.3,19,0.00,,---,0.00,VWS V14.01,2014-01-09 15:55:00,
2014-01-09 07:56:00,46.0,6.1,29.87,SE,135,1.1,3.8,19,0.00,,---,0.00,VWS V14.01,2014-01-09 15:56:00,
2014-01-09 07:57:00,45.8,5.9,29.87,SW,225,0.0,1.1,19,0.00,,---,0.00,VWS V14.01,2014-01-09 15:57:00,
2014-01-09 07:58:00,45.8,5.9,29.87,WNW,292,4.4,4.4,19,0.00,,---,0.00,VWS V14.01,2014-01-09 15:58:00,
2014-01-09 07:59:00,45.8,5.9,29.87,WNW,292,0.8,4.4,19,0.00,,---,0.00,VWS V14.01,2014-01-09 15:59:00,
2014-01-09 08:00:00,45.8,5.9,29.87,WNW,292,0.0,0.8,19,0.00,,---,0.00,VWS V14.01,2014-01-09 16:00:00,
2014-01-09 08:01:00,45.8,5.9,29.87,South,180,4.0,4.0,19,0.00,,---,0.00,VWS V14.01,2014-01-09 16:01:00,
2014-01-09 08:02:00,45.8,5.9,29.87,SE,135,3.1,4.0,19,0.00,,---,0.00,VWS V14.01,2014-01-09 16:02:00,
2014-01-09 08:03:00,45.6,5.7,29.87,SE,135,0.0,0.0,19,0.00,,---,0.00,VWS V14.01,2014-01-09 16:03:00,
2014-01-09 08:04:00,45.6,5.7,29.87,NW,315,1.5,1.5,19,0.00,,---,0.00,VWS V14.01,2014-01-09 16:04:00,
2014-01-09 08:05:00,45.6,5.7,29.87,NW,315,0.0,1.5,19,0.00,,---,0.00,VWS V14.01,2014-01-09 16:05:00,
2014-01-09 08:06:00,45.5,5.7,29.87,SSE,158,4.2,4.2,19,0.00,,---,0.00,VWS V14.01,2014-01-09 16:06:00,
2014-01-09 08:07:00,45.6,5.7,29.87,SE,135,7.1,7.1,19,0.00,,---,0.00,VWS V14.01,2014-01-09 16:07:00,
2014-01-09 08:08:00,45.6,14.4,29.87,North,0,0.0,0.0,28,0.00,,---,0.00,VWS V14.01,2014-01-09 16:08:00,
2014-01-09 08:09:00,45.5,14.3,29.87,WNW,292,2.9,2.9,28,0.00,,---,0.00,VWS V14.01,2014-01-09 16:09:00,
2014-01-09 08:10:00,45.5,14.3,29.88,WNW,292,2.6,2.9,28,0.00,,---,0.00,VWS V14.01,2014-01-09 16:10:00,
2014-01-09 08:11:00,45.5,14.3,29.88,WSW,248,4.0,4.0,28,0.00,,---,0.00,VWS V14.01,2014-01-09 16:11:00,
2014-01-09 08:12:00,45.5,15.1,29.88,SW,225,3.3,4.0,29,0.00,,---,0.00,VWS V14.01,2014-01-09 16:12:00,
2014-01-09 08:13:00,45.5,15.1,29.88,West,270,0.0,0.0,29,0.00,,---,0.00,VWS V14.01,2014-01-09 16:13:00,
2014-01-09 08:14:00,45.5,15.9,29.88,NW,315,3.8,3.8,30,0.00,,---,0.00,VWS V14.01,2014-01-09 16:14:00,
2014-01-09 08:15:00,45.6,16.0,29.88,NW,315,1.3,3.8,30,0.00,,---,0.00,VWS V14.01,2014-01-09 16:15:00,
2014-01-09 08:16:00,45.6,16.7,29.88,WSW,248,0.0,1.3,31,0.00,,---,0.00,VWS V14.01,2014-01-09 16:16:00,
2014-01-09 08:17:00,45.6,16.7,29.88,SE,135,5.5,5.5,31,0.00,,---,0.00,VWS V14.01,2014-01-09 16:17:00,
2014-01-09 08:18:00,45.8,17.6,29.88,SE,135,3.8,3.8,32,0.00,,---,0.00,VWS V14.01,2014-01-09 16:18:00,
2014-01-09 08:19:00,45.8,17.6,29.88,SSE,158,2.6,3.8,32,0.00,,---,0.00,VWS V14.01,2014-01-09 16:19:00,
2014-01-09 08:20:00,45.8,17.6,29.88,NNW,338,2.0,2.6,32,0.00,,---,0.00,VWS V14.01,2014-01-09 16:20:00,
2014-01-09 08:21:00,45.8,17.6,29.88,NNW,338,0.0,2.0,32,0.00,,---,0.00,VWS V14.01,2014-01-09 16:21:00,
2014-01-09 08:22:00,45.8,17.6,29.88,ESE,112,0.0,0.0,32,0.00,,---,0.00,VWS V14.01,2014-01-09 16:22:00,
2014-01-09 08:23:00,45.8,17.6,29.88,South,180,4.2,4.2,32,0.00,,---,0.00,VWS V14.01,2014-01-09 16:23:00,
2014-01-09 08:24:00,45.6,17.5,29.88,SSE,158,0.0,4.2,32,0.00,,---,0.00,VWS V14.01,2014-01-09 16:24:00,
2014-01-09 08:25:00,45.8,17.6,29.88,SSE,158,0.0,0.0,32,0.00,,---,0.00,VWS V14.01,2014-01-09 16:25:00,
2014-01-09 08:26:00,45.8,17.6,29.88,WSW,248,0.0,0.0,32,0.00,,---,0.00,VWS V14.01,2014-01-09 16:26:00,
2014-01-09 08:27:00,45.8,16.9,29.88,WSW,248,0.0,0.0,31,0.00,,---,0.00,VWS V14.01,2014-01-09 16:27:00,
2014-01-09 08:28:00,45.8,16.9,29.88,NNW,338,1.1,1.1,31,0.00,,---,0.00,VWS V14.01,2014-01-09 16:28:00,
2014-01-09 08:29:00,45.8,16.1,29.88,North,0,0.0,1.1,30,0.00,,---,0.00,VWS V14.01,2014-01-09 16:29:00,
2014-01-09 08:30:00,46.0,16.3,29.88,NNE,22,0.0,0.0,30,0.00,,---,0.00,VWS V14.01,2014-01-09 16:30:00,
2014-01-09 08:31:00,46.0,15.5,29.88,NNE,22,0.0,0.0,29,0.00,,---,0.00,VWS V14.01,2014-01-09 16:31:00,
2014-01-09 08:32:00,46.0,14.7,29.88,North,0,0.0,0.0,28,0.00,,---,0.00,VWS V14.01,2014-01-09 16:32:00,
2014-01-09 08:33:00,46.2,14.9,29.88,West,270,4.0,4.0,28,0.00,,---,0.00,VWS V14.01,2014-01-09 16:33:00,
2014-01-09 08:34:00,46.4,15.1,29.88,WNW,292,7.8,7.8,28,0.00,,---,0.00,VWS V14.01,2014-01-09 16:34:00,
2014-01-09 08:35:00,46.5,14.3,29.88,NW,315,3.8,7.8,27,0.00,,---,0.00,VWS V14.01,2014-01-09 16:35:00,
2014-01-09 08:36:00,46.7,6.6,29.89,SSE,158,1.7,3.8,19,0.00,,---,0.00,VWS V14.01,2014-01-09 16:36:00,
2014-01-09 08:37:00,46.9,6.8,29.89,NW,315,6.2,6.2,19,0.00,,---,0.00,VWS V14.01,2014-01-09 16:37:00,
2014-01-09 08:38:00,46.9,6.8,29.89,NNW,338,0.0,6.2,19,0.00,,---,0.00,VWS V14.01,2014-01-09 16:38:00,
2014-01-09 08:39:00,46.9,6.8,29.89,NNW,338,0.0,0.0,19,0.00,,---,0.00,VWS V14.01,2014-01-09 16:39:00,
2014-01-09 08:40:00,47.3,7.1,29.89,North,0,0.0,0.0,19,0.00,,---,0.00,VWS V14.01,2014-01-09 16:40:00,
2014-01-09 08:41:00,47.3,7.1,29.89,West,270,3.5,3.5,19,0.00,,---,0.00,VWS V14.01,2014-01-09 16:41:00,
2014-01-09 08:42:00,47.4,7.2,29.89,NW,315,4.0,4.0,19,0.00,,---,0.00,VWS V14.01,2014-01-09 16:42:00,
2014-01-09 08:43:00,47.6,7.4,29.89,NW,315,0.0,4.0,19,0.00,,---,0.00,VWS V14.01,2014-01-09 16:43:00,
2014-01-09 08:44:00,47.6,7.4,29.89,West,270,1.5,1.5,19,0.00,,---,0.00,VWS V14.01,2014-01-09 16:44:00,
2014-01-09 08:45:00,47.6,7.4,29.89,NW,315,5.1,5.1,19,0.00,,---,0.00,VWS V14.01,2014-01-09 16:45:00,
2014-01-09 08:46:00,47.6,7.4,29.89,WNW,292,1.1,5.1,19,0.00,,---,0.00,VWS V14.01,2014-01-09 16:46:00,
2014-01-09 08:47:00,47.6,7.4,29.89,West,270,0.0,1.1,19,0.00,,---,0.00,VWS V14.01,2014-01-09 16:47:00,
2014-01-09 08:48:00,47.6,7.4,29.89,SE,135,2.0,2.0,19,0.00,,---,0.00,VWS V14.01,2014-01-09 16:48:00,
2014-01-09 08:49:00,47.6,7.4,29.89,South,180,6.0,6.0,19,0.00,,---,0.00,VWS V14.01,2014-01-09 16:49:00,
2014-01-09 08:50:00,47.6,7.4,29.89,South,180,6.0,6.0,19,0.00,,---,0.00,VWS V14.01,2014-01-09 16:50:00,
2014-01-09 08:51:00,48.0,7.7,29.89,SSW,202,6.7,10.7,19,0.00,,---,0.00,VWS V14.01,2014-01-09 16:51:00,
2014-01-09 08:52:00,48.3,8.0,29.89,WSW,248,7.8,7.8,19,0.00,,---,0.00,VWS V14.01,2014-01-09 16:52:00,
2014-01-09 08:53:00,48.9,8.5,29.89,WNW,292,5.8,7.8,19,0.00,,---,0.00,VWS V14.01,2014-01-09 16:53:00,
2014-01-09 08:54:00,49.1,17.4,29.89,WNW,292,5.8,5.8,28,0.00,,---,0.00,VWS V14.01,2014-01-09 16:54:00,
2014-01-09 08:55:00,49.1,17.4,29.89,WNW,292,5.8,5.8,28,0.00,,---,0.00,VWS V14.01,2014-01-09 16:55:00,
2014-01-09 08:56:00,49.4,18.5,29.89,SSW,202,7.3,7.3,29,0.00,,---,0.00,VWS V14.01,2014-01-09 16:56:00,
2014-01-09 08:57:00,49.6,18.7,29.88,SSW,202,6.0,7.3,29,0.00,,---,0.00,VWS V14.01,2014-01-09 16:57:00,
2014-01-09 08:58:00,49.6,17.9,29.89,NW,315,4.0,6.0,28,0.00,,---,0.00,VWS V14.01,2014-01-09 16:58:00,
2014-01-09 08:59:00,50.0,18.2,29.88,South,180,6.2,6.2,28,0.00,,---,0.00,VWS V14.01,2014-01-09 16:59:00,
2014-01-09 09:00:00,50.0,18.2,29.88,South,180,6.2,6.2,28,0.00,,---,0.00,VWS V14.01,2014-01-09 17:00:00,
2014-01-09 09:01:00,50.3,17.6,29.88,SSW,202,10.5,11.6,27,0.00,,---,0.00,VWS V14.01,2014-01-09 17:01:00,
2014-01-09 09:02:00,50.3,16.7,29.88,North,0,0.0,10.5,26,0.00,,---,0.00,VWS V14.01,2014-01-09 17:02:00,
2014-01-09 09:03:00,50.7,17.1,29.88,North,0,0.0,0.0,26,0.00,,---,0.00,VWS V14.01,2014-01-09 17:03:00,
2014-01-09 09:04:00,50.9,16.4,29.88,WSW,248,3.8,3.8,25,0.00,,---,0.00,VWS V14.01,2014-01-09 17:04:00,
2014-01-09 09:05:00,51.0,16.4,29.88,WNW,292,5.1,5.1,25,0.00,,---,0.00,VWS V14.01,2014-01-09 17:05:00,
2014-01-09 09:06:00,51.2,16.6,29.88,WNW,292,1.5,5.1,25,0.00,,---,0.00,VWS V14.01,2014-01-09 17:06:00,
2014-01-09 09:07:00,51.4,16.8,29.89,WNW,292,0.4,1.5,25,0.00,,---,0.00,VWS V14.01,2014-01-09 17:07:00,
2014-01-09 09:08:00,51.4,16.8,29.89,West,270,0.0,0.4,25,0.00,,---,0.00,VWS V14.01,2014-01-09 17:08:00,
2014-01-09 09:09:00,51.2,17.5,29.89,SSW,202,2.6,2.6,26,0.00,,---,0.00,VWS V14.01,2014-01-09 17:09:00,
2014-01-09 09:10:00,51.2,16.6,29.89,SSW,202,7.6,7.6,25,0.00,,---,0.00,VWS V14.01,2014-01-09 17:10:00,
2014-01-09 09:11:00,51.4,16.8,29.89,NNW,338,4.4,7.6,25,0.00,,---,0.00,VWS V14.01,2014-01-09 17:11:00,
2014-01-09 09:12:00,51.4,16.8,29.89,WNW,292,4.6,4.6,25,0.00,,---,0.00,VWS V14.01,2014-01-09 17:12:00,
2014-01-09 09:13:00,51.4,16.8,29.89,West,270,6.4,6.4,25,0.00,,---,0.00,VWS V14.01,2014-01-09 17:13:00,
2014-01-09 09:14:00,51.4,16.8,29.89,WSW,248,0.0,6.4,25,0.00,,---,0.00,VWS V14.01,2014-01-09 17:14:00,
2014-01-09 09:15:00,51.2,16.6,29.89,WSW,248,4.6,4.6,25,0.00,,---,0.00,VWS V14.01,2014-01-09 17:15:00,
2014-01-09 09:16:00,51.2,16.6,29.89,SW,225,9.1,9.1,25,0.00,,---,0.00,VWS V14.01,2014-01-09 17:16:00,
2014-01-09 09:17:00,51.4,16.8,29.89,SW,225,7.1,9.1,25,0.00,,---,0.00,VWS V14.01,2014-01-09 17:17:00,
2014-01-09 09:18:00,51.4,15.8,29.89,SSW,202,8.5,8.5,24,0.00,,---,0.00,VWS V14.01,2014-01-09 17:18:00,
2014-01-09 09:19:00,51.8,16.2,29.89,WNW,292,5.8,8.5,24,0.00,,---,0.00,VWS V14.01,2014-01-09 17:19:00,
2014-01-09 09:20:00,51.9,16.3,29.89,West,270,3.8,5.8,24,0.00,,---,0.00,VWS V14.01,2014-01-09 17:20:00,
2014-01-09 09:21:00,51.9,15.3,29.89,WSW,248,6.2,6.2,23,0.00,,---,0.00,VWS V14.01,2014-01-09 17:21:00,
2014-01-09 09:22:00,52.1,15.4,29.89,WSW,248,9.3,9.3,23,0.00,,---,0.00,VWS V14.01,2014-01-09 17:22:00,
2014-01-09 09:23:00,52.3,15.6,29.89,North,0,0.0,9.3,23,0.00,,---,0.00,VWS V14.01,2014-01-09 17:23:00,
2014-01-09 09:24:00,52.5,14.8,29.89,North,0,0.0,0.0,22,0.00,,---,0.00,VWS V14.01,2014-01-09 17:24:00,
2014-01-09 09:25:00,52.8,15.0,29.89,North,0,0.0,0.0,22,0.00,,---,0.00,VWS V14.01,2014-01-09 17:25:00,
2014-01-09 09:26:00,53.0,14.1,29.90,SSW,202,10.9,10.9,21,0.00,,---,0.00,VWS V14.01,2014-01-09 17:26:00,
2014-01-09 09:27:00,53.0,14.1,29.90,SSW,202,10.9,10.9,21,0.00,,---,0.00,VWS V14.01,2014-01-09 17:27:00,
2014-01-09 09:28:00,53.4,14.5,29.90,North,0,0.0,7.3,21,0.00,,---,0.00,VWS V14.01,2014-01-09 17:28:00,
2014-01-09 09:29:00,53.7,14.7,29.90,North,0,0.0,0.0,21,0.00,,---,0.00,VWS V14.01,2014-01-09 17:29:00,
2014-01-09 09:30:00,53.7,14.7,29.90,WSW,248,7.1,7.1,21,0.00,,---,0.00,VWS V14.01,2014-01-09 17:30:00,
2014-01-09 09:31:00,53.9,13.8,29.90,SW,225,8.2,8.2,20,0.00,,---,0.00,VWS V14.01,2014-01-09 17:31:00,
2014-01-09 09:32:00,53.9,13.8,29.90,SW,225,8.2,8.2,20,0.00,,---,0.00,VWS V14.01,2014-01-09 17:32:00,
2014-01-09 09:33:00,53.9,13.8,29.89,SSW,202,12.0,12.0,20,0.00,,---,0.00,VWS V14.01,2014-01-09 17:33:00,
2014-01-09 09:34:00,54.3,14.1,29.89,SE,135,0.8,12.0,20,0.00,,---,0.00,VWS V14.01,2014-01-09 17:34:00,
2014-01-09 09:35:00,54.3,12.9,29.89,WNW,292,4.4,4.4,19,0.00,,---,0.00,VWS V14.01,2014-01-09 17:35:00,
2014-01-09 09:36:00,54.3,14.1,29.89,North,0,0.0,4.4,20,0.00,,---,0.00,VWS V14.01,2014-01-09 17:36:00,
2014-01-09 09:37:00,54.5,14.3,29.89,West,270,1.1,1.1,20,0.00,,---,0.00,VWS V14.01,2014-01-09 17:37:00,
2014-01-09 09:38:00,54.6,14.4,29.89,SW,225,2.9,2.9,20,0.00,,---,0.00,VWS V14.01,2014-01-09 17:38:00,
2014-01-09 09:39:00,54.6,13.2,29.89,SW,225,6.7,6.7,19,0.00,,---,0.00,VWS V14.01,2014-01-09 17:39:00,
2014-01-09 09:40:00,54.8,13.4,29.89,SW,225,9.6,9.6,19,0.00,,---,0.00,VWS V14.01,2014-01-09 17:40:00,
2014-01-09 09:41:00,54.8,14.5,29.89,SW,225,8.7,9.6,20,0.00,,---,0.00,VWS V14.01,2014-01-09 17:41:00,
2014-01-09 09:42:00,55.0,14.7,29.89,SSW,202,6.4,6.4,20,0.00,,---,0.00,VWS V14.01,2014-01-09 17:42:00,
2014-01-09 09:43:00,55.0,13.5,29.89,SW,225,15.8,15.8,19,0.00,,---,0.00,VWS V14.01,2014-01-09 17:43:00,
2014-01-09 09:44:00,55.0,13.5,29.89,West,270,6.9,15.8,19,0.00,,---,0.00,VWS V14.01,2014-01-09 17:44:00,
2014-01-09 09:45:00,55.5,13.9,29.89,North,0,0.0,6.9,19,0.00,,---,0.00,VWS V14.01,2014-01-09 17:45:00,
2014-01-09 09:46:00,55.5,13.9,29.89,North,0,0.0,0.0,19,0.00,,---,0.00,VWS V14.01,2014-01-09 17:46:00,
2014-01-09 09:47:00,55.7,14.1,29.89,WSW,248,13.1,13.1,19,0.00,,---,0.00,VWS V14.01,2014-01-09 17:47:00,
2014-01-09 09:48:00,55.7,14.1,29.89,WSW,248,13.1,13.1,19,0.00,,---,0.00,VWS V14.01,2014-01-09 17:48:00,
2014-01-09 09:49:00,55.7,14.1,29.89,SSW,202,18.5,18.5,19,0.00,,---,0.00,VWS V14.01,2014-01-09 17:49:00,
2014-01-09 09:50:00,56.1,14.4,29.89,SW,225,10.0,18.5,19,0.00,,---,0.00,VWS V14.01,2014-01-09 17:50:00,
2014-01-09 09:51:00,56.1,14.4,29.89,SSW,202,10.7,10.7,19,0.00,,---,0.00,VWS V14.01,2014-01-09 17:51:00,
2014-01-09 09:52:00,56.1,14.4,29.89,SW,225,12.7,12.7,19,0.00,,---,0.00,VWS V14.01,2014-01-09 17:52:00,
2014-01-09 09:53:00,56.3,14.6,29.89,SW,225,16.7,16.7,19,0.00,,---,0.00,VWS V14.01,2014-01-09 17:53:00,
2014-01-09 09:54:00,56.3,14.6,29.89,SW,225,8.5,16.7,19,0.00,,---,0.00,VWS V14.01,2014-01-09 17:54:00,
2014-01-09 09:55:00,56.4,14.7,29.89,SW,225,8.0,8.5,19,0.00,,---,0.00,VWS V14.01,2014-01-09 17:55:00,
2014-01-09 09:56:00,56.4,14.7,29.89,SW,225,8.0,8.0,19,0.00,,---,0.00,VWS V14.01,2014-01-09 17:56:00,
2014-01-09 09:57:00,56.6,14.8,29.89,WSW,248,7.3,14.0,19,0.00,,---,0.00,VWS V14.01,2014-01-09 17:57:00,
2014-01-09 09:58:00,56.6,14.8,29.89,SSW,202,8.2,8.2,19,0.00,,---,0.00,VWS V14.01,2014-01-09 17:58:00,
2014-01-09 09:59:00,56.8,15.0,29.88,WSW,248,14.5,14.5,19,0.00,,---,0.00,VWS V14.01,2014-01-09 17:59:00,
2014-01-09 10:00:00,56.8,15.0,29.89,SW,225,18.3,18.3,19,0.00,,---,0.00,VWS V14.01,2014-01-09 18:00:00,
2014-01-09 10:01:00,57.0,15.2,29.89,SSW,202,16.3,18.3,19,0.00,,---,0.00,VWS V14.01,2014-01-09 18:01:00,
2014-01-09 10:03:00,57.2,15.3,29.89,North,0,0.0,16.3,19,0.00,,---,0.00,VWS V14.01,2014-01-09 18:03:00,
2014-01-09 10:04:00,57.2,15.3,29.89,WSW,248,13.8,13.8,19,0.00,,---,0.00,VWS V14.01,2014-01-09 18:04:00,
2014-01-09 10:05:00,57.3,15.4,29.89,South,180,7.6,13.8,19,0.00,,---,0.00,VWS V14.01,2014-01-09 18:05:00,
2014-01-09 10:06:00,57.2,15.3,29.89,WSW,248,9.3,9.3,19,0.00,,---,0.00,VWS V14.01,2014-01-09 18:06:00,
2014-01-09 10:07:00,57.2,15.3,29.88,South,180,10.2,10.2,19,0.00,,---,0.00,VWS V14.01,2014-01-09 18:07:00,
2014-01-09 10:08:00,57.3,15.4,29.89,WSW,248,12.3,12.3,19,0.00,,---,0.00,VWS V14.01,2014-01-09 18:08:00,
2014-01-09 10:09:00,57.3,15.4,29.89,North,0,0.0,12.3,19,0.00,,---,0.00,VWS V14.01,2014-01-09 18:09:00,
2014-01-09 10:10:00,57.3,15.4,29.89,WSW,248,10.5,10.5,19,0.00,,---,0.00,VWS V14.01,2014-01-09 18:10:00,
2014-01-09 10:11:00,57.5,15.6,29.88,WNW,292,17.8,17.8,19,0.00,,---,0.00,VWS V14.01,2014-01-09 18:11:00,
2014-01-09 10:12:00,57.5,15.6,29.89,West,270,11.1,17.8,19,0.00,,---,0.00,VWS V14.01,2014-01-09 18:12:00,
2014-01-09 10:13:00,57.5,15.6,29.89,SW,225,13.8,13.8,19,0.00,,---,0.00,VWS V14.01,2014-01-09 18:13:00,
2014-01-09 10:14:00,57.5,15.6,29.89,West,270,9.8,13.8,19,0.00,,---,0.00,VWS V14.01,2014-01-09 18:14:00,
2014-01-09 10:15:00,57.5,15.6,29.89,North,0,0.0,9.8,19,0.00,,---,0.00,VWS V14.01,2014-01-09 18:15:00,
2014-01-09 10:16:00,57.5,15.6,29.89,WSW,248,6.9,6.9,19,0.00,,---,0.00,VWS V14.01,2014-01-09 18:16:00,
2014-01-09 10:17:00,57.5,15.6,29.89,West,270,3.3,6.9,19,0.00,,---,0.00,VWS V14.01,2014-01-09 18:17:00,
2014-01-09 10:18:00,57.5,15.6,29.89,WNW,292,6.2,6.2,19,0.00,,---,0.00,VWS V14.01,2014-01-09 18:18:00,
2014-01-09 10:19:00,57.5,15.6,29.89,West,270,9.1,9.1,19,0.00,,---,0.00,VWS V14.01,2014-01-09 18:19:00,
2014-01-09 10:20:00,57.5,15.6,29.89,West,270,9.8,9.8,19,0.00,,---,0.00,VWS V14.01,2014-01-09 18:20:00,
2014-01-09 10:21:00,57.5,15.6,29.89,West,270,7.3,7.3,19,0.00,,---,0.00,VWS V14.01,2014-01-09 18:21:00,
2014-01-09 10:22:00,57.5,15.6,29.89,WNW,292,8.5,8.5,19,0.00,,---,0.00,VWS V14.01,2014-01-09 18:22:00,
2014-01-09 10:23:00,57.5,15.6,29.89,West,270,10.9,10.9,19,0.00,,---,0.00,VWS V14.01,2014-01-09 18:23:00,
2014-01-09 10:24:00,57.5,15.6,29.89,SW,225,4.0,10.9,19,0.00,,---,0.00,VWS V14.01,2014-01-09 18:24:00,
2014-01-09 10:25:00,57.3,15.4,29.89,West,270,8.2,8.2,19,0.00,,---,0.00,VWS V14.01,2014-01-09 18:25:00,
2014-01-09 10:26:00,57.5,15.6,29.89,West,270,8.7,8.7,19,0.00,,---,0.00,VWS V14.01,2014-01-09 18:26:00,
2014-01-09 10:27:00,57.3,15.4,29.89,West,270,1.7,8.7,19,0.00,,---,0.00,VWS V14.01,2014-01-09 18:27:00,
2014-01-09 10:28:00,57.3,15.4,29.89,West,270,4.2,4.2,19,0.00,,---,0.00,VWS V14.01,2014-01-09 18:28:00,
2014-01-09 10:29:00,57.3,15.4,29.88,West,270,4.2,4.2,19,0.00,,---,0.00,VWS V14.01,2014-01-09 18:29:00,
2014-01-09 10:30:00,57.2,15.3,29.88,West,270,8.2,8.2,19,0.00,,---,0.00,VWS V14.01,2014-01-09 18:30:00,
2014-01-09 10:31:00,57.3,15.4,29.88,West,270,5.8,8.2,19,0.00,,---,0.00,VWS V14.01,2014-01-09 18:31:00,
2014-01-09 10:32:00,57.3,15.4,29.88,West,270,5.8,5.8,19,0.00,,---,0.00,VWS V14.01,2014-01-09 18:32:00,
2014-01-09 10:33:00,57.0,15.2,29.88,West,270,7.6,7.6,19,0.00,,---,0.00,VWS V14.01,2014-01-09 18:33:00,
2014-01-09 10:34:00,56.8,15.0,29.88,West,270,3.8,7.6,19,0.00,,---,0.00,VWS V14.01,2014-01-09 18:34:00,
2014-01-09 10:35:00,57.0,15.2,29.88,WNW,292,5.3,5.3,19,0.00,,---,0.00,VWS V14.01,2014-01-09 18:35:00,
2014-01-09 10:36:00,56.8,15.0,29.87,WSW,248,12.0,12.0,19,0.00,,---,0.00,VWS V14.01,2014-01-09 18:36:00,
2014-01-09 10:37:00,56.8,15.0,29.87,North,0,0.0,12.0,19,0.00,,---,0.00,VWS V14.01,2014-01-09 18:37:00,
2014-01-09 10:38:00,57.0,15.2,29.87,WSW,248,7.3,7.3,19,0.00,,---,0.00,VWS V14.01,2014-01-09 18:38:00,
2014-01-09 10:39:00,56.8,15.0,29.88,West,270,7.1,7.3,19,0.00,,---,0.00,VWS V14.01,2014-01-09 18:39:00,
2014-01-09 10:40:00,57.0,15.2,29.88,West,270,6.9,7.1,19,0.00,,---,0.00,VWS V14.01,2014-01-09 18:40:00,
2014-01-09 10:41:00,57.0,15.2,29.88,WSW,248,10.0,10.0,19,0.00,,---,0.00,VWS V14.01,2014-01-09 18:41:00,
2014-01-09 10:42:00,57.0,15.2,29.87,West,270,6.2,10.0,19,0.00,,---,0.00,VWS V14.01,2014-01-09 18:42:00,
2014-01-09 10:43:00,57.0,15.2,29.87,West,270,6.0,6.2,19,0.00,,---,0.00,VWS V14.01,2014-01-09 18:43:00,
2014-01-09 10:44:00,57.0,15.2,29.87,SW,225,11.6,11.6,19,0.00,,---,0.00,VWS V14.01,2014-01-09 18:44:00,
2014-01-09 10:45:00,57.0,15.2,29.87,SW,225,14.5,14.5,19,0.00,,---,0.00,VWS V14.01,2014-01-09 18:45:00,
2014-01-09 10:46:00,57.2,15.3,29.87,SSW,202,11.8,14.5,19,0.00,,---,0.00,VWS V14.01,2014-01-09 18:46:00,
2014-01-09 10:47:00,57.2,15.3,29.86,WSW,248,7.8,11.8,19,0.00,,---,0.00,VWS V14.01,2014-01-09 18:47:00,
2014-01-09 10:48:00,57.3,15.4,29.86,WSW,248,2.2,7.8,19,0.00,,---,0.00,VWS V14.01,2014-01-09 18:48:00,
2014-01-09 10:49:00,57.3,15.4,29.86,WSW,248,5.1,5.1,19,0.00,,---,0.00,VWS V14.01,2014-01-09 18:49:00,
2014-01-09 10:50:00,57.3,15.4,29.86,WSW,248,8.9,8.9,19,0.00,,---,0.00,VWS V14.01,2014-01-09 18:50:00,
2014-01-09 10:51:00,57.3,15.4,29.86,West,270,6.4,8.9,19,0.00,,---,0.00,VWS V14.01,2014-01-09 18:51:00,
2014-01-09 10:52:00,57.5,15.6,29.86,SW,225,5.3,6.4,19,0.00,,---,0.00,VWS V14.01,2014-01-09 18:52:00,
2014-01-09 10:53:00,57.5,15.6,29.86,SW,225,5.5,5.5,19,0.00,,---,0.00,VWS V14.01,2014-01-09 18:53:00,
2014-01-09 10:54:00,57.5,15.6,29.86,SSE,158,7.8,7.8,19,0.00,,---,0.00,VWS V14.01,2014-01-09 18:54:00,
2014-01-09 10:55:00,57.5,15.6,29.86,South,180,6.2,7.8,19,0.00,,---,0.00,VWS V14.01,2014-01-09 18:55:00,
2014-01-09 10:56:00,57.5,15.6,29.86,South,180,6.2,6.2,19,0.00,,---,0.00,VWS V14.01,2014-01-09 18:56:00,
2014-01-09 10:57:00,57.7,15.8,29.86,SW,225,6.2,6.2,19,0.00,,---,0.00,VWS V14.01,2014-01-09 18:57:00,
2014-01-09 10:58:00,57.9,15.9,29.86,West,270,6.0,6.2,19,0.00,,---,0.00,VWS V14.01,2014-01-09 18:58:00,
2014-01-09 10:59:00,57.9,15.9,29.86,SSE,158,6.9,6.9,19,0.00,,---,0.00,VWS V14.01,2014-01-09 18:59:00,
2014-01-09 11:00:00,57.9,15.9,29.86,WSW,248,14.7,14.7,19,0.00,,---,0.00,VWS V14.01,2014-01-09 19:00:00,
2014-01-09 11:01:00,57.9,15.9,29.86,SSW,202,10.2,14.7,19,0.00,,---,0.00,VWS V14.01,2014-01-09 19:01:00,
2014-01-09 11:02:00,57.9,15.9,29.86,SW,225,15.8,15.8,19,0.00,,---,0.00,VWS V14.01,2014-01-09 19:02:00,
2014-01-09 11:03:00,58.1,16.1,29.85,SE,135,7.8,15.8,19,0.00,,---,0.00,VWS V14.01,2014-01-09 19:03:00,
2014-01-09 11:04:00,57.9,15.9,29.85,SW,225,18.3,18.3,19,0.00,,---,0.00,VWS V14.01,2014-01-09 19:04:00,
2014-01-09 11:05:00,58.1,16.1,29.85,SSE,158,8.0,18.3,19,0.00,,---,0.00,VWS V14.01,2014-01-09 19:05:00,
2014-01-09 11:06:00,58.1,16.1,29.85,SSE,158,8.0,8.0,19,0.00,,---,0.00,VWS V14.01,2014-01-09 19:06:00,
2014-01-09 11:07:00,58.1,16.1,29.85,WSW,248,13.8,23.4,19,0.00,,---,0.00,VWS V14.01,2014-01-09 19:07:00,
2014-01-09 11:08:00,58.1,16.1,29.85,West,270,5.5,13.8,19,0.00,,---,0.00,VWS V14.01,2014-01-09 19:08:00,
2014-01-09 11:09:00,58.2,16.2,29.85,SSW,202,4.4,5.5,19,0.00,,---,0.00,VWS V14.01,2014-01-09 19:09:00,
2014-01-09 11:10:00,58.2,16.2,29.85,South,180,9.8,9.8,19,0.00,,---,0.00,VWS V14.01,2014-01-09 19:10:00,
2014-01-09 11:11:00,58.2,16.2,29.85,ESE,112,4.6,9.8,19,0.00,,---,0.00,VWS V14.01,2014-01-09 19:11:00,
2014-01-09 11:12:00,58.4,16.3,29.85,SSW,202,6.0,6.0,19,0.00,,---,0.00,VWS V14.01,2014-01-09 19:12:00,
2014-01-09 11:13:00,58.4,16.3,29.85,WNW,292,8.2,8.2,19,0.00,,---,0.00,VWS V14.01,2014-01-09 19:13:00,
2014-01-09 11:14:00,58.4,16.3,29.85,WSW,248,10.7,10.7,19,0.00,,---,0.00,VWS V14.01,2014-01-09 19:14:00,
2014-01-09 11:15:00,58.4,16.3,29.85,WSW,248,14.3,14.3,19,0.00,,---,0.00,VWS V14.01,2014-01-09 19:15:00,
2014-01-09 11:16:00,58.4,16.3,29.85,SSW,202,11.1,11.1,19,0.00,,---,0.00,VWS V14.01,2014-01-09 19:16:00,
2014-01-09 11:17:00,58.6,16.5,29.84,WSW,248,7.3,11.1,19,0.00,,---,0.00,VWS V14.01,2014-01-09 19:17:00,
2014-01-09 11:18:00,58.6,16.5,29.84,West,270,8.0,8.0,19,0.00,,---,0.00,VWS V14.01,2014-01-09 19:18:00,
2014-01-09 11:19:00,58.6,16.5,29.84,East,90,0.6,8.0,19,0.00,,---,0.00,VWS V14.01,2014-01-09 19:19:00,
2014-01-09 11:20:00,58.6,16.5,29.84,SW,225,8.2,8.2,19,0.00,,---,0.00,VWS V14.01,2014-01-09 19:20:00,
2014-01-09 11:21:00,58.6,16.5,29.84,SW,225,18.1,18.1,19,0.00,,---,0.00,VWS V14.01,2014-01-09 19:21:00,
2014-01-09 11:22:00,58.6,16.5,100.00,SW,225,12.5,18.1,19,0.00,,---,0.00,VWS V14.01,2014-01-09 19:22:00,
2014-01-09 11:23:00,58.8,16.7,29.84,South,180,18.1,18.1,19,0.00,,---,0.00,VWS V14.01,2014-01-09 19:23:00,
2014-01-09 11:24:00,59.0,16.8,29.84,SE,135,9.6,18.1,19,0.00,,---,0.00,VWS V14.01,2014-01-09 19:24:00,
2014-01-09 11:25:00,59.1,16.9,29.84,SW,225,13.6,13.6,19,0.00,,---,0.00,VWS V14.01,2014-01-09 19:25:00,
2014-01-09 11:26:00,59.1,16.9,29.84,SW,225,8.9,13.6,19,0.00,,---,0.00,VWS V14.01,2014-01-09 19:26:00,
2014-01-09 11:27:00,59.1,16.9,29.84,SW,225,8.9,8.9,19,0.00,,---,0.00,VWS V14.01,2014-01-09 19:27:00,
2014-01-09 11:28:00,59.1,16.9,29.83,South,180,16.5,16.5,19,0.00,,---,0.00,VWS V14.01,2014-01-09 19:28:00,
2014-01-09 11:29:00,59.1,16.9,29.83,SW,225,8.0,16.5,19,0.00,,---,0.00,VWS V14.01,2014-01-09 19:29:00,
2014-01-09 11:30:00,59.3,17.1,29.83,SW,225,8.7,8.7,19,0.00,,---,0.00,VWS V14.01,2014-01-09 19:30:00,
2014-01-09 11:31:00,59.3,17.1,29.83,WSW,248,12.7,12.7,19,0.00,,---,0.00,VWS V14.01,2014-01-09 19:31:00,
2014-01-09 11:32:00,59.3,17.1,29.83,West,270,13.1,13.1,19,0.00,,---,0.00,VWS V14.01,2014-01-09 19:32:00,
2014-01-09 11:33:00,59.5,17.2,29.83,WNW,292,5.1,13.1,19,0.00,,---,0.00,VWS V14.01,2014-01-09 19:33:00,
2014-01-09 11:34:00,59.5,17.2,29.83,West,270,3.5,5.1,19,0.00,,---,0.00,VWS V14.01,2014-01-09 19:34:00,
2014-01-09 11:35:00,59.5,17.2,29.83,WNW,292,7.1,7.1,19,0.00,,---,0.00,VWS V14.01,2014-01-09 19:35:00,
2014-01-09 11:36:00,59.7,17.4,29.83,West,270,10.9,10.9,19,0.00,,---,0.00,VWS V14.01,2014-01-09 19:36:00,
2014-01-09 11:37:00,59.7,17.4,29.83,West,270,10.9,10.9,19,0.00,,---,0.00,VWS V14.01,2014-01-09 19:37:00,
2014-01-09 11:38:00,59.7,17.4,29.83,West,270,7.3,10.9,19,0.00,,---,0.00,VWS V14.01,2014-01-09 19:38:00,
2014-01-09 11:39:00,59.7,17.4,29.83,WSW,248,15.4,15.4,19,0.00,,---,0.00,VWS V14.01,2014-01-09 19:39:00,
2014-01-09 11:40:00,59.7,17.4,29.83,WSW,248,12.5,15.4,19,0.00,,---,0.00,VWS V14.01,2014-01-09 19:40:00,
2014-01-09 11:41:00,59.7,17.4,29.83,West,270,6.7,12.5,19,0.00,,---,0.00,VWS V14.01,2014-01-09 19:41:00,
2014-01-09 11:42:00,59.9,17.6,29.83,WNW,292,6.2,6.7,19,0.00,,---,0.00,VWS V14.01,2014-01-09 19:42:00,
2014-01-09 11:43:00,60.0,17.6,29.83,West,270,9.1,9.1,19,0.00,,---,0.00,VWS V14.01,2014-01-09 19:43:00,
2014-01-09 11:44:00,59.9,17.6,29.82,West,270,5.5,9.1,19,0.00,,---,0.00,VWS V14.01,2014-01-09 19:44:00,
2014-01-09 11:45:00,59.9,17.6,29.83,West,270,8.5,8.5,19,0.00,,---,0.00,VWS V14.01,2014-01-09 19:45:00,
2014-01-09 11:46:00,60.0,17.6,29.82,SW,225,5.3,8.5,19,0.00,,---,0.00,VWS V14.01,2014-01-09 19:46:00,
2014-01-09 11:47:00,60.0,17.6,29.82,WNW,292,8.7,8.7,19,0.00,,---,0.00,VWS V14.01,2014-01-09 19:47:00,
2014-01-09 11:48:00,60.0,17.6,29.82,WNW,292,8.7,8.7,19,0.00,,---,0.00,VWS V14.01,2014-01-09 19:48:00,
2014-01-09 11:49:00,60.2,17.8,29.82,WSW,248,2.9,5.5,19,0.00,,---,0.00,VWS V14.01,2014-01-09 19:49:00,
2014-01-09 11:50:00,60.2,17.8,29.82,South,180,9.6,9.6,19,0.00,,---,0.00,VWS V14.01,2014-01-09 19:50:00,
2014-01-09 11:51:00,60.4,18.0,29.82,South,180,4.2,9.6,19,0.00,,---,0.00,VWS V14.01,2014-01-09 19:51:00,
2014-01-09 11:52:00,60.4,18.0,29.82,SSW,202,3.5,4.2,19,0.00,,---,0.00,VWS V14.01,2014-01-09 19:52:00,
2014-01-09 11:53:00,60.4,18.0,29.82,SSW,202,3.5,3.5,19,0.00,,---,0.00,VWS V14.01,2014-01-09 19:53:00,
2014-01-09 11:54:00,60.8,18.3,29.82,WNW,292,6.0,6.0,19,0.00,,---,0.00,VWS V14.01,2014-01-09 19:54:00,
2014-01-09 11:55:00,60.8,18.3,29.82,West,270,4.6,6.0,19,0.00,,---,0.00,VWS V14.01,2014-01-09 19:55:00,
2014-01-09 11:56:00,60.8,18.3,29.82,WNW,292,5.8,5.8,19,0.00,,---,0.00,VWS V14.01,2014-01-09 19:56:00,
2014-01-09 11:57:00,60.9,18.4,29.82,West,270,4.4,5.8,19,0.00,,---,0.00,VWS V14.01,2014-01-09 19:57:00,
2014-01-09 11:58:00,60.9,18.4,29.82,West,270,4.4,4.4,19,0.00,,---,0.00,VWS V14.01,2014-01-09 19:58:00,
2014-01-09 11:59:00,60.9,18.4,29.82,West,270,10.9,10.9,19,0.00,,---,0.00,VWS V14.01,2014-01-09 19:59:00,
2014-01-09 12:00:00,61.1,18.5,29.82,West,270,8.7,10.9,19,0.00,,---,0.00,VWS V14.01,2014-01-09 20:00:00,
2014-01-09 12:01:00,61.1,18.5,29.82,WNW,292,8.2,8.7,19,0.00,,---,0.00,VWS V14.01,2014-01-09 20:01:00,
2014-01-09 12:02:00,61.1,18.5,29.82,WNW,292,11.4,11.4,19,0.00,,---,0.00,VWS V14.01,2014-01-09 20:02:00,
2014-01-09 12:03:00,61.3,18.7,29.82,NNW,338,12.7,12.7,19,0.00,,---,0.00,VWS V14.01,2014-01-09 20:03:00,
2014-01-09 12:04:00,61.5,18.9,29.82,WNW,292,10.9,12.7,19,0.00,,---,0.00,VWS V14.01,2014-01-09 20:04:00,
2014-01-09 12:05:00,61.5,18.9,29.82,WNW,292,15.8,15.8,19,0.00,,---,0.00,VWS V14.01,2014-01-09 20:05:00,
2014-01-09 12:06:00,61.7,19.0,29.82,WNW,292,10.5,15.8,19,0.00,,---,0.00,VWS V14.01,2014-01-09 20:06:00,
2014-01-09 12:07:00,61.7,19.0,29.82,West,270,15.2,15.2,19,0.00,,---,0.00,VWS V14.01,2014-01-09 20:07:00,
2014-01-09 12:08:00,61.8,19.1,29.82,WNW,292,11.6,15.2,19,0.00,,---,0.00,VWS V14.01,2014-01-09 20:08:00,
2014-01-09 12:09:00,61.8,19.1,29.82,WNW,292,11.6,11.6,19,0.00,,---,0.00,VWS V14.01,2014-01-09 20:09:00,
2014-01-09 12:10:00,62.0,19.3,29.82,West,270,5.3,6.9,19,0.00,,---,0.00,VWS V14.01,2014-01-09 20:10:00,
2014-01-09 12:11:00,62.0,19.3,29.82,West,270,6.4,6.4,19,0.00,,---,0.00,VWS V14.01,2014-01-09 20:11:00,
2014-01-09 12:12:00,62.0,19.3,29.82,WNW,292,8.0,8.0,19,0.00,,---,0.00,VWS V14.01,2014-01-09 20:12:00,
2014-01-09 12:13:00,62.2,19.5,29.82,WSW,248,11.1,11.1,19,0.00,,---,0.00,VWS V14.01,2014-01-09 20:13:00,
2014-01-09 12:14:00,62.2,19.5,29.82,WSW,248,11.1,11.1,19,0.00,,---,0.00,VWS V14.01,2014-01-09 20:14:00,
2014-01-09 12:15:00,62.2,19.5,29.82,West,270,6.9,8.0,19,0.00,,---,0.00,VWS V14.01,2014-01-09 20:15:00,
2014-01-09 12:16:00,62.4,19.6,29.82,WNW,292,6.9,6.9,19,0.00,,---,0.00,VWS V14.01,2014-01-09 20:16:00,
2014-01-09 12:17:00,62.4,19.6,29.82,WNW,292,8.5,8.5,19,0.00,,---,0.00,VWS V14.01,2014-01-09 20:17:00,
2014-01-09 12:18:00,62.4,19.6,29.82,West,270,13.4,13.4,19,0.00,,---,0.00,VWS V14.01,2014-01-09 20:18:00,
2014-01-09 12:19:00,62.4,19.6,29.82,West,270,13.4,13.4,19,0.00,,---,0.00,VWS V14.01,2014-01-09 20:19:00,
2014-01-09 12:20:00,62.4,19.6,29.82,West,270,6.9,10.5,19,0.00,,---,0.00,VWS V14.01,2014-01-09 20:20:00,
2014-01-09 12:21:00,62.7,19.9,29.82,NW,315,10.7,10.7,19,0.00,,---,0.00,VWS V14.01,2014-01-09 20:21:00,
2014-01-09 12:22:00,62.7,19.9,29.82,WNW,292,14.7,14.7,19,0.00,,---,0.00,VWS V14.01,2014-01-09 20:22:00,
2014-01-09 12:23:00,62.7,19.9,29.82,NW,315,4.6,14.7,19,0.00,,---,0.00,VWS V14.01,2014-01-09 20:23:00,
2014-01-09 12:24:00,62.7,19.9,29.82,NW,315,13.6,13.6,19,0.00,,---,0.00,VWS V14.01,2014-01-09 20:24:00,
2014-01-09 12:25:00,62.7,19.9,29.82,NW,315,6.4,13.6,19,0.00,,---,0.00,VWS V14.01,2014-01-09 20:25:00,
2014-01-09 12:26:00,62.9,20.0,29.82,NW,315,7.6,7.6,19,0.00,,---,0.00,VWS V14.01,2014-01-09 20:26:00,
2014-01-09 12:27:00,62.9,20.0,29.82,WNW,292,8.5,8.5,19,0.00,,---,0.00,VWS V14.01,2014-01-09 20:27:00,
2014-01-09 12:28:00,62.9,20.0,29.82,NNW,338,9.1,9.1,19,0.00,,---,0.00,VWS V14.01,2014-01-09 20:28:00,
2014-01-09 12:29:00,62.9,20.0,29.82,NW,315,11.4,11.4,19,0.00,,---,0.00,VWS V14.01,2014-01-09 20:29:00,
2014-01-09 12:30:00,63.1,20.2,29.82,NNW,338,6.9,11.4,19,0.00,,---,0.00,VWS V14.01,2014-01-09 20:30:00,
2014-01-09 12:31:00,62.9,20.0,29.82,NW,315,9.1,9.1,19,0.00,,---,0.00,VWS V14.01,2014-01-09 20:31:00,
2014-01-09 12:32:00,62.7,19.9,29.82,WNW,292,10.7,10.7,19,0.00,,---,0.00,VWS V14.01,2014-01-09 20:32:00,
2014-01-09 12:33:00,62.7,19.9,29.82,NNW,338,10.0,10.7,19,0.00,,---,0.00,VWS V14.01,2014-01-09 20:33:00,
2014-01-09 12:34:00,62.7,19.9,29.83,NNW,338,9.1,10.0,19,0.00,,---,0.00,VWS V14.01,2014-01-09 20:34:00,
2014-01-09 12:35:00,62.7,19.9,29.83,NNW,338,9.1,9.1,19,0.00,,---,0.00,VWS V14.01,2014-01-09 20:35:00,
2014-01-09 12:36:00,62.2,19.5,29.83,WNW,292,11.4,11.4,19,0.00,,---,0.00,VWS V14.01,2014-01-09 20:36:00,
2014-01-09 12:37:00,62.2,19.5,29.83,NNW,338,11.6,11.6,19,0.00,,---,0.00,VWS V14.01,2014-01-09 20:37:00,
2014-01-09 12:38:00,62.0,19.3,29.83,NW,315,7.8,11.6,19,0.00,,---,0.00,VWS V14.01,2014-01-09 20:38:00,
2014-01-09 12:39:00,61.8,19.1,29.83,NW,315,6.4,7.8,19,0.00,,---,0.00,VWS V14.01,2014-01-09 20:39:00,
2014-01-09 12:40:00,61.8,19.1,29.83,NW,315,6.4,6.4,19,0.00,,---,0.00,VWS V14.01,2014-01-09 20:40:00,
2014-01-09 12:41:00,61.7,19.0,29.83,NNW,338,8.7,12.7,19,0.00,,---,0.00,VWS V14.01,2014-01-09 20:41:00,
2014-01-09 12:42:00,61.5,18.9,29.83,NW,315,7.6,8.7,19,0.00,,---,0.00,VWS V14.01,2014-01-09 20:42:00,
2014-01-09 12:43:00,61.5,18.9,29.83,NNW,338,6.7,7.6,19,0.00,,---,0.00,VWS V14.01,2014-01-09 20:43:00,
2014-01-09 12:44:00,61.3,18.7,29.83,NNW,338,10.9,10.9,19,0.00,,---,0.00,VWS V14.01,2014-01-09 20:44:00,
2014-01-09 12:45:00,61.3,18.7,29.84,NNW,338,12.3,12.3,19,0.00,,---,0.00,VWS V14.01,2014-01-09 20:45:00,
2014-01-09 12:46:00,61.3,18.7,29.84,NW,315,9.6,12.3,19,0.00,,---,0.00,VWS V14.01,2014-01-09 20:46:00,
2014-01-09 12:47:00,61.3,18.7,29.84,WNW,292,9.6,9.6,19,0.00,,---,0.00,VWS V14.01,2014-01-09 20:47:00,
2014-01-09 12:48:00,61.1,18.5,29.84,WNW,292,10.2,10.2,19,0.00,,---,0.00,VWS V14.01,2014-01-09 20:48:00,
2014-01-09 12:49:00,61.1,18.5,29.84,NNW,338,7.8,10.2,19,0.00,,---,0.00,VWS V14.01,2014-01-09 20:49:00,
2014-01-09 12:50:00,61.1,18.5,29.84,NNW,338,9.1,9.1,19,0.00,,---,0.00,VWS V14.01,2014-01-09 20:50:00,
2014-01-09 12:51:00,60.9,18.4,29.84,NW,315,3.5,9.1,19,0.00,,---,0.00,VWS V14.01,2014-01-09 20:51:00,
2014-01-09 12:52:00,60.9,18.4,29.84,WNW,292,7.1,7.1,19,0.00,,---,0.00,VWS V14.01,2014-01-09 20:52:00,
2014-01-09 12:53:00,60.9,18.4,29.84,WNW,292,8.5,8.5,19,0.00,,---,0.00,VWS V14.01,2014-01-09 20:53:00,
2014-01-09 12:54:00,60.8,18.3,29.83,WNW,292,6.2,8.5,19,0.00,,---,0.00,VWS V14.01,2014-01-09 20:54:00,
2014-01-09 12:55:00,60.6,18.1,29.83,NW,315,2.6,6.2,19,0.00,,---,0.00,VWS V14.01,2014-01-09 20:55:00,
2014-01-09 12:56:00,60.6,18.1,29.83,NW,315,2.6,2.6,19,0.00,,---,0.00,VWS V14.01,2014-01-09 20:56:00,
2014-01-09 12:57:00,60.6,18.1,29.83,NNW,338,5.1,6.7,19,0.00,,---,0.00,VWS V14.01,2014-01-09 20:57:00,
2014-01-09 12:58:00,60.6,18.1,29.83,NW,315,5.8,5.8,19,0.00,,---,0.00,VWS V14.01,2014-01-09 20:58:00,
2014-01-09 12:59:00,60.4,18.0,29.83,WNW,292,10.2,10.2,19,0.00,,---,0.00,VWS V14.01,2014-01-09 20:59:00,
2014-01-09 13:00:00,60.4,18.0,29.83,WNW,292,8.5,10.2,19,0.00,,---,0.00,VWS V14.01,2014-01-09 21:00:00,
2014-01-09 13:01:00,60.4,18.0,29.83,WNW,292,8.5,8.5,19,0.00,,---,0.00,VWS V14.01,2014-01-09 21:01:00,
2014-01-09 13:02:00,60.4,18.0,29.82,WNW,292,6.9,8.0,19,0.00,,---,0.00,VWS V14.01,2014-01-09 21:02:00,
2014-01-09 13:03:00,60.2,17.8,29.82,West,270,4.6,6.9,19,0.00,,---,0.00,VWS V14.01,2014-01-09 21:03:00,
2014-01-09 13:04:00,60.2,17.8,29.82,NW,315,0.0,4.6,19,0.00,,---,0.00,VWS V14.01,2014-01-09 21:04:00,
2014-01-09 13:05:00,60.2,17.8,29.82,WNW,292,0.0,0.0,19,0.00,,---,0.00,VWS V14.01,2014-01-09 21:05:00,
2014-01-09 13:06:00,60.2,17.8,29.82,WNW,292,0.0,0.0,19,0.00,,---,0.00,VWS V14.01,2014-01-09 21:06:00,
2014-01-09 13:07:00,60.2,17.8,29.82,WNW,292,5.5,5.5,19,0.00,,---,0.00,VWS V14.01,2014-01-09 21:07:00,
2014-01-09 13:08:00,60.2,17.8,29.82,WNW,292,8.5,8.5,19,0.00,,---,0.00,VWS V14.01,2014-01-09 21:08:00,
2014-01-09 13:09:00,60.2,17.8,29.82,NW,315,6.7,8.5,19,0.00,,---,0.00,VWS V14.01,2014-01-09 21:09:00,
2014-01-09 13:10:00,60.2,17.8,29.82,NNW,338,6.9,6.9,19,0.00,,---,0.00,VWS V14.01,2014-01-09 21:10:00,
2014-01-09 13:11:00,60.2,17.8,29.82,NNW,338,6.9,6.9,19,0.00,,---,0.00,VWS V14.01,2014-01-09 21:11:00,
2014-01-09 13:12:00,60.2,17.8,29.82,North,0,6.9,8.2,19,0.00,,---,0.00,VWS V14.01,2014-01-09 21:12:00,
2014-01-09 13:13:00,60.2,17.8,29.82,NNW,338,5.3,6.9,19,0.00,,---,0.00,VWS V14.01,2014-01-09 21:13:00,
2014-01-09 13:14:00,60.2,17.8,29.82,WNW,292,5.8,5.8,19,0.00,,---,0.00,VWS V14.01,2014-01-09 21:14:00,
2014-01-09 13:15:00,60.2,17.8,29.82,WNW,292,9.8,9.8,19,0.00,,---,0.00,VWS V14.01,2014-01-09 21:15:00,
2014-01-09 13:16:00,60.2,17.8,29.82,NW,315,8.2,9.8,19,0.00,,---,0.00,VWS V14.01,2014-01-09 21:16:00,
2014-01-09 13:17:00,60.0,17.6,29.82,WNW,292,10.9,10.9,19,0.00,,---,0.00,VWS V14.01,2014-01-09 21:17:00,
2014-01-09 13:18:00,60.2,17.8,29.82,NW,315,7.6,10.9,19,0.00,,---,0.00,VWS V14.01,2014-01-09 21:18:00,
2014-01-09 13:19:00,60.2,17.8,29.82,NW,315,6.4,7.6,19,0.00,,---,0.00,VWS V14.01,2014-01-09 21:19:00,
2014-01-09 13:20:00,59.9,17.6,29.82,NW,315,5.8,6.4,19,0.00,,---,0.00,VWS V14.01,2014-01-09 21:20:00,
2014-01-09 13:21:00,59.9,17.6,29.82,NW,315,5.3,5.3,19,0.00,,---,0.00,VWS V14.01,2014-01-09 21:21:00,
2014-01-09 13:22:00,59.9,17.6,29.82,NNW,338,5.8,5.8,19,0.00,,---,0.00,VWS V14.01,2014-01-09 21:22:00,
2014-01-09 13:23:00,59.9,17.6,29.82,NW,315,6.9,6.9,19,0.00,,---,0.00,VWS V14.01,2014-01-09 21:23:00,
2014-01-09 13:24:00,59.7,17.4,29.82,NW,315,4.4,6.9,19,0.00,,---,0.00,VWS V14.01,2014-01-09 21:24:00,
2014-01-09 13:25:00,59.7,17.4,29.82,WNW,292,10.5,10.5,19,0.00,,---,0.00,VWS V14.01,2014-01-09 21:25:00,
2014-01-09 13:26:00,59.7,17.4,29.81,NW,315,7.1,10.5,19,0.00,,---,0.00,VWS V14.01,2014-01-09 21:26:00,
2014-01-09 13:27:00,59.7,17.4,29.81,NW,315,7.1,7.1,19,0.00,,---,0.00,VWS V14.01,2014-01-09 21:27:00,
2014-01-09 13:28:00,59.7,17.4,29.82,WNW,292,9.8,9.8,19,0.00,,---,0.00,VWS V14.01,2014-01-09 21:28:00,
2014-01-09 13:29:00,59.7,17.4,29.82,WNW,292,7.3,9.8,19,0.00,,---,0.00,VWS V14.01,2014-01-09 21:29:00,
2014-01-09 13:30:00,59.5,17.2,29.81,NNW,338,6.2,7.3,19,0.00,,---,0.00,VWS V14.01,2014-01-09 21:30:00,
2014-01-09 13:31:00,59.5,17.2,29.81,NNW,338,6.0,6.2,19,0.00,,---,0.00,VWS V14.01,2014-01-09 21:31:00,
2014-01-09 13:32:00,59.5,17.2,29.81,NNW,338,6.0,6.0,19,0.00,,---,0.00,VWS V14.01,2014-01-09 21:32:00,
2014-01-09 13:33:00,59.3,17.1,29.81,NW,315,5.1,5.1,19,0.00,,---,0.00,VWS V14.01,2014-01-09 21:33:00,
2014-01-09 13:34:00,59.3,17.1,29.81,NW,315,4.4,5.1,19,0.00,,---,0.00,VWS V14.01,2014-01-09 21:34:00,
2014-01-09 13:35:00,59.3,17.1,29.81,NW,315,4.9,4.9,19,0.00,,---,0.00,VWS V14.01,2014-01-09 21:35:00,
2014-01-09 13:36:00,59.3,17.1,29.81,NNW,338,6.7,6.7,19,0.00,,---,0.00,VWS V14.01,2014-01-09 21:36:00,
2014-01-09 13:37:00,59.3,17.1,29.81,NNW,338,6.7,6.7,19,0.00,,---,0.00,VWS V14.01,2014-01-09 21:37:00,
2014-01-09 13:38:00,59.3,17.1,29.81,NNW,338,9.3,9.3,19,0.00,,---,0.00,VWS V14.01,2014-01-09 21:38:00,
2014-01-09 13:39:00,59.3,17.1,29.81,NNW,338,7.6,9.3,19,0.00,,---,0.00,VWS V14.01,2014-01-09 21:39:00,
2014-01-09 13:40:00,59.1,16.9,29.81,NNW,338,3.1,7.6,19,0.00,,---,0.00,VWS V14.01,2014-01-09 21:40:00,
2014-01-09 13:41:00,59.1,16.9,29.81,NW,315,5.3,5.3,19,0.00,,---,0.00,VWS V14.01,2014-01-09 21:41:00,
2014-01-09 13:42:00,59.3,17.1,29.81,West,270,3.3,5.3,19,0.00,,---,0.00,VWS V14.01,2014-01-09 21:42:00,
2014-01-09 13:43:00,59.1,16.9,29.81,NNW,338,3.1,3.3,19,0.00,,---,0.00,VWS V14.01,2014-01-09 21:43:00,
2014-01-09 13:44:00,59.3,17.1,29.81,NNW,338,4.0,4.0,19,0.00,,---,0.00,VWS V14.01,2014-01-09 21:44:00,
2014-01-09 13:45:00,59.3,17.1,29.81,North,0,3.8,4.0,19,0.00,,---,0.00,VWS V14.01,2014-01-09 21:45:00,
2014-01-09 13:46:00,59.3,17.1,29.81,NNW,338,1.5,3.8,19,0.00,,---,0.00,VWS V14.01,2014-01-09 21:46:00,
2014-01-09 13:47:00,59.3,17.1,29.82,North,0,5.5,5.5,19,0.00,,---,0.00,VWS V14.01,2014-01-09 21:47:00,
2014-01-09 13:48:00,59.3,17.1,29.82,NNW,338,6.9,6.9,19,0.00,,---,0.00,VWS V14.01,2014-01-09 21:48:00,
2014-01-09 13:49:00,59.3,17.1,29.82,North,0,7.8,7.8,19,0.00,,---,0.00,VWS V14.01,2014-01-09 21:49:00,
2014-01-09 13:50:00,59.3,20.5,29.82,NW,315,6.9,7.8,22,0.00,,---,0.00,VWS V14.01,2014-01-09 21:50:00,
2014-01-09 13:51:00,59.3,20.5,29.82,NW,315,6.7,6.9,22,0.00,,---,0.00,VWS V14.01,2014-01-09 21:51:00,
2014-01-09 13:52:00,59.3,20.5,29.82,North,0,11.6,11.6,22,0.00,,---,0.00,VWS V14.01,2014-01-09 21:52:00,
2014-01-09 13:53:00,59.1,16.9,29.82,NNW,338,3.8,11.6,19,0.00,,---,0.00,VWS V14.01,2014-01-09 21:53:00,
2014-01-09 13:54:00,59.1,16.9,29.82,NW,315,7.3,7.3,19,0.00,,---,0.00,VWS V14.01,2014-01-09 21:54:00,
2014-01-09 13:55:00,59.1,16.9,29.82,NNW,338,5.5,7.3,19,0.00,,---,0.00,VWS V14.01,2014-01-09 21:55:00,
2014-01-09 13:56:00,59.1,16.9,29.82,NNW,338,7.3,7.3,19,0.00,,---,0.00,VWS V14.01,2014-01-09 21:56:00,
2014-01-09 13:57:00,59.0,16.8,29.82,NNW,338,7.6,7.6,19,0.00,,---,0.00,VWS V14.01,2014-01-09 21:57:00,
2014-01-09 13:58:00,59.0,16.8,29.82,NNW,338,7.6,7.6,19,0.00,,---,0.00,VWS V14.01,2014-01-09 21:58:00,
2014-01-09 13:59:00,58.6,16.5,29.82,NNW,338,4.2,5.1,19,0.00,,---,0.00,VWS V14.01,2014-01-09 21:59:00,
2014-01-09 14:00:00,58.8,20.1,29.82,NNW,338,2.9,4.2,22,0.00,,---,0.00,VWS V14.01,2014-01-09 22:00:00,
2014-01-09 14:01:00,58.6,19.9,29.82,North,0,1.7,2.9,22,0.00,,---,0.00,VWS V14.01,2014-01-09 22:01:00,
2014-01-09 14:02:00,58.6,16.5,29.82,NNW,338,4.4,4.4,19,0.00,,---,0.00,VWS V14.01,2014-01-09 22:02:00,
2014-01-09 14:03:00,58.6,19.9,29.82,North,0,5.5,5.5,22,0.00,,---,0.00,VWS V14.01,2014-01-09 22:03:00,
2014-01-09 14:04:00,58.6,16.5,29.82,NNW,338,6.9,6.9,19,0.00,,---,0.00,VWS V14.01,2014-01-09 22:04:00,
2014-01-09 14:05:00,58.6,16.5,29.82,NNW,338,3.8,6.9,19,0.00,,---,0.00,VWS V14.01,2014-01-09 22:05:00,
2014-01-09 14:06:00,58.6,16.5,29.82,NW,315,4.2,4.2,19,0.00,,---,0.00,VWS V14.01,2014-01-09 22:06:00,
2014-01-09 14:07:00,58.4,16.3,29.82,NNW,338,3.3,4.2,19,0.00,,---,0.00,VWS V14.01,2014-01-09 22:07:00,
2014-01-09 14:08:00,58.4,16.3,29.82,NNW,338,3.3,3.3,19,0.00,,---,0.00,VWS V14.01,2014-01-09 22:08:00,
2014-01-09 14:09:00,58.4,16.3,29.82,North,0,0.0,0.0,19,0.00,,---,0.00,VWS V14.01,2014-01-09 22:09:00,
2014-01-09 14:10:00,58.4,16.3,29.82,NNE,22,0.0,0.0,19,0.00,,---,0.00,VWS V14.01,2014-01-09 22:10:00,
2014-01-09 14:11:00,58.6,19.9,29.82,NNE,22,0.0,0.0,22,0.00,,---,0.00,VWS V14.01,2014-01-09 22:11:00,
2014-01-09 14:12:00,58.4,16.3,29.82,North,0,3.1,3.1,19,0.00,,---,0.00,VWS V14.01,2014-01-09 22:12:00,
2014-01-09 14:13:00,58.6,16.5,29.82,North,0,6.2,6.2,19,0.00,,---,0.00,VWS V14.01,2014-01-09 22:13:00,
2014-01-09 14:14:00,58.6,16.5,29.82,North,0,1.5,6.2,19,0.00,,---,0.00,VWS V14.01,2014-01-09 22:14:00,
2014-01-09 14:15:00,58.6,16.5,29.82,NNW,338,0.0,1.5,19,0.00,,---,0.00,VWS V14.01,2014-01-09 22:15:00,
2014-01-09 14:16:00,58.6,16.5,29.82,NNW,338,0.0,0.0,19,0.00,,---,0.00,VWS V14.01,2014-01-09 22:16:00,
2014-01-09 14:17:00,58.6,16.5,29.82,NNW,338,5.3,5.3,19,0.00,,---,0.00,VWS V14.01,2014-01-09 22:17:00,
2014-01-09 14:18:00,58.6,16.5,29.82,North,0,0.0,0.0,19,0.00,,---,0.00,VWS V14.01,2014-01-09 22:18:00,
2014-01-09 14:19:00,58.6,16.5,29.82,NNE,22,0.0,0.0,19,0.00,,---,0.00,VWS V14.01,2014-01-09 22:19:00,
2014-01-09 14:20:00,58.6,16.5,29.82,NNE,22,0.0,0.0,19,0.00,,---,0.00,VWS V14.01,2014-01-09 22:20:00,
2014-01-09 14:21:00,58.6,16.5,29.82,NNE,22,0.0,0.0,19,0.00,,---,0.00,VWS V14.01,2014-01-09 22:21:00,
2014-01-09 14:22:00,58.6,16.5,29.82,North,0,0.0,0.0,19,0.00,,---,0.00,VWS V14.01,2014-01-09 22:22:00,
2014-01-09 14:23:00,58.6,16.5,29.82,North,0,0.0,0.0,19,0.00,,---,0.00,VWS V14.01,2014-01-09 22:23:00,
2014-01-09 14:24:00,58.6,16.5,29.82,North,0,0.0,0.0,19,0.00,,---,0.00,VWS V14.01,2014-01-09 22:24:00,
2014-01-09 14:25:00,58.8,16.7,29.82,ENE,68,0.8,1.5,19,0.00,,---,0.00,VWS V14.01,2014-01-09 22:25:00,
2014-01-09 14:26:00,59.0,16.8,29.82,NE,45,0.0,0.8,19,0.00,,---,0.00,VWS V14.01,2014-01-09 22:26:00,
2014-01-09 14:27:00,59.0,16.8,29.81,NE,45,0.0,0.0,19,0.00,,---,0.00,VWS V14.01,2014-01-09 22:27:00,
2014-01-09 14:28:00,59.0,16.8,29.81,NE,45,0.0,0.0,19,0.00,,---,0.00,VWS V14.01,2014-01-09 22:28:00,
2014-01-09 14:29:00,59.0,16.8,29.81,NE,45,0.0,0.0,19,0.00,,---,0.00,VWS V14.01,2014-01-09 22:29:00,
2014-01-09 14:30:00,59.1,16.9,29.81,ENE,68,0.0,0.0,19,0.00,,---,0.00,VWS V14.01,2014-01-09 22:30:00,
2014-01-09 14:31:00,59.1,16.9,29.81,NE,45,0.0,0.0,19,0.00,,---,0.00,VWS V14.01,2014-01-09 22:31:00,
2014-01-09 14:32:00,59.1,16.9,29.82,NNE,22,0.0,0.0,19,0.00,,---,0.00,VWS V14.01,2014-01-09 22:32:00,
2014-01-09 14:33:00,59.1,16.9,29.81,NNE,22,0.0,0.0,19,0.00,,---,0.00,VWS V14.01,2014-01-09 22:33:00,
2014-01-09 14:34:00,59.1,16.9,29.82,NNE,22,0.0,0.0,19,0.00,,---,0.00,VWS V14.01,2014-01-09 22:34:00,
2014-01-09 14:35:00,59.1,16.9,29.82,NNE,22,0.0,0.0,19,0.00,,---,0.00,VWS V14.01,2014-01-09 22:35:00,
2014-01-09 14:36:00,59.1,16.9,29.82,NNE,22,0.0,0.0,19,0.00,,---,0.00,VWS V14.01,2014-01-09 22:36:00,
2014-01-09 14:37:00,59.1,16.9,29.82,NNE,22,0.0,0.0,19,0.00,,---,0.00,VWS V14.01,2014-01-09 22:37:00,
2014-01-09 14:38:00,59.1,16.9,29.82,NNE,22,0.0,0.0,19,0.00,,---,0.00,VWS V14.01,2014-01-09 22:38:00,
2014-01-09 14:39:00,59.1,16.9,29.82,NNE,22,0.0,0.0,19,0.00,,---,0.00,VWS V14.01,2014-01-09 22:39:00,
2014-01-09 14:40:00,59.1,16.9,29.82,NNE,22,0.0,0.0,19,0.00,,---,0.00,VWS V14.01,2014-01-09 22:40:00,
2014-01-09 14:41:00,59.3,17.1,29.81,NNE,22,0.0,0.0,19,0.00,,---,0.00,VWS V14.01,2014-01-09 22:41:00,
2014-01-09 14:42:00,59.3,17.1,29.81,NNE,22,0.4,0.4,19,0.00,,---,0.00,VWS V14.01,2014-01-09 22:42:00,
2014-01-09 14:43:00,59.1,16.9,29.81,NNE,22,0.0,0.4,19,0.00,,---,0.00,VWS V14.01,2014-01-09 22:43:00,
2014-01-09 14:44:00,59.3,17.1,29.82,NE,45,0.0,0.0,19,0.00,,---,0.00,VWS V14.01,2014-01-09 22:44:00,
2014-01-09 14:45:00,59.3,17.1,29.82,NE,45,0.0,0.0,19,0.00,,---,0.00,VWS V14.01,2014-01-09 22:45:00,
2014-01-09 14:46:00,59.3,17.1,29.82,NE,45,0.0,0.0,19,0.00,,---,0.00,VWS V14.01,2014-01-09 22:46:00,
2014-01-09 14:47:00,59.1,16.9,29.82,NE,45,0.0,0.0,19,0.00,,---,0.00,VWS V14.01,2014-01-09 22:47:00,
2014-01-09 14:48:00,59.1,16.9,29.82,NE,45,0.0,0.0,19,0.00,,---,0.00,VWS V14.01,2014-01-09 22:48:00,
2014-01-09 14:49:00,59.3,17.1,29.82,ESE,112,0.0,0.0,19,0.00,,---,0.00,VWS V14.01,2014-01-09 22:49:00,
2014-01-09 14:50:00,59.1,16.9,29.82,SE,135,1.3,1.3,19,0.00,,---,0.00,VWS V14.01,2014-01-09 22:50:00,
2014-01-09 14:51:00,59.1,16.9,29.82,SE,135,1.7,1.7,19,0.00,,---,0.00,VWS V14.01,2014-01-09 22:51:00,
2014-01-09 14:52:00,59.1,16.9,29.82,SE,135,1.7,1.7,19,0.00,,---,0.00,VWS V14.01,2014-01-09 22:52:00,
2014-01-09 14:53:00,59.1,16.9,29.82,SE,135,2.2,2.2,19,0.00,,---,0.00,VWS V14.01,2014-01-09 22:53:00,
2014-01-09 14:54:00,59.1,16.9,29.82,SE,135,2.4,2.4,19,0.00,,---,0.00,VWS V14.01,2014-01-09 22:54:00,
2014-01-09 14:55:00,59.1,16.9,29.82,SE,135,2.0,2.0,19,0.00,,---,0.00,VWS V14.01,2014-01-09 22:55:00,
2014-01-09 14:56:00,59.1,16.9,29.82,SE,135,0.0,2.0,19,0.00,,---,0.00,VWS V14.01,2014-01-09 22:56:00,
2014-01-09 14:57:00,59.1,16.9,29.82,SE,135,0.0,0.0,19,0.00,,---,0.00,VWS V14.01,2014-01-09 22:57:00,
2014-01-09 14:58:00,59.1,16.9,29.82,South,180,2.0,2.0,19,0.00,,---,0.00,VWS V14.01,2014-01-09 22:58:00,
2014-01-09 14:59:00,59.0,16.8,29.82,SSW,202,3.3,3.3,19,0.00,,---,0.00,VWS V14.01,2014-01-09 22:59:00,
2014-01-09 15:00:00,58.8,16.7,29.82,SW,225,4.0,4.0,19,0.00,,---,0.00,VWS V14.01,2014-01-09 23:00:00,
2014-01-09 15:01:00,58.6,16.5,29.82,West,270,4.4,4.4,19,0.00,,---,0.00,VWS V14.01,2014-01-09 23:01:00,
2014-01-09 15:02:00,58.6,16.5,29.81,West,270,6.4,6.4,19,0.00,,---,0.00,VWS V14.01,2014-01-09 23:02:00,
2014-01-09 15:03:00,58.6,16.5,29.82,NNW,338,7.1,7.1,19,0.00,,---,0.00,VWS V14.01,2014-01-09 23:03:00,
2014-01-09 15:04:00,58.6,16.5,29.82,WNW,292,6.4,7.1,19,0.00,,---,0.00,VWS V14.01,2014-01-09 23:04:00,
2014-01-09 15:05:00,58.6,16.5,29.82,WNW,292,8.0,8.0,19,0.00,,---,0.00,VWS V14.01,2014-01-09 23:05:00,
2014-01-09 15:06:00,58.4,16.3,29.82,WNW,292,9.6,9.6,19,0.00,,---,0.00,VWS V14.01,2014-01-09 23:06:00,
2014-01-09 15:07:00,58.4,16.3,29.82,WNW,292,6.9,9.6,19,0.00,,---,0.00,VWS V14.01,2014-01-09 23:07:00,
2014-01-09 15:08:00,58.2,16.2,29.82,WNW,292,6.2,6.9,19,0.00,,---,0.00,VWS V14.01,2014-01-09 23:08:00,
2014-01-09 15:09:00,58.2,16.2,29.82,NW,315,4.6,6.2,19,0.00,,---,0.00,VWS V14.01,2014-01-09 23:09:00,
2014-01-09 15:10:00,58.1,16.1,29.82,WNW,292,5.8,5.8,19,0.00,,---,0.00,VWS V14.01,2014-01-09 23:10:00,
2014-01-09 15:11:00,58.1,16.1,29.82,WNW,292,6.7,6.7,19,0.00,,---,0.00,VWS V14.01,2014-01-09 23:11:00,
2014-01-09 15:12:00,57.9,15.9,29.82,WNW,292,2.9,6.7,19,0.00,,---,0.00,VWS V14.01,2014-01-09 23:12:00,
2014-01-09 15:13:00,57.9,17.1,29.82,WNW,292,9.6,9.6,20,0.00,,---,0.00,VWS V14.01,2014-01-09 23:13:00,
2014-01-09 15:14:00,57.9,17.1,29.82,WNW,292,9.6,9.6,20,0.00,,---,0.00,VWS V14.01,2014-01-09 23:14:00,
2014-01-09 15:15:00,57.7,16.9,29.82,NW,315,6.4,9.6,20,0.00,,---,0.00,VWS V14.01,2014-01-09 23:15:00,
2014-01-09 15:16:00,57.7,16.9,29.82,West,270,5.3,6.4,20,0.00,,---,0.00,VWS V14.01,2014-01-09 23:16:00,
2014-01-09 15:17:00,57.5,16.8,29.82,WNW,292,5.8,5.8,20,0.00,,---,0.00,VWS V14.01,2014-01-09 23:17:00,
2014-01-09 15:18:00,57.5,16.8,29.82,WNW,292,6.7,6.7,20,0.00,,---,0.00,VWS V14.01,2014-01-09 23:18:00,
2014-01-09 15:19:00,57.5,16.8,29.82,WNW,292,6.7,6.7,20,0.00,,---,0.00,VWS V14.01,2014-01-09 23:19:00,
2014-01-09 15:20:00,57.3,16.6,29.82,WNW,292,3.3,3.3,20,0.00,,---,0.00,VWS V14.01,2014-01-09 23:20:00,
2014-01-09 15:21:00,57.3,16.6,29.82,West,270,3.1,3.3,20,0.00,,---,0.00,VWS V14.01,2014-01-09 23:21:00,
2014-01-09 15:22:00,57.2,16.5,29.82,WNW,292,6.0,6.0,20,0.00,,---,0.00,VWS V14.01,2014-01-09 23:22:00,
2014-01-09 15:23:00,57.2,16.5,29.82,West,270,3.8,6.0,20,0.00,,---,0.00,VWS V14.01,2014-01-09 23:23:00,
2014-01-09 15:24:00,57.0,16.4,29.81,West,270,2.2,3.8,20,0.00,,---,0.00,VWS V14.01,2014-01-09 23:24:00,
2014-01-09 15:25:00,57.0,16.4,29.82,West,270,0.8,2.2,20,0.00,,---,0.00,VWS V14.01,2014-01-09 23:25:00,
2014-01-09 15:26:00,57.0,16.4,29.82,West,270,0.8,0.8,20,0.00,,---,0.00,VWS V14.01,2014-01-09 23:26:00,
2014-01-09 15:27:00,57.0,16.4,29.82,West,270,5.5,5.5,20,0.00,,---,0.00,VWS V14.01,2014-01-09 23:27:00,
2014-01-09 15:28:00,56.8,16.2,29.82,WNW,292,4.2,5.5,20,0.00,,---,0.00,VWS V14.01,2014-01-09 23:28:00,
2014-01-09 15:29:00,56.8,16.2,29.82,NW,315,3.5,4.2,20,0.00,,---,0.00,VWS V14.01,2014-01-09 23:29:00,
2014-01-09 15:30:00,56.8,16.2,29.82,WNW,292,7.3,7.3,20,0.00,,---,0.00,VWS V14.01,2014-01-09 23:30:00,
2014-01-09 15:31:00,56.8,16.2,29.82,WNW,292,7.3,7.3,20,0.00,,---,0.00,VWS V14.01,2014-01-09 23:31:00,
2014-01-09 15:32:00,56.6,16.0,29.83,North,0,0.0,3.1,20,0.00,,---,0.00,VWS V14.01,2014-01-09 23:32:00,
2014-01-09 15:33:00,56.6,16.0,29.83,WNW,292,6.4,6.4,20,0.00,,---,0.00,VWS V14.01,2014-01-09 23:33:00,
2014-01-09 15:34:00,56.4,15.9,29.83,WNW,292,8.9,8.9,20,0.00,,---,0.00,VWS V14.01,2014-01-09 23:34:00,
2014-01-09 15:35:00,56.6,16.0,29.83,NNW,338,5.5,8.9,20,0.00,,---,0.00,VWS V14.01,2014-01-09 23:35:00,
2014-01-09 15:36:00,56.4,15.9,29.83,NNW,338,8.2,8.2,20,0.00,,---,0.00,VWS V14.01,2014-01-09 23:36:00,
2014-01-09 15:37:00,56.4,15.9,29.83,WNW,292,10.5,10.5,20,0.00,,---,0.00,VWS V14.01,2014-01-09 23:37:00,
2014-01-09 15:38:00,56.4,15.9,29.83,NW,315,6.7,10.5,20,0.00,,---,0.00,VWS V14.01,2014-01-09 23:38:00,
2014-01-09 15:39:00,56.3,15.8,29.83,NW,315,9.8,9.8,20,0.00,,---,0.00,VWS V14.01,2014-01-09 23:39:00,
2014-01-09 15:40:00,56.3,15.8,29.83,WNW,292,5.5,9.8,20,0.00,,---,0.00,VWS V14.01,2014-01-09 23:40:00,
2014-01-09 15:41:00,56.3,15.8,29.83,NW,315,7.6,7.6,20,0.00,,---,0.00,VWS V14.01,2014-01-09 23:41:00,
2014-01-09 15:42:00,56.3,15.8,29.83,NW,315,7.6,7.6,20,0.00,,---,0.00,VWS V14.01,2014-01-09 23:42:00,
2014-01-09 15:43:00,56.3,15.8,29.84,NNW,338,5.1,5.3,20,0.00,,---,0.00,VWS V14.01,2014-01-09 23:43:00,
2014-01-09 15:44:00,56.1,15.6,29.84,NW,315,7.1,7.1,20,0.00,,---,0.00,VWS V14.01,2014-01-09 23:44:00,
2014-01-09 15:45:00,56.1,15.6,29.84,NW,315,8.2,8.2,20,0.00,,---,0.00,VWS V14.01,2014-01-09 23:45:00,
2014-01-09 15:46:00,56.1,15.6,100.00,NW,315,6.0,8.2,20,0.00,,---,0.00,VWS V14.01,2014-01-09 23:46:00,
2014-01-09 15:47:00,56.1,15.6,29.84,WNW,292,8.7,8.7,20,0.00,,---,0.00,VWS V14.01,2014-01-09 23:47:00,
2014-01-09 15:48:00,56.1,15.6,29.84,WNW,292,6.7,8.7,20,0.00,,---,0.00,VWS V14.01,2014-01-09 23:48:00,
2014-01-09 15:49:00,56.1,15.6,29.84,West,270,6.7,6.7,20,0.00,,---,0.00,VWS V14.01,2014-01-09 23:49:00,
2014-01-09 15:50:00,56.1,15.6,29.84,NW,315,5.1,6.7,20,0.00,,---,0.00,VWS V14.01,2014-01-09 23:50:00,
2014-01-09 15:51:00,56.1,15.6,29.84,West,270,3.8,5.1,20,0.00,,---,0.00,VWS V14.01,2014-01-09 23:51:00,
2014-01-09 15:52:00,55.9,15.4,29.84,NW,315,6.4,6.4,20,0.00,,---,0.00,VWS V14.01,2014-01-09 23:52:00,
2014-01-09 15:53:00,55.9,15.4,29.84,WNW,292,8.0,8.0,20,0.00,,---,0.00,VWS V14.01,2014-01-09 23:53:00,
2014-01-09 15:54:00,55.7,15.3,29.84,WNW,292,9.6,9.6,20,0.00,,---,0.00,VWS V14.01,2014-01-09 23:54:00,
2014-01-09 15:55:00,55.7,15.3,29.84,WNW,292,6.0,9.6,20,0.00,,---,0.00,VWS V14.01,2014-01-09 23:55:00,
2014-01-09 15:56:00,55.7,15.3,29.84,NW,315,7.1,7.1,20,0.00,,---,0.00,VWS V14.01,2014-01-09 23:56:00,
2014-01-09 15:57:00,55.7,15.3,29.84,WNW,292,4.2,7.1,20,0.00,,---,0.00,VWS V14.01,2014-01-09 23:57:00,
2014-01-09 15:58:00,55.7,15.3,29.84,WNW,292,7.1,7.1,20,0.00,,---,0.00,VWS V14.01,2014-01-09 23:58:00,
2014-01-09 15:59:00,55.7,15.3,29.84,WNW,292,11.1,11.1,20,0.00,,---,0.00,VWS V14.01,2014-01-09 23:59:00,
2014-01-09 16:00:00,55.7,15.3,29.84,WNW,292,7.8,11.1,20,0.00,,---,0.00,VWS V14.01,2014-01-10 00:00:00,
2014-01-09 16:01:00,55.7,15.3,29.84,West,270,6.0,7.8,20,0.00,,---,0.00,VWS V14.01,2014-01-10 00:01:00,
2014-01-09 16:02:00,55.5,15.1,29.84,West,270,4.2,6.0,20,0.00,,---,0.00,VWS V14.01,2014-01-10 00:02:00,
2014-01-09 16:03:00,55.5,15.1,29.84,West,270,6.7,6.7,20,0.00,,---,0.00,VWS V14.01,2014-01-10 00:03:00,
2014-01-09 16:04:00,55.5,15.1,29.84,West,270,5.8,6.7,20,0.00,,---,0.00,VWS V14.01,2014-01-10 00:04:00,
2014-01-09 16:05:00,55.4,15.0,29.84,West,270,5.3,5.8,20,0.00,,---,0.00,VWS V14.01,2014-01-10 00:05:00,
2014-01-09 16:06:00,55.4,15.0,29.83,West,270,5.8,5.8,20,0.00,,---,0.00,VWS V14.01,2014-01-10 00:06:00,
2014-01-09 16:07:00,55.4,15.0,29.84,West,270,6.7,6.7,20,0.00,,---,0.00,VWS V14.01,2014-01-10 00:07:00,
2014-01-09 16:08:00,55.4,15.0,29.84,West,270,3.8,6.7,20,0.00,,---,0.00,VWS V14.01,2014-01-10 00:08:00,
2014-01-09 16:09:00,55.2,14.9,29.84,WNW,292,7.8,7.8,20,0.00,,---,0.00,VWS V14.01,2014-01-10 00:09:00,
2014-01-09 16:10:00,55.2,14.9,29.83,West,270,4.4,7.8,20,0.00,,---,0.00,VWS V14.01,2014-01-10 00:10:00,
2014-01-09 16:11:00,55.2,14.9,29.84,West,270,2.2,4.4,20,0.00,,---,0.00,VWS V14.01,2014-01-10 00:11:00,
2014-01-09 16:12:00,55.0,14.7,29.84,WNW,292,2.6,2.6,20,0.00,,---,0.00,VWS V14.01,2014-01-10 00:12:00,
2014-01-09 16:13:00,55.0,14.7,29.83,WNW,292,3.3,3.3,20,0.00,,---,0.00,VWS V14.01,2014-01-10 00:13:00,
2014-01-09 16:14:00,55.0,14.7,29.84,WNW,292,2.6,3.3,20,0.00,,---,0.00,VWS V14.01,2014-01-10 00:14:00,
2014-01-09 16:15:00,55.0,14.7,29.84,WSW,248,6.7,6.7,20,0.00,,---,0.00,VWS V14.01,2014-01-10 00:15:00,
2014-01-09 16:16:00,55.0,14.7,29.84,West,270,5.5,6.7,20,0.00,,---,0.00,VWS V14.01,2014-01-10 00:16:00,
2014-01-09 16:17:00,55.0,14.7,29.83,WSW,248,3.5,5.5,20,0.00,,---,0.00,VWS V14.01,2014-01-10 00:17:00,
2014-01-09 16:18:00,55.0,14.7,29.83,West,270,2.9,3.5,20,0.00,,---,0.00,VWS V14.01,2014-01-10 00:18:00,
2014-01-09 16:19:00,55.0,15.8,29.84,West,270,3.5,3.5,21,0.00,,---,0.00,VWS V14.01,2014-01-10 00:19:00,
2014-01-09 16:20:00,55.0,14.7,29.83,WNW,292,8.0,8.0,20,0.00,,---,0.00,VWS V14.01,2014-01-10 00:20:00,
2014-01-09 16:21:00,54.8,15.6,29.83,WNW,292,4.6,8.0,21,0.00,,---,0.00,VWS V14.01,2014-01-10 00:21:00,
2014-01-09 16:22:00,54.8,15.6,29.84,WNW,292,3.1,4.6,21,0.00,,---,0.00,VWS V14.01,2014-01-10 00:22:00,
2014-01-09 16:23:00,54.8,15.6,29.84,West,270,0.0,3.1,21,0.00,,---,0.00,VWS V14.01,2014-01-10 00:23:00,
2014-01-09 16:24:00,54.8,15.6,29.84,West,270,0.0,0.0,21,0.00,,---,0.00,VWS V14.01,2014-01-10 00:24:00,
2014-01-09 16:25:00,54.6,14.4,29.84,West,270,0.0,0.0,20,0.00,,---,0.00,VWS V14.01,2014-01-10 00:25:00,
2014-01-09 16:26:00,54.8,15.6,29.84,West,270,2.4,2.4,21,0.00,,---,0.00,VWS V14.01,2014-01-10 00:26:00,
2014-01-09 16:27:00,54.6,15.5,29.84,West,270,2.0,2.4,21,0.00,,---,0.00,VWS V14.01,2014-01-10 00:27:00,
2014-01-09 16:28:00,54.6,15.5,29.84,West,270,0.8,2.0,21,0.00,,---,0.00,VWS V14.01,2014-01-10 00:28:00,
2014-01-09 16:29:00,54.6,15.5,29.84,WSW,248,2.9,2.9,21,0.00,,---,0.00,VWS V14.01,2014-01-10 00:29:00,
2014-01-09 16:30:00,54.6,15.5,29.84,WSW,248,1.1,1.1,21,0.00,,---,0.00,VWS V14.01,2014-01-10 00:30:00,
2014-01-09 16:31:00,54.5,15.4,29.84,West,270,4.4,4.4,21,0.00,,---,0.00,VWS V14.01,2014-01-10 00:31:00,
2014-01-09 16:32:00,54.5,15.4,29.84,WNW,292,7.1,7.1,21,0.00,,---,0.00,VWS V14.01,2014-01-10 00:32:00,
2014-01-09 16:33:00,54.3,15.2,29.84,West,270,1.7,7.1,21,0.00,,---,0.00,VWS V14.01,2014-01-10 00:33:00,
2014-01-09 16:34:00,54.3,16.3,29.84,West,270,4.4,4.4,22,0.00,,---,0.00,VWS V14.01,2014-01-10 00:34:00,
2014-01-09 16:35:00,54.5,15.4,29.84,West,270,2.4,2.4,21,0.00,,---,0.00,VWS V14.01,2014-01-10 00:35:00,
2014-01-09 16:36:00,54.3,16.3,29.84,WNW,292,3.5,3.5,22,0.00,,---,0.00,VWS V14.01,2014-01-10 00:36:00,
2014-01-09 16:37:00,54.3,16.3,29.84,West,270,1.1,3.5,22,0.00,,---,0.00,VWS V14.01,2014-01-10 00:37:00,
2014-01-09 16:38:00,54.3,16.3,29.84,WSW,248,4.4,4.4,22,0.00,,---,0.00,VWS V14.01,2014-01-10 00:38:00,
2014-01-09 16:39:00,54.1,16.1,29.85,West,270,4.2,4.4,22,0.00,,---,0.00,VWS V14.01,2014-01-10 00:39:00,
2014-01-09 16:40:00,54.1,16.1,29.85,West,270,3.3,3.3,22,0.00,,---,0.00,VWS V14.01,2014-01-10 00:40:00,
2014-01-09 16:41:00,54.1,16.1,29.85,West,270,5.8,5.8,22,0.00,,---,0.00,VWS V14.01,2014-01-10 00:41:00,
2014-01-09 16:42:00,54.1,16.1,29.85,WSW,248,5.5,5.8,22,0.00,,---,0.00,VWS V14.01,2014-01-10 00:42:00,
2014-01-09 16:43:00,54.1,16.1,29.85,West,270,2.6,5.5,22,0.00,,---,0.00,VWS V14.01,2014-01-10 00:43:00,
2014-01-09 16:44:00,53.9,15.9,29.85,West,270,3.5,3.5,22,0.00,,---,0.00,VWS V14.01,2014-01-10 00:44:00,
2014-01-09 16:45:00,53.9,15.9,29.85,West,270,1.5,1.5,22,0.00,,---,0.00,VWS V14.01,2014-01-10 00:45:00,
2014-01-09 16:46:00,53.9,15.9,29.85,West,270,2.6,2.6,22,0.00,,---,0.00,VWS V14.01,2014-01-10 00:46:00,
2014-01-09 16:47:00,53.9,15.9,29.85,WNW,292,3.5,3.5,22,0.00,,---,0.00,VWS V14.01,2014-01-10 00:47:00,
2014-01-09 16:48:00,53.7,15.8,29.85,NW,315,5.1,5.1,22,0.00,,---,0.00,VWS V14.01,2014-01-10 00:48:00,
2014-01-09 16:49:00,53.9,15.9,29.85,WNW,292,0.6,5.1,22,0.00,,---,0.00,VWS V14.01,2014-01-10 00:49:00,
2014-01-09 16:50:00,53.7,15.8,29.85,West,270,0.0,0.0,22,0.00,,---,0.00,VWS V14.01,2014-01-10 00:50:00,
2014-01-09 16:51:00,53.7,15.8,29.85,WNW,292,2.4,2.4,22,0.00,,---,0.00,VWS V14.01,2014-01-10 00:51:00,
2014-01-09 16:52:00,53.7,15.8,29.85,North,0,0.0,2.4,22,0.00,,---,0.00,VWS V14.01,2014-01-10 00:52:00,
2014-01-09 16:53:00,53.7,15.8,29.86,West,270,0.8,0.8,22,0.00,,---,0.00,VWS V14.01,2014-01-10 00:53:00,
2014-01-09 16:54:00,53.7,16.8,29.85,West,270,1.7,1.7,23,0.00,,---,0.00,VWS V14.01,2014-01-10 00:54:00,
2014-01-09 16:55:00,53.6,16.7,29.85,SW,225,8.0,8.0,23,0.00,,---,0.00,VWS V14.01,2014-01-10 00:55:00,
2014-01-09 16:56:00,53.4,15.5,29.85,WSW,248,2.6,8.0,22,0.00,,---,0.00,VWS V14.01,2014-01-10 00:56:00,
2014-01-09 16:57:00,53.4,15.5,29.85,WSW,248,3.8,3.8,22,0.00,,---,0.00,VWS V14.01,2014-01-10 00:57:00,
2014-01-09 16:58:00,53.4,16.5,29.85,North,0,0.0,3.8,23,0.00,,---,0.00,VWS V14.01,2014-01-10 00:58:00,
2014-01-09 16:59:00,53.2,15.4,29.85,West,270,3.8,3.8,22,0.00,,---,0.00,VWS V14.01,2014-01-10 00:59:00,
2014-01-09 17:00:00,53.2,16.4,29.85,WSW,248,2.4,2.4,23,0.00,,---,0.00,VWS V14.01,2014-01-10 01:00:00,
2014-01-09 17:01:00,53.2,16.4,29.85,SSW,202,6.0,6.0,23,0.00,,---,0.00,VWS V14.01,2014-01-10 01:01:00,
2014-01-09 17:02:00,53.0,16.2,29.85,West,270,2.6,6.0,23,0.00,,---,0.00,VWS V14.01,2014-01-10 01:02:00,
2014-01-09 17:03:00,53.0,16.2,29.85,WSW,248,3.5,3.5,23,0.00,,---,0.00,VWS V14.01,2014-01-10 01:03:00,
2014-01-09 17:04:00,53.0,16.2,29.85,WSW,248,4.9,4.9,23,0.00,,---,0.00,VWS V14.01,2014-01-10 01:04:00,
2014-01-09 17:05:00,52.8,16.0,29.85,SW,225,6.7,6.7,23,0.00,,---,0.00,VWS V14.01,2014-01-10 01:05:00,
2014-01-09 17:06:00,52.8,16.0,29.85,North,0,0.0,6.7,23,0.00,,---,0.00,VWS V14.01,2014-01-10 01:06:00,
2014-01-09 17:07:00,52.7,16.0,29.85,SW,225,5.3,5.3,23,0.00,,---,0.00,VWS V14.01,2014-01-10 01:07:00,
2014-01-09 17:08:00,52.7,16.0,29.85,WSW,248,6.9,6.9,23,0.00,,---,0.00,VWS V14.01,2014-01-10 01:08:00,
2014-01-09 17:09:00,52.7,16.0,29.85,SW,225,5.3,6.9,23,0.00,,---,0.00,VWS V14.01,2014-01-10 01:09:00,
2014-01-09 17:10:00,52.7,16.0,29.85,SW,225,11.1,11.1,23,0.00,,---,0.00,VWS V14.01,2014-01-10 01:10:00,
2014-01-09 17:11:00,52.7,16.0,29.85,SW,225,10.9,11.1,23,0.00,,---,0.00,VWS V14.01,2014-01-10 01:11:00,
2014-01-09 17:12:00,52.7,16.9,29.85,WSW,248,6.9,10.9,24,0.00,,---,0.00,VWS V14.01,2014-01-10 01:12:00,
2014-01-09 17:13:00,52.5,16.8,29.85,WSW,248,8.5,8.5,24,0.00,,---,0.00,VWS V14.01,2014-01-10 01:13:00,
2014-01-09 17:14:00,52.5,16.8,29.85,West,270,10.2,10.2,24,0.00,,---,0.00,VWS V14.01,2014-01-10 01:14:00,
2014-01-09 17:15:00,52.5,17.7,29.85,WSW,248,6.0,6.0,25,0.00,,---,0.00,VWS V14.01,2014-01-10 01:15:00,
2014-01-09 17:16:00,52.5,17.7,29.85,West,270,5.3,6.0,25,0.00,,---,0.00,VWS V14.01,2014-01-10 01:16:00,
2014-01-09 17:17:00,52.5,17.7,29.85,WSW,248,6.2,6.2,25,0.00,,---,0.00,VWS V14.01,2014-01-10 01:17:00,
2014-01-09 17:18:00,52.5,17.7,29.85,WSW,248,11.6,11.6,25,0.00,,---,0.00,VWS V14.01,2014-01-10 01:18:00,
2014-01-09 17:19:00,52.5,17.7,29.85,West,270,6.4,11.6,25,0.00,,---,0.00,VWS V14.01,2014-01-10 01:19:00,
2014-01-09 17:20:00,52.3,17.5,29.86,West,270,3.1,3.1,25,0.00,,---,0.00,VWS V14.01,2014-01-10 01:20:00,
2014-01-09 17:21:00,52.3,17.5,29.85,SW,225,7.3,7.3,25,0.00,,---,0.00,VWS V14.01,2014-01-10 01:21:00,
2014-01-09 17:22:00,52.3,17.5,29.85,WSW,248,8.5,8.5,25,0.00,,---,0.00,VWS V14.01,2014-01-10 01:22:00,
2014-01-09 17:23:00,52.1,18.3,29.85,SW,225,5.3,8.5,26,0.00,,---,0.00,VWS V14.01,2014-01-10 01:23:00,
2014-01-09 17:24:00,52.1,18.3,29.85,SW,225,6.7,6.7,26,0.00,,---,0.00,VWS V14.01,2014-01-10 01:24:00,
2014-01-09 17:25:00,52.1,18.3,29.85,West,270,7.1,7.1,26,0.00,,---,0.00,VWS V14.01,2014-01-10 01:25:00,
2014-01-09 17:26:00,52.1,18.3,29.85,WSW,248,2.2,7.1,26,0.00,,---,0.00,VWS V14.01,2014-01-10 01:26:00,
2014-01-09 17:27:00,52.1,18.3,29.85,WSW,248,3.8,3.8,26,0.00,,---,0.00,VWS V14.01,2014-01-10 01:27:00,
2014-01-09 17:28:00,52.1,18.3,29.85,SW,225,5.3,5.3,26,0.00,,---,0.00,VWS V14.01,2014-01-10 01:28:00,
2014-01-09 17:29:00,51.9,18.1,29.85,SW,225,4.4,5.3,26,0.00,,---,0.00,VWS V14.01,2014-01-10 01:29:00,
2014-01-09 17:30:00,51.9,18.1,29.85,WSW,248,6.7,6.7,26,0.00,,---,0.00,VWS V14.01,2014-01-10 01:30:00,
2014-01-09 17:31:00,51.9,18.1,29.85,SSW,202,4.2,6.7,26,0.00,,---,0.00,VWS V14.01,2014-01-10 01:31:00,
2014-01-09 17:32:00,51.9,19.0,29.85,SW,225,4.4,4.4,27,0.00,,---,0.00,VWS V14.01,2014-01-10 01:32:00,
2014-01-09 17:33:00,51.8,18.0,29.85,North,0,0.0,4.4,26,0.00,,---,0.00,VWS V14.01,2014-01-10 01:33:00,
2014-01-09 17:34:00,51.9,19.0,29.85,WSW,248,1.1,1.1,27,0.00,,---,0.00,VWS V14.01,2014-01-10 01:34:00,
2014-01-09 17:35:00,51.8,18.9,29.85,West,270,3.8,3.8,27,0.00,,---,0.00,VWS V14.01,2014-01-10 01:35:00,
2014-01-09 17:36:00,51.8,18.9,29.85,West,270,3.5,3.8,27,0.00,,---,0.00,VWS V14.01,2014-01-10 01:36:00,
2014-01-09 17:37:00,51.8,18.9,29.85,West,270,4.2,4.2,27,0.00,,---,0.00,VWS V14.01,2014-01-10 01:37:00,
2014-01-09 17:38:00,51.8,18.9,29.85,SW,225,4.4,4.4,27,0.00,,---,0.00,VWS V14.01,2014-01-10 01:38:00,
2014-01-09 17:39:00,51.8,18.9,29.85,South,180,3.5,4.4,27,0.00,,---,0.00,VWS V14.01,2014-01-10 01:39:00,
2014-01-09 17:40:00,51.6,18.7,29.85,WSW,248,5.1,5.1,27,0.00,,---,0.00,VWS V14.01,2014-01-10 01:40:00,
2014-01-09 17:41:00,51.6,18.7,29.85,SSW,202,4.0,5.1,27,0.00,,---,0.00,VWS V14.01,2014-01-10 01:41:00,
2014-01-09 17:42:00,51.6,18.7,29.85,SSW,202,1.7,4.0,27,0.00,,---,0.00,VWS V14.01,2014-01-10 01:42:00,
2014-01-09 17:43:00,51.6,18.7,29.85,WSW,248,5.5,5.5,27,0.00,,---,0.00,VWS V14.01,2014-01-10 01:43:00,
2014-01-09 17:44:00,51.6,18.7,29.85,WSW,248,0.8,5.5,27,0.00,,---,0.00,VWS V14.01,2014-01-10 01:44:00,
2014-01-09 17:45:00,51.4,18.6,29.85,WSW,248,1.1,1.1,27,0.00,,---,0.00,VWS V14.01,2014-01-10 01:45:00,
2014-01-09 17:46:00,51.4,18.6,29.85,SSW,202,4.4,4.4,27,0.00,,---,0.00,VWS V14.01,2014-01-10 01:46:00,
2014-01-09 17:47:00,51.4,18.6,29.85,SSW,202,4.2,4.4,27,0.00,,---,0.00,VWS V14.01,2014-01-10 01:47:00,
2014-01-09 17:48:00,51.4,18.6,29.85,SW,225,4.9,4.9,27,0.00,,---,0.00,VWS V14.01,2014-01-10 01:48:00,
2014-01-09 17:49:00,51.6,19.6,29.85,SSW,202,4.6,4.9,28,0.00,,---,0.00,VWS V14.01,2014-01-10 01:49:00,
2014-01-09 17:50:00,51.4,18.6,29.85,SW,225,2.0,2.0,27,0.00,,---,0.00,VWS V14.01,2014-01-10 01:50:00,
2014-01-09 17:51:00,51.4,19.4,29.85,South,180,6.9,6.9,28,0.00,,---,0.00,VWS V14.01,2014-01-10 01:51:00,
2014-01-09 17:52:00,51.4,19.4,29.85,South,180,1.5,6.9,28,0.00,,---,0.00,VWS V14.01,2014-01-10 01:52:00,
2014-01-09 17:53:00,51.4,19.4,29.85,South,180,4.0,4.0,28,0.00,,---,0.00,VWS V14.01,2014-01-10 01:53:00,
2014-01-09 17:54:00,51.4,19.4,29.85,South,180,4.4,4.4,28,0.00,,---,0.00,VWS V14.01,2014-01-10 01:54:00,
2014-01-09 17:55:00,51.4,19.4,29.85,SSW,202,4.0,4.0,28,0.00,,---,0.00,VWS V14.01,2014-01-10 01:55:00,
2014-01-09 17:56:00,51.4,19.4,29.85,SSW,202,3.8,4.0,28,0.00,,---,0.00,VWS V14.01,2014-01-10 01:56:00,
2014-01-09 17:57:00,51.2,19.2,29.85,SSW,202,2.4,3.8,28,0.00,,---,0.00,VWS V14.01,2014-01-10 01:57:00,
2014-01-09 17:58:00,51.2,19.2,29.85,SSW,202,5.8,5.8,28,0.00,,---,0.00,VWS V14.01,2014-01-10 01:58:00,
2014-01-09 17:59:00,51.2,19.2,29.85,SSW,202,5.8,5.8,28,0.00,,---,0.00,VWS V14.01,2014-01-10 01:59:00,
2014-01-09 18:00:00,50.9,19.0,29.85,SSW,202,6.2,6.2,28,0.00,,---,0.00,VWS V14.01,2014-01-10 02:00:00,
2014-01-09 18:01:00,50.9,19.0,29.85,SSW,202,6.0,6.2,28,0.00,,---,0.00,VWS V14.01,2014-01-10 02:01:00,
2014-01-09 18:02:00,50.9,19.0,29.85,SSW,202,6.0,6.0,28,0.00,,---,0.00,VWS V14.01,2014-01-10 02:02:00,
2014-01-09 18:03:00,50.9,19.8,29.85,SW,225,6.2,6.2,29,0.00,,---,0.00,VWS V14.01,2014-01-10 02:03:00,
2014-01-09 18:04:00,50.9,19.8,29.85,SSW,202,2.4,6.2,29,0.00,,---,0.00,VWS V14.01,2014-01-10 02:04:00,
2014-01-09 18:05:00,50.9,19.8,29.85,SW,225,3.8,3.8,29,0.00,,---,0.00,VWS V14.01,2014-01-10 02:05:00,
2014-01-09 18:06:00,50.9,19.8,29.85,WSW,248,1.1,3.8,29,0.00,,---,0.00,VWS V14.01,2014-01-10 02:06:00,
2014-01-09 18:07:00,50.9,19.8,29.85,WSW,248,0.0,1.1,29,0.00,,---,0.00,VWS V14.01,2014-01-10 02:07:00,
2014-01-09 18:08:00,50.9,19.8,29.85,WSW,248,2.0,2.0,29,0.00,,---,0.00,VWS V14.01,2014-01-10 02:08:00,
2014-01-09 18:09:00,50.9,19.8,29.86,SW,225,2.6,2.6,29,0.00,,---,0.00,VWS V14.01,2014-01-10 02:09:00,
2014-01-09 18:10:00,50.9,19.8,29.86,WSW,248,4.0,4.0,29,0.00,,---,0.00,VWS V14.01,2014-01-10 02:10:00,
2014-01-09 18:11:00,50.9,19.8,29.86,SSW,202,4.9,4.9,29,0.00,,---,0.00,VWS V14.01,2014-01-10 02:11:00,
2014-01-09 18:12:00,50.9,19.8,29.86,SSW,202,3.8,4.9,29,0.00,,---,0.00,VWS V14.01,2014-01-10 02:12:00,
2014-01-09 18:13:00,50.9,19.8,29.86,SW,225,4.2,4.2,29,0.00,,---,0.00,VWS V14.01,2014-01-10 02:13:00,
2014-01-09 18:14:00,50.9,19.8,29.86,WSW,248,6.2,6.2,29,0.00,,---,0.00,VWS V14.01,2014-01-10 02:14:00,
2014-01-09 18:15:00,50.9,19.8,29.86,WSW,248,7.1,7.1,29,0.00,,---,0.00,VWS V14.01,2014-01-10 02:15:00,
2014-01-09 18:16:00,50.9,19.8,29.86,West,270,0.0,7.1,29,0.00,,---,0.00,VWS V14.01,2014-01-10 02:16:00,
2014-01-09 18:17:00,51.0,19.9,29.87,WSW,248,2.0,2.0,29,0.00,,---,0.00,VWS V14.01,2014-01-10 02:17:00,
2014-01-09 18:18:00,50.9,19.8,29.87,North,0,0.0,2.0,29,0.00,,---,0.00,VWS V14.01,2014-01-10 02:18:00,
2014-01-09 18:19:00,51.0,19.9,29.86,WSW,248,0.8,0.8,29,0.00,,---,0.00,VWS V14.01,2014-01-10 02:19:00,
2014-01-09 18:20:00,50.9,19.8,29.87,SSW,202,10.7,10.7,29,0.00,,---,0.00,VWS V14.01,2014-01-10 02:20:00,
2014-01-09 18:21:00,50.9,19.8,29.87,SW,225,6.2,10.7,29,0.00,,---,0.00,VWS V14.01,2014-01-10 02:21:00,
2014-01-09 18:22:00,50.9,19.8,29.87,WSW,248,6.7,6.7,29,0.00,,---,0.00,VWS V14.01,2014-01-10 02:22:00,
2014-01-09 18:23:00,50.9,19.8,29.87,West,270,3.8,6.7,29,0.00,,---,0.00,VWS V14.01,2014-01-10 02:23:00,
2014-01-09 18:24:00,50.9,19.8,29.87,SW,225,4.6,4.6,29,0.00,,---,0.00,VWS V14.01,2014-01-10 02:24:00,
2014-01-09 18:25:00,50.9,19.8,29.86,WSW,248,3.8,4.6,29,0.00,,---,0.00,VWS V14.01,2014-01-10 02:25:00,
2014-01-09 18:26:00,50.9,19.8,29.86,WSW,248,6.4,6.4,29,0.00,,---,0.00,VWS V14.01,2014-01-10 02:26:00,
2014-01-09 18:27:00,50.9,19.8,29.87,WSW,248,5.5,6.4,29,0.00,,---,0.00,VWS V14.01,2014-01-10 02:27:00,
2014-01-09 18:28:00,50.9,19.8,29.87,WSW,248,6.0,6.0,29,0.00,,---,0.00,VWS V14.01,2014-01-10 02:28:00,
2014-01-09 18:29:00,50.9,19.8,29.87,WSW,248,4.4,6.0,29,0.00,,---,0.00,VWS V14.01,2014-01-10 02:29:00,
2014-01-09 18:30:00,50.9,19.8,29.87,SSW,202,6.9,6.9,29,0.00,,---,0.00,VWS V14.01,2014-01-10 02:30:00,
2014-01-09 18:31:00,50.9,19.8,29.87,WSW,248,1.7,6.9,29,0.00,,---,0.00,VWS V14.01,2014-01-10 02:31:00,
2014-01-09 18:32:00,50.9,19.8,29.87,SW,225,3.8,3.8,29,0.00,,---,0.00,VWS V14.01,2014-01-10 02:32:00,
2014-01-09 18:33:00,50.9,19.8,29.87,WSW,248,1.5,3.8,29,0.00,,---,0.00,VWS V14.01,2014-01-10 02:33:00,
2014-01-09 18:34:00,50.9,19.8,29.87,West,270,5.3,5.3,29,0.00,,---,0.00,VWS V14.01,2014-01-10 02:34:00,
2014-01-09 18:35:00,50.9,19.8,29.87,WSW,248,2.6,2.6,29,0.00,,---,0.00,VWS V14.01,2014-01-10 02:35:00,
2014-01-09 18:36:00,50.7,19.6,29.87,WSW,248,4.2,4.2,29,0.00,,---,0.00,VWS V14.01,2014-01-10 02:36:00,
2014-01-09 18:37:00,50.7,20.4,29.87,SSW,202,8.0,8.0,30,0.00,,---,0.00,VWS V14.01,2014-01-10 02:37:00,
2014-01-09 18:38:00,50.7,20.4,29.87,SW,225,6.4,8.0,30,0.00,,---,0.00,VWS V14.01,2014-01-10 02:38:00,
2014-01-09 18:39:00,50.7,20.4,29.87,WSW,248,1.5,6.4,30,0.00,,---,0.00,VWS V14.01,2014-01-10 02:39:00,
2014-01-09 18:40:00,50.7,20.4,29.87,West,270,1.5,1.5,30,0.00,,---,0.00,VWS V14.01,2014-01-10 02:40:00,
2014-01-09 18:41:00,50.7,20.4,29.87,West,270,0.0,1.5,30,0.00,,---,0.00,VWS V14.01,2014-01-10 02:41:00,
2014-01-09 18:42:00,50.7,20.4,29.87,South,180,3.8,3.8,30,0.00,,---,0.00,VWS V14.01,2014-01-10 02:42:00,
2014-01-09 18:43:00,50.7,20.4,29.87,SW,225,3.5,3.8,30,0.00,,---,0.00,VWS V14.01,2014-01-10 02:43:00,
2014-01-09 18:44:00,50.7,20.4,29.87,SW,225,3.5,3.5,30,0.00,,---,0.00,VWS V14.01,2014-01-10 02:44:00,
2014-01-09 18:45:00,50.7,20.4,29.87,SW,225,1.1,1.1,30,0.00,,---,0.00,VWS V14.01,2014-01-10 02:45:00,
2014-01-09 18:46:00,50.7,20.4,29.87,SW,225,0.0,1.1,30,0.00,,---,0.00,VWS V14.01,2014-01-10 02:46:00,
2014-01-09 18:47:00,50.5,20.2,29.87,WSW,248,4.4,4.4,30,0.00,,---,0.00,VWS V14.01,2014-01-10 02:47:00,
2014-01-09 18:48:00,50.5,20.2,29.87,WSW,248,5.5,5.5,30,0.00,,---,0.00,VWS V14.01,2014-01-10 02:48:00,
2014-01-09 18:49:00,50.5,20.2,29.87,WSW,248,2.9,5.5,30,0.00,,---,0.00,VWS V14.01,2014-01-10 02:49:00,
2014-01-09 18:50:00,50.5,20.2,29.87,SW,225,4.6,4.6,30,0.00,,---,0.00,VWS V14.01,2014-01-10 02:50:00,
2014-01-09 18:51:00,50.5,20.2,29.87,WSW,248,4.6,4.6,30,0.00,,---,0.00,VWS V14.01,2014-01-10 02:51:00,
2014-01-09 18:52:00,50.3,20.1,29.87,WSW,248,5.8,5.8,30,0.00,,---,0.00,VWS V14.01,2014-01-10 02:52:00,
2014-01-09 18:53:00,50.3,20.1,29.88,SW,225,1.5,5.8,30,0.00,,---,0.00,VWS V14.01,2014-01-10 02:53:00,
2014-01-09 18:54:00,50.3,20.1,29.87,SW,225,0.0,1.5,30,0.00,,---,0.00,VWS V14.01,2014-01-10 02:54:00,
2014-01-09 18:55:00,50.3,20.8,29.87,SSE,158,2.9,2.9,31,0.00,,---,0.00,VWS V14.01,2014-01-10 02:55:00,
2014-01-09 18:56:00,50.3,20.1,29.87,SSW,202,4.2,4.2,30,0.00,,---,0.00,VWS V14.01,2014-01-10 02:56:00,
2014-01-09 18:57:00,50.3,20.8,29.87,North,0,0.0,4.2,31,0.00,,---,0.00,VWS V14.01,2014-01-10 02:57:00,
2014-01-09 18:58:00,50.1,19.9,29.87,South,180,4.6,4.6,30,0.00,,---,0.00,VWS V14.01,2014-01-10 02:58:00,
2014-01-09 18:59:00,50.1,20.7,29.87,South,180,5.3,5.3,31,0.00,,---,0.00,VWS V14.01,2014-01-10 02:59:00,
2014-01-09 19:00:00,50.1,20.7,29.87,SSW,202,2.6,2.6,31,0.00,,---,0.00,VWS V14.01,2014-01-10 03:00:00,
2014-01-09 19:01:00,50.1,20.7,29.87,SSW,202,4.9,4.9,31,0.00,,---,0.00,VWS V14.01,2014-01-10 03:01:00,
2014-01-09 19:02:00,50.0,20.6,29.88,SSW,202,4.2,4.9,31,0.00,,---,0.00,VWS V14.01,2014-01-10 03:02:00,
2014-01-09 19:03:00,49.8,20.4,29.88,SSW,202,4.6,4.6,31,0.00,,---,0.00,VWS V14.01,2014-01-10 03:03:00,
2014-01-09 19:04:00,49.6,20.2,29.88,SW,225,4.4,4.6,31,0.00,,---,0.00,VWS V14.01,2014-01-10 03:04:00,
2014-01-09 19:05:00,49.6,20.2,29.88,West,270,0.0,4.4,31,0.00,,---,0.00,VWS V14.01,2014-01-10 03:05:00,
2014-01-09 19:06:00,49.6,20.2,29.88,SW,225,1.5,1.5,31,0.00,,---,0.00,VWS V14.01,2014-01-10 03:06:00,
2014-01-09 19:07:00,49.6,20.2,29.88,South,180,5.5,5.5,31,0.00,,---,0.00,VWS V14.01,2014-01-10 03:07:00,
2014-01-09 19:08:00,49.6,20.2,29.88,South,180,3.5,5.5,31,0.00,,---,0.00,VWS V14.01,2014-01-10 03:08:00,
2014-01-09 19:09:00,49.6,20.2,29.88,South,180,4.4,4.4,31,0.00,,---,0.00,VWS V14.01,2014-01-10 03:09:00,
2014-01-09 19:10:00,49.6,20.2,29.88,South,180,4.4,4.4,31,0.00,,---,0.00,VWS V14.01,2014-01-10 03:10:00,
2014-01-09 19:11:00,49.4,20.0,29.88,South,180,0.4,2.9,31,0.00,,---,0.00,VWS V14.01,2014-01-10 03:11:00,
2014-01-09 19:12:00,49.4,20.0,29.88,North,0,0.0,0.4,31,0.00,,---,0.00,VWS V14.01,2014-01-10 03:12:00,
2014-01-09 19:13:00,49.4,20.0,29.88,South,180,2.0,2.0,31,0.00,,---,0.00,VWS V14.01,2014-01-10 03:13:00,
2014-01-09 19:14:00,49.4,20.0,29.88,South,180,2.0,2.0,31,0.00,,---,0.00,VWS V14.01,2014-01-10 03:14:00,
2014-01-09 19:15:00,49.4,20.0,29.88,South,180,2.0,2.0,31,0.00,,---,0.00,VWS V14.01,2014-01-10 03:15:00,
2014-01-09 19:16:00,49.1,19.8,29.88,South,180,2.9,3.1,31,0.00,,---,0.00,VWS V14.01,2014-01-10 03:16:00,
2014-01-09 19:17:00,49.1,19.8,29.88,SSW,202,3.8,3.8,31,0.00,,---,0.00,VWS V14.01,2014-01-10 03:17:00,
2014-01-09 19:18:00,49.1,19.8,29.88,SSW,202,4.6,4.6,31,0.00,,---,0.00,VWS V14.01,2014-01-10 03:18:00,
2014-01-09 19:19:00,48.9,19.6,29.88,SSW,202,4.4,4.6,31,0.00,,---,0.00,VWS V14.01,2014-01-10 03:19:00,
2014-01-09 19:20:00,48.9,19.6,29.88,SSW,202,4.4,4.4,31,0.00,,---,0.00,VWS V14.01,2014-01-10 03:20:00,
2014-01-09 19:21:00,48.9,8.5,29.88,SW,225,6.0,6.0,19,0.00,,---,0.00,VWS V14.01,2014-01-10 03:21:00,
2014-01-09 19:22:00,48.9,8.5,29.88,SW,225,3.5,6.0,19,0.00,,---,0.00,VWS V14.01,2014-01-10 03:22:00,
2014-01-09 19:23:00,48.7,8.3,29.88,SW,225,6.2,6.2,19,0.00,,---,0.00,VWS V14.01,2014-01-10 03:23:00,
2014-01-09 19:24:00,48.9,8.5,29.88,WSW,248,4.6,6.2,19,0.00,,---,0.00,VWS V14.01,2014-01-10 03:24:00,
2014-01-09 19:25:00,48.9,8.5,29.88,WSW,248,4.6,4.6,19,0.00,,---,0.00,VWS V14.01,2014-01-10 03:25:00,
2014-01-09 19:26:00,48.9,18.9,29.88,SW,225,2.9,3.3,30,0.00,,---,0.00,VWS V14.01,2014-01-10 03:26:00,
2014-01-09 19:27:00,48.7,18.7,29.88,North,0,0.0,2.9,30,0.00,,---,0.00,VWS V14.01,2014-01-10 03:27:00,
2014-01-09 19:28:00,48.9,18.9,29.88,West,270,0.0,0.0,30,0.00,,---,0.00,VWS V14.01,2014-01-10 03:28:00,
2014-01-09 19:29:00,48.9,18.9,29.89,South,180,4.0,4.0,30,0.00,,---,0.00,VWS V14.01,2014-01-10 03:29:00,
2014-01-09 19:30:00,48.9,18.9,29.89,South,180,4.0,4.0,30,0.00,,---,0.00,VWS V14.01,2014-01-10 03:30:00,
2014-01-09 19:31:00,48.9,18.9,29.89,SW,225,4.2,5.1,30,0.00,,---,0.00,VWS V14.01,2014-01-10 03:31:00,
2014-01-09 19:32:00,48.7,18.7,29.88,SSW,202,2.6,4.2,30,0.00,,---,0.00,VWS V14.01,2014-01-10 03:32:00,
2014-01-09 19:33:00,48.7,18.7,29.89,SW,225,6.2,6.2,30,0.00,,---,0.00,VWS V14.01,2014-01-10 03:33:00,
2014-01-09 19:34:00,48.7,18.7,29.89,SW,225,2.6,6.2,30,0.00,,---,0.00,VWS V14.01,2014-01-10 03:34:00,
2014-01-09 19:35:00,48.5,18.5,29.89,SW,225,4.4,4.4,30,0.00,,---,0.00,VWS V14.01,2014-01-10 03:35:00,
2014-01-09 19:36:00,48.7,18.7,29.89,SW,225,5.5,5.5,30,0.00,,---,0.00,VWS V14.01,2014-01-10 03:36:00,
2014-01-09 19:37:00,48.7,18.7,29.89,WSW,248,6.9,6.9,30,0.00,,---,0.00,VWS V14.01,2014-01-10 03:37:00,
2014-01-09 19:38:00,48.7,18.7,29.89,WSW,248,4.9,6.9,30,0.00,,---,0.00,VWS V14.01,2014-01-10 03:38:00,
2014-01-09 19:39:00,48.9,18.9,29.89,WSW,248,5.5,5.5,30,0.00,,---,0.00,VWS V14.01,2014-01-10 03:39:00,
2014-01-09 19:40:00,48.7,18.7,29.89,SW,225,5.8,5.8,30,0.00,,---,0.00,VWS V14.01,2014-01-10 03:40:00,
2014-01-09 19:41:00,48.9,18.9,29.89,WSW,248,0.0,5.8,30,0.00,,---,0.00,VWS V14.01,2014-01-10 03:41:00,
2014-01-09 19:42:00,48.9,18.9,29.89,SSW,202,4.6,4.6,30,0.00,,---,0.00,VWS V14.01,2014-01-10 03:42:00,
2014-01-09 19:43:00,48.9,18.9,29.89,SSW,202,0.0,4.6,30,0.00,,---,0.00,VWS V14.01,2014-01-10 03:43:00,
2014-01-09 19:44:00,48.9,18.9,29.89,SSW,202,1.5,1.5,30,0.00,,---,0.00,VWS V14.01,2014-01-10 03:44:00,
2014-01-09 19:45:00,48.9,18.9,29.89,SSW,202,3.8,3.8,30,0.00,,---,0.00,VWS V14.01,2014-01-10 03:45:00,
2014-01-09 19:46:00,48.9,18.9,29.90,SSW,202,2.6,3.8,30,0.00,,---,0.00,VWS V14.01,2014-01-10 03:46:00,
2014-01-09 19:47:00,48.7,18.7,29.90,South,180,1.1,2.6,30,0.00,,---,0.00,VWS V14.01,2014-01-10 03:47:00,
2014-01-09 19:48:00,48.5,18.5,29.90,SSW,202,4.0,4.0,30,0.00,,---,0.00,VWS V14.01,2014-01-10 03:48:00,
2014-01-09 19:49:00,48.7,18.7,29.90,SSW,202,2.9,4.0,30,0.00,,---,0.00,VWS V14.01,2014-01-10 03:49:00,
2014-01-09 19:50:00,48.5,18.5,29.90,SSW,202,5.3,5.3,30,0.00,,---,0.00,VWS V14.01,2014-01-10 03:50:00,
2014-01-09 19:51:00,48.5,18.5,29.90,SW,225,5.5,5.5,30,0.00,,---,0.00,VWS V14.01,2014-01-10 03:51:00,
2014-01-09 19:52:00,48.5,18.5,29.90,SW,225,4.9,5.5,30,0.00,,---,0.00,VWS V14.01,2014-01-10 03:52:00,
2014-01-09 19:53:00,48.5,18.5,29.90,SSW,202,4.4,4.9,30,0.00,,---,0.00,VWS V14.01,2014-01-10 03:53:00,
2014-01-09 19:54:00,48.5,18.5,29.90,SSW,202,4.2,4.4,30,0.00,,---,0.00,VWS V14.01,2014-01-10 03:54:00,
2014-01-09 19:55:00,48.5,18.5,29.90,SSW,202,3.1,4.2,30,0.00,,---,0.00,VWS V14.01,2014-01-10 03:55:00,
2014-01-09 19:56:00,48.3,18.3,29.90,WSW,248,4.9,4.9,30,0.00,,---,0.00,VWS V14.01,2014-01-10 03:56:00,
2014-01-09 19:57:00,48.3,18.3,29.90,SSW,202,3.5,4.9,30,0.00,,---,0.00,VWS V14.01,2014-01-10 03:57:00,
2014-01-09 19:58:00,48.3,18.3,29.90,SSW,202,6.0,6.0,30,0.00,,---,0.00,VWS V14.01,2014-01-10 03:58:00,
2014-01-09 19:59:00,48.3,18.3,29.90,SSW,202,7.6,7.6,30,0.00,,---,0.00,VWS V14.01,2014-01-10 03:59:00,
2014-01-09 20:00:00,48.2,18.2,29.90,SSW,202,5.3,5.3,30,0.00,,---,0.00,VWS V14.01,2014-01-10 04:00:00,
2014-01-09 20:01:00,48.3,18.3,29.90,SSW,202,4.9,5.3,30,0.00,,---,0.00,VWS V14.01,2014-01-10 04:01:00,
2014-01-09 20:02:00,48.2,18.2,29.90,SW,225,5.5,5.5,30,0.00,,---,0.00,VWS V14.01,2014-01-10 04:02:00,
2014-01-09 20:03:00,48.2,18.2,29.90,WSW,248,6.0,6.0,30,0.00,,---,0.00,VWS V14.01,2014-01-10 04:03:00,
2014-01-09 20:04:00,48.2,18.2,29.90,SW,225,4.4,6.0,30,0.00,,---,0.00,VWS V14.01,2014-01-10 04:04:00,
2014-01-09 20:05:00,48.2,18.2,29.90,SW,225,4.4,4.4,30,0.00,,---,0.00,VWS V14.01,2014-01-10 04:05:00,
2014-01-09 20:06:00,48.2,18.2,29.90,WSW,248,5.5,5.5,30,0.00,,---,0.00,VWS V14.01,2014-01-10 04:06:00,
2014-01-09 20:07:00,48.2,19.0,29.90,WSW,248,6.2,6.2,31,0.00,,---,0.00,VWS V14.01,2014-01-10 04:07:00,
2014-01-09 20:08:00,48.3,18.3,29.90,SW,225,2.9,6.2,30,0.00,,---,0.00,VWS V14.01,2014-01-10 04:08:00,
2014-01-09 20:09:00,48.3,18.3,29.90,SSW,202,3.3,3.3,30,0.00,,---,0.00,VWS V14.01,2014-01-10 04:09:00,
2014-01-09 20:10:00,48.3,19.1,29.90,North,0,0.0,3.3,31,0.00,,---,0.00,VWS V14.01,2014-01-10 04:10:00,
2014-01-09 20:11:00,48.3,18.3,29.90,SSW,202,4.4,4.4,30,0.00,,---,0.00,VWS V14.01,2014-01-10 04:11:00,
2014-01-09 20:12:00,48.3,19.1,29.90,North,0,0.0,4.4,31,0.00,,---,0.00,VWS V14.01,2014-01-10 04:12:00,
2014-01-09 20:13:00,48.3,19.1,29.90,WSW,248,5.1,5.1,31,0.00,,---,0.00,VWS V14.01,2014-01-10 04:13:00,
2014-01-09 20:14:00,48.3,19.1,29.90,WSW,248,4.9,5.1,31,0.00,,---,0.00,VWS V14.01,2014-01-10 04:14:00,
2014-01-09 20:15:00,48.3,19.1,29.90,SW,225,2.6,4.9,31,0.00,,---,0.00,VWS V14.01,2014-01-10 04:15:00,
2014-01-09 20:16:00,48.3,19.1,29.90,SSW,202,5.3,5.3,31,0.00,,---,0.00,VWS V14.01,2014-01-10 04:16:00,
2014-01-09 20:17:00,48.2,19.0,29.90,SW,225,3.3,5.3,31,0.00,,---,0.00,VWS V14.01,2014-01-10 04:17:00,
2014-01-09 20:18:00,48.3,19.1,29.90,SW,225,3.1,3.3,31,0.00,,---,0.00,VWS V14.01,2014-01-10 04:18:00,
2014-01-09 20:19:00,48.3,19.1,29.90,WSW,248,2.4,3.1,31,0.00,,---,0.00,VWS V14.01,2014-01-10 04:19:00,
2014-01-09 20:20:00,48.2,19.0,29.90,SW,225,0.0,0.0,31,0.00,,---,0.00,VWS V14.01,2014-01-10 04:20:00,
2014-01-09 20:21:00,48.0,18.8,29.90,SSW,202,0.6,0.6,31,0.00,,---,0.00,VWS V14.01,2014-01-10 04:21:00,
2014-01-09 20:22:00,48.2,19.0,29.90,SSW,202,2.2,2.2,31,0.00,,---,0.00,VWS V14.01,2014-01-10 04:22:00,
2014-01-09 20:23:00,48.0,18.8,29.90,North,0,0.0,2.2,31,0.00,,---,0.00,VWS V14.01,2014-01-10 04:23:00,
2014-01-09 20:24:00,47.8,18.6,29.90,South,180,2.4,2.4,31,0.00,,---,0.00,VWS V14.01,2014-01-10 04:24:00,
2014-01-09 20:25:00,47.8,18.6,29.90,SSW,202,3.5,3.5,31,0.00,,---,0.00,VWS V14.01,2014-01-10 04:25:00,
2014-01-09 20:26:00,47.8,17.9,29.90,South,180,3.3,3.5,30,0.00,,---,0.00,VWS V14.01,2014-01-10 04:26:00,
2014-01-09 20:27:00,47.8,18.6,29.90,South,180,1.5,3.3,31,0.00,,---,0.00,VWS V14.01,2014-01-10 04:27:00,
2014-01-09 20:28:00,47.6,17.7,29.91,SSW,202,3.3,3.3,30,0.00,,---,0.00,VWS V14.01,2014-01-10 04:28:00,
2014-01-09 20:29:00,47.6,18.5,29.91,SSW,202,2.9,3.3,31,0.00,,---,0.00,VWS V14.01,2014-01-10 04:29:00,
2014-01-09 20:30:00,47.4,17.5,29.91,SSW,202,1.7,2.9,30,0.00,,---,0.00,VWS V14.01,2014-01-10 04:30:00,
2014-01-09 20:31:00,47.4,17.5,29.91,SSW,202,2.9,2.9,30,0.00,,---,0.00,VWS V14.01,2014-01-10 04:31:00,
2014-01-09 20:32:00,47.3,17.5,29.91,SSE,158,2.4,2.9,30,0.00,,---,0.00,VWS V14.01,2014-01-10 04:32:00,
2014-01-09 20:33:00,47.3,17.5,29.91,SW,225,5.1,5.1,30,0.00,,---,0.00,VWS V14.01,2014-01-10 04:33:00,
2014-01-09 20:34:00,47.3,18.2,29.91,South,180,2.9,5.1,31,0.00,,---,0.00,VWS V14.01,2014-01-10 04:34:00,
2014-01-09 20:35:00,47.3,18.2,29.91,South,180,2.9,2.9,31,0.00,,---,0.00,VWS V14.01,2014-01-10 04:35:00,
2014-01-09 20:36:00,47.1,16.5,29.91,SSE,158,5.1,5.1,29,0.00,,---,0.00,VWS V14.01,2014-01-10 04:36:00,
2014-01-09 20:37:00,47.1,16.5,29.91,SSE,158,1.3,5.1,29,0.00,,---,0.00,VWS V14.01,2014-01-10 04:37:00,
2014-01-09 20:38:00,46.9,16.3,29.91,South,180,4.0,4.0,29,0.00,,---,0.00,VWS V14.01,2014-01-10 04:38:00,
2014-01-09 20:39:00,46.9,16.3,29.91,SSW,202,2.6,4.0,29,0.00,,---,0.00,VWS V14.01,2014-01-10 04:39:00,
2014-01-09 20:40:00,46.9,16.3,29.91,SSW,202,2.6,2.6,29,0.00,,---,0.00,VWS V14.01,2014-01-10 04:40:00,
2014-01-09 20:41:00,46.7,16.1,29.91,SSW,202,0.0,0.0,29,0.00,,---,0.00,VWS V14.01,2014-01-10 04:41:00,
2014-01-09 20:42:00,46.7,16.9,29.90,SSW,202,0.0,0.0,30,0.00,,---,0.00,VWS V14.01,2014-01-10 04:42:00,
2014-01-09 20:43:00,46.7,16.9,29.90,South,180,2.2,2.2,30,0.00,,---,0.00,VWS V14.01,2014-01-10 04:43:00,
2014-01-09 20:44:00,46.5,16.8,29.90,SSE,158,0.8,2.2,30,0.00,,---,0.00,VWS V14.01,2014-01-10 04:44:00,
2014-01-09 20:45:00,46.5,16.8,29.90,SSE,158,0.8,0.8,30,0.00,,---,0.00,VWS V14.01,2014-01-10 04:45:00,
2014-01-09 20:46:00,46.5,16.8,29.90,SSE,158,0.8,1.1,30,0.00,,---,0.00,VWS V14.01,2014-01-10 04:46:00,
2014-01-09 20:47:00,46.5,16.8,29.90,SSE,158,0.6,0.8,30,0.00,,---,0.00,VWS V14.01,2014-01-10 04:47:00,
2014-01-09 20:48:00,46.5,16.8,29.91,SSE,158,0.8,0.8,30,0.00,,---,0.00,VWS V14.01,2014-01-10 04:48:00,
2014-01-09 20:49:00,46.4,16.7,29.91,South,180,3.1,3.1,30,0.00,,---,0.00,VWS V14.01,2014-01-10 04:49:00,
2014-01-09 20:50:00,46.4,16.7,29.91,South,180,3.1,3.1,30,0.00,,---,0.00,VWS V14.01,2014-01-10 04:50:00,
2014-01-09 20:51:00,46.2,16.5,29.90,SSE,158,4.2,4.2,30,0.00,,---,0.00,VWS V14.01,2014-01-10 04:51:00,
2014-01-09 20:52:00,46.2,16.5,29.90,SSE,158,3.5,4.2,30,0.00,,---,0.00,VWS V14.01,2014-01-10 04:52:00,
2014-01-09 20:53:00,46.0,15.5,29.90,SSW,202,1.5,3.5,29,0.00,,---,0.00,VWS V14.01,2014-01-10 04:53:00,
2014-01-09 20:54:00,46.2,16.5,29.90,South,180,4.0,4.0,30,0.00,,---,0.00,VWS V14.01,2014-01-10 04:54:00,
2014-01-09 20:55:00,46.2,16.5,29.90,South,180,4.0,4.0,30,0.00,,---,0.00,VWS V14.01,2014-01-10 04:55:00,
2014-01-09 20:56:00,46.0,16.3,29.91,SSW,202,1.5,2.9,30,0.00,,---,0.00,VWS V14.01,2014-01-10 04:56:00,
2014-01-09 20:57:00,46.0,17.1,29.91,SSW,202,0.0,1.5,31,0.00,,---,0.00,VWS V14.01,2014-01-10 04:57:00,
2014-01-09 20:58:00,46.0,17.1,29.90,SSW,202,0.0,0.0,31,0.00,,---,0.00,VWS V14.01,2014-01-10 04:58:00,
2014-01-09 20:59:00,46.0,16.3,29.91,SSW,202,0.0,0.0,30,0.00,,---,0.00,VWS V14.01,2014-01-10 04:59:00,
2014-01-09 21:00:00,46.0,16.3,29.91,SSW,202,0.0,0.0,30,0.00,,---,0.00,VWS V14.01,2014-01-10 05:00:00,
2014-01-09 21:01:00,46.0,16.3,29.91,SSW,202,0.0,0.0,30,0.00,,---,0.00,VWS V14.01,2014-01-10 05:01:00,
2014-01-09 21:02:00,46.0,17.1,29.91,SSW,202,0.0,0.0,31,0.00,,---,0.00,VWS V14.01,2014-01-10 05:02:00,
2014-01-09 21:03:00,46.0,17.1,29.91,SSW,202,0.0,0.0,31,0.00,,---,0.00,VWS V14.01,2014-01-10 05:03:00,
2014-01-09 21:04:00,46.0,17.1,29.91,South,180,0.0,0.0,31,0.00,,---,0.00,VWS V14.01,2014-01-10 05:04:00,
2014-01-09 21:05:00,46.0,17.1,29.91,SSE,158,0.0,0.0,31,0.00,,---,0.00,VWS V14.01,2014-01-10 05:05:00,
2014-01-09 21:06:00,46.0,17.1,29.91,SSE,158,0.0,0.0,31,0.00,,---,0.00,VWS V14.01,2014-01-10 05:06:00,
2014-01-09 21:07:00,46.0,17.1,29.91,South,180,2.2,2.2,31,0.00,,---,0.00,VWS V14.01,2014-01-10 05:07:00,
2014-01-09 21:08:00,45.8,16.9,29.90,South,180,1.7,2.2,31,0.00,,---,0.00,VWS V14.01,2014-01-10 05:08:00,
2014-01-09 21:09:00,45.8,16.9,29.90,SSW,202,2.2,2.2,31,0.00,,---,0.00,VWS V14.01,2014-01-10 05:09:00,
2014-01-09 21:10:00,45.8,16.9,29.90,SSW,202,3.5,3.5,31,0.00,,---,0.00,VWS V14.01,2014-01-10 05:10:00,
2014-01-09 21:11:00,45.8,16.9,29.90,SSW,202,3.5,3.5,31,0.00,,---,0.00,VWS V14.01,2014-01-10 05:11:00,
2014-01-09 21:12:00,45.8,16.9,29.90,South,180,1.7,1.7,31,0.00,,---,0.00,VWS V14.01,2014-01-10 05:12:00,
2014-01-09 21:13:00,45.5,16.6,29.90,SSW,202,3.3,3.3,31,0.00,,---,0.00,VWS V14.01,2014-01-10 05:13:00,
2014-01-09 21:14:00,45.5,16.6,29.90,SSW,202,4.4,4.4,31,0.00,,---,0.00,VWS V14.01,2014-01-10 05:14:00,
2014-01-09 21:15:00,45.5,16.6,29.90,SSW,202,2.6,4.4,31,0.00,,---,0.00,VWS V14.01,2014-01-10 05:15:00,
2014-01-09 21:16:00,45.5,16.6,29.90,SSW,202,2.6,2.6,31,0.00,,---,0.00,VWS V14.01,2014-01-10 05:16:00,
2014-01-09 21:17:00,45.5,17.4,29.91,SSE,158,2.0,2.0,32,0.00,,---,0.00,VWS V14.01,2014-01-10 05:17:00,
2014-01-09 21:18:00,45.3,17.2,29.91,SSE,158,0.8,2.0,32,0.00,,---,0.00,VWS V14.01,2014-01-10 05:18:00,
2014-01-09 21:19:00,45.3,17.2,29.91,SSE,158,0.0,0.8,32,0.00,,---,0.00,VWS V14.01,2014-01-10 05:19:00,
2014-01-09 21:20:00,45.3,17.2,29.91,SSE,158,0.0,0.0,32,0.00,,---,0.00,VWS V14.01,2014-01-10 05:20:00,
2014-01-09 21:21:00,45.3,17.2,29.91,SSE,158,0.0,0.0,32,0.00,,---,0.00,VWS V14.01,2014-01-10 05:21:00,
2014-01-09 21:22:00,45.3,17.2,29.91,South,180,4.0,4.0,32,0.00,,---,0.00,VWS V14.01,2014-01-10 05:22:00,
2014-01-09 21:23:00,44.9,16.8,29.91,South,180,2.0,4.0,32,0.00,,---,0.00,VWS V14.01,2014-01-10 05:23:00,
2014-01-09 21:24:00,44.9,16.8,29.92,South,180,1.3,2.0,32,0.00,,---,0.00,VWS V14.01,2014-01-10 05:24:00,
2014-01-09 21:25:00,45.1,17.0,29.92,South,180,2.6,2.6,32,0.00,,---,0.00,VWS V14.01,2014-01-10 05:25:00,
2014-01-09 21:26:00,45.1,17.0,29.92,South,180,2.6,2.6,32,0.00,,---,0.00,VWS V14.01,2014-01-10 05:26:00,
2014-01-09 21:27:00,44.9,17.6,29.92,SSW,202,1.7,2.4,33,0.00,,---,0.00,VWS V14.01,2014-01-10 05:27:00,
2014-01-09 21:28:00,44.9,17.6,29.92,SSW,202,0.8,1.7,33,0.00,,---,0.00,VWS V14.01,2014-01-10 05:28:00,
2014-01-09 21:29:00,45.1,17.7,29.92,SSW,202,3.3,3.3,33,0.00,,---,0.00,VWS V14.01,2014-01-10 05:29:00,
2014-01-09 21:30:00,44.9,17.6,29.92,SSW,202,3.3,3.3,33,0.00,,---,0.00,VWS V14.01,2014-01-10 05:30:00,
2014-01-09 21:31:00,44.9,17.6,29.92,SSW,202,3.3,3.3,33,0.00,,---,0.00,VWS V14.01,2014-01-10 05:31:00,
2014-01-09 21:32:00,45.1,17.7,29.92,SSW,202,2.9,2.9,33,0.00,,---,0.00,VWS V14.01,2014-01-10 05:32:00,
2014-01-09 21:33:00,44.9,17.6,29.92,SSW,202,3.8,3.8,33,0.00,,---,0.00,VWS V14.01,2014-01-10 05:33:00,
2014-01-09 21:34:00,44.9,17.6,29.92,SSW,202,2.6,3.8,33,0.00,,---,0.00,VWS V14.01,2014-01-10 05:34:00,
2014-01-09 21:35:00,44.9,17.6,29.92,SSW,202,3.1,3.1,33,0.00,,---,0.00,VWS V14.01,2014-01-10 05:35:00,
2014-01-09 21:36:00,44.9,17.6,29.92,SSW,202,3.1,3.1,33,0.00,,---,0.00,VWS V14.01,2014-01-10 05:36:00,
2014-01-09 21:37:00,44.9,18.2,29.92,SSW,202,3.5,3.5,34,0.00,,---,0.00,VWS V14.01,2014-01-10 05:37:00,
2014-01-09 21:38:00,45.1,18.4,29.92,SW,225,5.1,5.1,34,0.00,,---,0.00,VWS V14.01,2014-01-10 05:38:00,
2014-01-09 21:39:00,45.1,18.4,29.92,SSW,202,2.6,5.1,34,0.00,,---,0.00,VWS V14.01,2014-01-10 05:39:00,
2014-01-09 21:40:00,45.1,18.4,29.92,SSW,202,2.0,2.6,34,0.00,,---,0.00,VWS V14.01,2014-01-10 05:40:00,
2014-01-09 21:41:00,45.1,18.4,29.92,SSW,202,2.0,2.0,34,0.00,,---,0.00,VWS V14.01,2014-01-10 05:41:00,
2014-01-09 21:42:00,45.3,18.6,29.92,SSW,202,3.1,4.2,34,0.00,,---,0.00,VWS V14.01,2014-01-10 05:42:00,
2014-01-09 21:43:00,45.3,18.6,29.92,SSW,202,4.0,4.0,34,0.00,,---,0.00,VWS V14.01,2014-01-10 05:43:00,
2014-01-09 21:44:00,45.3,18.6,29.93,SSW,202,4.0,4.0,34,0.00,,---,0.00,VWS V14.01,2014-01-10 05:44:00,
2014-01-09 21:45:00,45.3,18.6,29.92,South,180,1.7,4.0,34,0.00,,---,0.00,VWS V14.01,2014-01-10 05:45:00,
2014-01-09 21:46:00,45.3,18.6,29.92,South,180,1.7,1.7,34,0.00,,---,0.00,VWS V14.01,2014-01-10 05:46:00,
2014-01-09 21:47:00,45.3,18.6,29.93,SSW,202,3.5,3.5,34,0.00,,---,0.00,VWS V14.01,2014-01-10 05:47:00,
2014-01-09 21:48:00,45.3,18.6,29.92,SW,225,1.7,3.5,34,0.00,,---,0.00,VWS V14.01,2014-01-10 05:48:00,
2014-01-09 21:49:00,45.3,18.6,29.93,WSW,248,3.8,3.8,34,0.00,,---,0.00,VWS V14.01,2014-01-10 05:49:00,
2014-01-09 21:50:00,45.3,18.6,29.93,North,0,0.0,3.8,34,0.00,,---,0.00,VWS V14.01,2014-01-10 05:50:00,
2014-01-09 21:51:00,45.3,18.6,29.93,North,0,0.0,0.0,34,0.00,,---,0.00,VWS V14.01,2014-01-10 05:51:00,
2014-01-09 21:52:00,45.5,19.5,29.93,SW,225,2.6,2.6,35,0.00,,---,0.00,VWS V14.01,2014-01-10 05:52:00,
2014-01-09 21:53:00,45.5,18.8,29.93,SW,225,2.0,2.6,34,0.00,,---,0.00,VWS V14.01,2014-01-10 05:53:00,
2014-01-09 21:54:00,45.5,19.5,29.93,WSW,248,0.0,2.0,35,0.00,,---,0.00,VWS V14.01,2014-01-10 05:54:00,
2014-01-09 21:55:00,45.5,18.8,29.94,WSW,248,0.0,0.0,34,0.00,,---,0.00,VWS V14.01,2014-01-10 05:55:00,
2014-01-09 21:56:00,45.5,18.8,29.94,WSW,248,0.0,0.0,34,0.00,,---,0.00,VWS V14.01,2014-01-10 05:56:00,
2014-01-09 21:57:00,45.5,-31.1,29.94,WSW,248,0.0,0.0,3,0.00,,---,0.00,VWS V14.01,2014-01-10 05:57:00,
2014-01-09 21:58:00,45.5,18.8,29.94,North,0,0.0,0.0,34,0.00,,---,0.00,VWS V14.01,2014-01-10 05:58:00,
2014-01-09 21:59:00,45.5,18.8,29.94,SW,225,1.1,1.1,34,0.00,,---,0.00,VWS V14.01,2014-01-10 05:59:00,
2014-01-09 22:00:00,45.5,18.8,29.94,SW,225,0.0,1.1,34,0.00,,---,0.00,VWS V14.01,2014-01-10 06:00:00,
2014-01-09 22:01:00,45.5,18.8,29.94,SW,225,0.0,0.0,34,0.00,,---,0.00,VWS V14.01,2014-01-10 06:01:00,
2014-01-09 22:02:00,45.5,18.8,29.94,SSW,202,2.2,2.2,34,0.00,,---,0.00,VWS V14.01,2014-01-10 06:02:00,
2014-01-09 22:03:00,45.5,18.8,29.93,SSW,202,1.1,2.2,34,0.00,,---,0.00,VWS V14.01,2014-01-10 06:03:00,
2014-01-09 22:04:00,45.3,18.6,29.93,South,180,2.4,2.4,34,0.00,,---,0.00,VWS V14.01,2014-01-10 06:04:00,
2014-01-09 22:05:00,45.3,18.6,29.93,SSW,202,5.3,5.3,34,0.00,,---,0.00,VWS V14.01,2014-01-10 06:05:00,
2014-01-09 22:06:00,45.3,18.6,29.93,SSW,202,5.3,5.3,34,0.00,,---,0.00,VWS V14.01,2014-01-10 06:06:00,
2014-01-09 22:07:00,45.1,18.4,29.93,South,180,3.1,3.3,34,0.00,,---,0.00,VWS V14.01,2014-01-10 06:07:00,
2014-01-09 22:08:00,44.9,18.2,29.93,South,180,3.8,3.8,34,0.00,,---,0.00,VWS V14.01,2014-01-10 06:08:00,
2014-01-09 22:09:00,44.9,18.2,29.93,South,180,3.5,3.8,34,0.00,,---,0.00,VWS V14.01,2014-01-10 06:09:00,
2014-01-09 22:10:00,44.9,18.2,29.93,South,180,1.7,3.5,34,0.00,,---,0.00,VWS V14.01,2014-01-10 06:10:00,
2014-01-09 22:11:00,44.9,18.2,29.93,South,180,1.7,1.7,34,0.00,,---,0.00,VWS V14.01,2014-01-10 06:11:00,
2014-01-09 22:12:00,44.9,18.2,29.92,South,180,1.3,1.3,34,0.00,,---,0.00,VWS V14.01,2014-01-10 06:12:00,
2014-01-09 22:13:00,44.7,18.1,29.92,South,180,3.1,3.1,34,0.00,,---,0.00,VWS V14.01,2014-01-10 06:13:00,
2014-01-09 22:14:00,44.7,18.1,29.92,SSW,202,2.2,3.1,34,0.00,,---,0.00,VWS V14.01,2014-01-10 06:14:00,
2014-01-09 22:15:00,44.7,18.1,29.92,South,180,1.1,2.2,34,0.00,,---,0.00,VWS V14.01,2014-01-10 06:15:00,
2014-01-09 22:16:00,44.7,18.1,29.92,South,180,1.1,1.1,34,0.00,,---,0.00,VWS V14.01,2014-01-10 06:16:00,
2014-01-09 22:17:00,44.7,18.8,29.92,SSW,202,2.4,2.4,35,0.00,,---,0.00,VWS V14.01,2014-01-10 06:17:00,
2014-01-09 22:18:00,44.7,18.8,29.92,SW,225,2.4,2.4,35,0.00,,---,0.00,VWS V14.01,2014-01-10 06:18:00,
2014-01-09 22:19:00,44.7,18.8,29.92,North,0,0.0,2.4,35,0.00,,---,0.00,VWS V14.01,2014-01-10 06:19:00,
2014-01-09 22:20:00,44.7,18.8,29.92,SSW,202,2.6,2.6,35,0.00,,---,0.00,VWS V14.01,2014-01-10 06:20:00,
2014-01-09 22:21:00,44.7,18.8,29.92,SSW,202,2.6,2.6,35,0.00,,---,0.00,VWS V14.01,2014-01-10 06:21:00,
2014-01-09 22:22:00,44.7,18.8,29.92,North,0,0.0,2.6,35,0.00,,---,0.00,VWS V14.01,2014-01-10 06:22:00,
2014-01-09 22:23:00,44.9,18.9,29.92,SW,225,4.6,4.6,35,0.00,,---,0.00,VWS V14.01,2014-01-10 06:23:00,
2014-01-09 22:24:00,44.9,18.9,29.93,SSW,202,3.1,4.6,35,0.00,,---,0.00,VWS V14.01,2014-01-10 06:24:00,
2014-01-09 22:25:00,44.9,18.9,29.93,SSW,202,0.0,3.1,35,0.00,,---,0.00,VWS V14.01,2014-01-10 06:25:00,
2014-01-09 22:26:00,44.9,18.9,29.93,SSW,202,0.0,0.0,35,0.00,,---,0.00,VWS V14.01,2014-01-10 06:26:00,
2014-01-09 22:27:00,45.1,19.8,29.93,WSW,248,2.6,2.6,36,0.00,,---,0.00,VWS V14.01,2014-01-10 06:27:00,
2014-01-09 22:28:00,44.9,19.6,29.93,WSW,248,1.5,2.6,36,0.00,,---,0.00,VWS V14.01,2014-01-10 06:28:00,
2014-01-09 22:29:00,44.9,19.6,29.93,WSW,248,0.0,1.5,36,0.00,,---,0.00,VWS V14.01,2014-01-10 06:29:00,
2014-01-09 22:30:00,45.1,19.1,29.93,WSW,248,0.0,0.0,35,0.00,,---,0.00,VWS V14.01,2014-01-10 06:30:00,
2014-01-09 22:31:00,45.1,19.1,29.93,WSW,248,0.0,0.0,35,0.00,,---,0.00,VWS V14.01,2014-01-10 06:31:00,
2014-01-09 22:32:00,45.1,19.1,29.93,WSW,248,0.0,0.0,35,0.00,,---,0.00,VWS V14.01,2014-01-10 06:32:00,
2014-01-09 22:33:00,44.9,18.9,29.93,WSW,248,0.0,0.0,35,0.00,,---,0.00,VWS V14.01,2014-01-10 06:33:00,
2014-01-09 22:34:00,44.9,18.9,29.93,WSW,248,0.0,0.0,35,0.00,,---,0.00,VWS V14.01,2014-01-10 06:34:00,
2014-01-09 22:35:00,44.9,18.9,29.94,WSW,248,0.0,0.0,35,0.00,,---,0.00,VWS V14.01,2014-01-10 06:35:00,
2014-01-09 22:36:00,44.9,18.9,29.94,WSW,248,0.0,0.0,35,0.00,,---,0.00,VWS V14.01,2014-01-10 06:36:00,
2014-01-09 22:37:00,44.9,18.9,29.94,WSW,248,0.0,0.0,35,0.00,,---,0.00,VWS V14.01,2014-01-10 06:37:00,
2014-01-09 22:38:00,44.9,18.9,29.93,WSW,248,0.0,0.0,35,0.00,,---,0.00,VWS V14.01,2014-01-10 06:38:00,
2014-01-09 22:39:00,44.9,18.2,29.93,SW,225,0.0,0.0,34,0.00,,---,0.00,VWS V14.01,2014-01-10 06:39:00,
2014-01-09 22:40:00,44.7,18.1,29.93,SSW,202,4.0,4.0,34,0.00,,---,0.00,VWS V14.01,2014-01-10 06:40:00,
2014-01-09 22:41:00,44.7,18.1,29.93,SSW,202,4.0,4.0,34,0.00,,---,0.00,VWS V14.01,2014-01-10 06:41:00,
2014-01-09 22:42:00,44.7,18.8,29.93,South,180,3.1,3.5,35,0.00,,---,0.00,VWS V14.01,2014-01-10 06:42:00,
2014-01-09 22:43:00,44.9,18.9,29.93,SW,225,4.9,4.9,35,0.00,,---,0.00,VWS V14.01,2014-01-10 06:43:00,
2014-01-09 22:44:00,44.7,18.8,29.93,SW,225,4.0,4.9,35,0.00,,---,0.00,VWS V14.01,2014-01-10 06:44:00,
2014-01-09 22:45:00,44.9,18.9,29.94,SSW,202,3.5,4.0,35,0.00,,---,0.00,VWS V14.01,2014-01-10 06:45:00,
2014-01-09 22:46:00,44.9,18.9,29.94,SSW,202,3.5,3.5,35,0.00,,---,0.00,VWS V14.01,2014-01-10 06:46:00,
2014-01-09 22:47:00,44.9,19.6,29.93,WSW,248,0.8,2.2,36,0.00,,---,0.00,VWS V14.01,2014-01-10 06:47:00,
2014-01-09 22:48:00,44.9,19.6,29.93,WSW,248,0.0,0.8,36,0.00,,---,0.00,VWS V14.01,2014-01-10 06:48:00,
2014-01-09 22:49:00,44.9,19.6,29.93,South,180,5.3,5.3,36,0.00,,---,0.00,VWS V14.01,2014-01-10 06:49:00,
2014-01-09 22:50:00,45.1,19.8,29.93,SSW,202,5.8,5.8,36,0.00,,---,0.00,VWS V14.01,2014-01-10 06:50:00,
2014-01-09 22:51:00,45.1,19.8,29.93,SSW,202,5.8,5.8,36,0.00,,---,0.00,VWS V14.01,2014-01-10 06:51:00,
2014-01-09 22:52:00,45.1,19.8,29.93,South,180,3.8,5.3,36,0.00,,---,0.00,VWS V14.01,2014-01-10 06:52:00,
2014-01-09 22:53:00,44.9,19.6,29.93,SSW,202,2.0,3.8,36,0.00,,---,0.00,VWS V14.01,2014-01-10 06:53:00,
2014-01-09 22:54:00,45.1,20.4,29.93,SSW,202,5.3,5.3,37,0.00,,---,0.00,VWS V14.01,2014-01-10 06:54:00,
2014-01-09 22:55:00,45.1,20.4,29.93,SW,225,6.4,6.4,37,0.00,,---,0.00,VWS V14.01,2014-01-10 06:55:00,
2014-01-09 22:56:00,45.1,20.4,29.93,SW,225,6.4,6.4,37,0.00,,---,0.00,VWS V14.01,2014-01-10 06:56:00,
2014-01-09 22:57:00,45.3,20.6,29.93,SSW,202,3.8,5.8,37,0.00,,---,0.00,VWS V14.01,2014-01-10 06:57:00,
2014-01-09 22:58:00,45.1,20.4,29.93,WSW,248,2.2,3.8,37,0.00,,---,0.00,VWS V14.01,2014-01-10 06:58:00,
2014-01-09 22:59:00,44.9,20.2,29.93,SW,225,2.4,2.4,37,0.00,,---,0.00,VWS V14.01,2014-01-10 06:59:00,
2014-01-09 23:00:00,45.1,20.4,29.93,SSW,202,4.4,4.4,37,0.00,,---,0.00,VWS V14.01,2014-01-10 07:00:00,
2014-01-09 23:01:00,45.1,20.4,29.93,SSW,202,4.4,4.4,37,0.00,,---,0.00,VWS V14.01,2014-01-10 07:01:00,
2014-01-09 23:02:00,45.1,20.4,29.93,SSW,202,2.9,7.1,37,0.00,,---,0.00,VWS V14.01,2014-01-10 07:02:00,
2014-01-09 23:03:00,45.1,20.4,29.93,SSW,202,6.4,6.4,37,0.00,,---,0.00,VWS V14.01,2014-01-10 07:03:00,
2014-01-09 23:04:00,45.1,20.4,29.93,SW,225,5.1,6.4,37,0.00,,---,0.00,VWS V14.01,2014-01-10 07:04:00,
2014-01-09 23:05:00,45.1,20.4,29.93,SSW,202,3.1,5.1,37,0.00,,---,0.00,VWS V14.01,2014-01-10 07:05:00,
2014-01-09 23:06:00,45.1,20.4,29.93,SSW,202,3.1,3.1,37,0.00,,---,0.00,VWS V14.01,2014-01-10 07:06:00,
2014-01-09 23:07:00,45.3,20.6,29.93,SSW,202,0.0,2.4,37,0.00,,---,0.00,VWS V14.01,2014-01-10 07:07:00,
2014-01-09 23:08:00,45.3,20.6,29.93,SSW,202,4.0,4.0,37,0.00,,---,0.00,VWS V14.01,2014-01-10 07:08:00,
2014-01-09 23:09:00,45.3,20.6,29.93,SSW,202,3.5,4.0,37,0.00,,---,0.00,VWS V14.01,2014-01-10 07:09:00,
2014-01-09 23:10:00,45.3,20.6,29.93,SSW,202,6.7,6.7,37,0.00,,---,0.00,VWS V14.01,2014-01-10 07:10:00,
2014-01-09 23:11:00,45.3,20.6,29.93,SSW,202,6.7,6.7,37,0.00,,---,0.00,VWS V14.01,2014-01-10 07:11:00,
2014-01-09 23:12:00,45.3,20.6,29.93,SSW,202,5.8,5.8,37,0.00,,---,0.00,VWS V14.01,2014-01-10 07:12:00,
2014-01-09 23:13:00,45.1,20.4,29.93,SSW,202,4.0,5.8,37,0.00,,---,0.00,VWS V14.01,2014-01-10 07:13:00,
2014-01-09 23:14:00,45.3,21.2,29.93,South,180,3.8,4.0,38,0.00,,---,0.00,VWS V14.01,2014-01-10 07:14:00,
2014-01-09 23:15:00,45.3,21.2,29.93,South,180,2.2,3.8,38,0.00,,---,0.00,VWS V14.01,2014-01-10 07:15:00,
2014-01-09 23:16:00,45.3,21.2,29.93,South,180,2.2,2.2,38,0.00,,---,0.00,VWS V14.01,2014-01-10 07:16:00,
2014-01-09 23:17:00,45.1,21.0,29.93,SSW,202,3.8,7.1,38,0.00,,---,0.00,VWS V14.01,2014-01-10 07:17:00,
2014-01-09 23:18:00,45.3,21.2,29.93,SSW,202,4.9,4.9,38,0.00,,---,0.00,VWS V14.01,2014-01-10 07:18:00,
2014-01-09 23:19:00,45.3,21.2,29.93,SSW,202,1.7,4.9,38,0.00,,---,0.00,VWS V14.01,2014-01-10 07:19:00,
2014-01-09 23:20:00,45.1,21.0,29.93,SSW,202,4.2,4.2,38,0.00,,---,0.00,VWS V14.01,2014-01-10 07:20:00,
2014-01-09 23:21:00,45.1,21.0,29.93,SSW,202,4.2,4.2,38,0.00,,---,0.00,VWS V14.01,2014-01-10 07:21:00,
2014-01-09 23:22:00,45.3,21.2,29.93,SSW,202,4.2,4.2,38,0.00,,---,0.00,VWS V14.01,2014-01-10 07:22:00,
2014-01-09 23:23:00,45.1,21.0,29.93,SSW,202,1.5,4.2,38,0.00,,---,0.00,VWS V14.01,2014-01-10 07:23:00,
2014-01-09 23:24:00,45.3,21.2,29.93,SSW,202,2.4,2.4,38,0.00,,---,0.00,VWS V14.01,2014-01-10 07:24:00,
2014-01-09 23:25:00,45.1,21.0,29.93,SSW,202,5.5,5.5,38,0.00,,---,0.00,VWS V14.01,2014-01-10 07:25:00,
2014-01-09 23:26:00,45.1,21.0,29.93,SSW,202,5.5,5.5,38,0.00,,---,0.00,VWS V14.01,2014-01-10 07:26:00,
2014-01-09 23:27:00,44.9,20.2,29.93,SSW,202,3.1,5.3,37,0.00,,---,0.00,VWS V14.01,2014-01-10 07:27:00,
2014-01-09 23:28:00,44.9,20.9,29.93,SSW,202,4.2,4.2,38,0.00,,---,0.00,VWS V14.01,2014-01-10 07:28:00,
2014-01-09 23:29:00,44.9,20.9,29.93,SSW,202,5.8,5.8,38,0.00,,---,0.00,VWS V14.01,2014-01-10 07:29:00,
2014-01-09 23:30:00,44.9,20.9,29.93,SW,225,5.3,5.8,38,0.00,,---,0.00,VWS V14.01,2014-01-10 07:30:00,
2014-01-09 23:31:00,44.9,20.9,29.93,SW,225,5.3,5.3,38,0.00,,---,0.00,VWS V14.01,2014-01-10 07:31:00,
2014-01-09 23:32:00,45.1,21.0,29.93,SW,225,8.0,8.0,38,0.00,,---,0.00,VWS V14.01,2014-01-10 07:32:00,
2014-01-09 23:33:00,45.3,21.2,29.93,SSW,202,8.7,8.7,38,0.00,,---,0.00,VWS V14.01,2014-01-10 07:33:00,
2014-01-09 23:34:00,45.1,21.6,29.92,SSW,202,8.0,8.7,39,0.00,,---,0.00,VWS V14.01,2014-01-10 07:34:00,
2014-01-09 23:35:00,45.3,21.8,29.92,SSW,202,5.3,8.0,39,0.00,,---,0.00,VWS V14.01,2014-01-10 07:35:00,
2014-01-09 23:36:00,45.3,21.8,29.92,SSW,202,5.3,5.3,39,0.00,,---,0.00,VWS V14.01,2014-01-10 07:36:00,
2014-01-09 23:37:00,45.3,21.8,29.92,SSW,202,7.1,8.0,39,0.00,,---,0.00,VWS V14.01,2014-01-10 07:37:00,
2014-01-09 23:38:00,45.5,22.0,29.93,SSW,202,5.8,7.1,39,0.00,,---,0.00,VWS V14.01,2014-01-10 07:38:00,
2014-01-09 23:39:00,45.5,22.0,29.92,SSW,202,6.2,6.2,39,0.00,,---,0.00,VWS V14.01,2014-01-10 07:39:00,
2014-01-09 23:40:00,45.5,22.0,29.92,SW,225,6.7,6.7,39,0.00,,---,0.00,VWS V14.01,2014-01-10 07:40:00,
2014-01-09 23:41:00,45.5,22.0,29.92,SW,225,6.7,6.7,39,0.00,,---,0.00,VWS V14.01,2014-01-10 07:41:00,
2014-01-09 23:42:00,45.3,21.2,29.92,SSW,202,3.3,5.5,38,0.00,,---,0.00,VWS V14.01,2014-01-10 07:42:00,
2014-01-09 23:43:00,45.5,22.0,29.92,SSW,202,4.2,4.2,39,0.00,,---,0.00,VWS V14.01,2014-01-10 07:43:00,
2014-01-09 23:44:00,45.5,21.4,29.92,WSW,248,4.9,4.9,38,0.00,,---,0.00,VWS V14.01,2014-01-10 07:44:00,
2014-01-09 23:45:00,45.5,21.4,29.93,West,270,1.1,4.9,38,0.00,,---,0.00,VWS V14.01,2014-01-10 07:45:00,
2014-01-09 23:46:00,45.5,21.4,29.93,West,270,1.1,1.1,38,0.00,,---,0.00,VWS V14.01,2014-01-10 07:46:00,
2014-01-09 23:47:00,45.5,21.4,29.93,WSW,248,1.7,4.6,38,0.00,,---,0.00,VWS V14.01,2014-01-10 07:47:00,
2014-01-09 23:48:00,45.5,21.4,29.93,WSW,248,4.0,4.0,38,0.00,,---,0.00,VWS V14.01,2014-01-10 07:48:00,
2014-01-09 23:49:00,45.5,21.4,29.93,WSW,248,1.1,4.0,38,0.00,,---,0.00,VWS V14.01,2014-01-10 07:49:00,
2014-01-09 23:50:00,45.5,21.4,29.93,WSW,248,2.0,2.0,38,0.00,,---,0.00,VWS V14.01,2014-01-10 07:50:00,
2014-01-09 23:51:00,45.5,21.4,29.93,WSW,248,2.0,2.0,38,0.00,,---,0.00,VWS V14.01,2014-01-10 07:51:00,
2014-01-09 23:52:00,45.3,21.8,29.93,WSW,248,2.6,2.9,39,0.00,,---,0.00,VWS V14.01,2014-01-10 07:52:00,
2014-01-09 23:53:00,45.3,21.8,29.93,WSW,248,4.0,4.0,39,0.00,,---,0.00,VWS V14.01,2014-01-10 07:53:00,
2014-01-09 23:54:00,45.1,21.0,29.93,SW,225,4.6,4.6,38,0.00,,---,0.00,VWS V14.01,2014-01-10 07:54:00,
2014-01-09 23:55:00,45.1,21.0,29.93,WSW,248,3.3,4.6,38,0.00,,---,0.00,VWS V14.01,2014-01-10 07:55:00,
2014-01-09 23:56:00,45.1,21.0,29.93,WSW,248,3.3,3.3,38,0.00,,---,0.00,VWS V14.01,2014-01-10 07:56:00,
2014-01-09 23:57:00,45.3,21.8,29.93,SW,225,3.8,3.8,39,0.00,,---,0.00,VWS V14.01,2014-01-10 07:57:00,
2014-01-09 23:58:00,45.3,21.8,29.93,WSW,248,2.0,3.8,39,0.00,,---,0.00,VWS V14.01,2014-01-10 07:58:00,
2014-01-09 23:59:00,45.3,21.8,29.93,SSW,202,5.5,5.5,39,0.00,,---,0.00,VWS V14.01,2014-01-10 07:59:00,